FR1902 / SP-RSQ 7700 Squawk Report (13th of July, 2020)

Aircraft B738 Reg No. SP-RSQ Age 3 years old
Model 737 Jet engines 2 First flight 17-02-17
Registered 02-04-19 Rollout N/A Delivered 28-02-17
Construction No. 44774 Line No. 6292 Series 800
ADSHEX 48C239 Airline name Buzz Owner N/A
Airfield based Modlin~Siedleckie~SP First tracked N/A

Flight history for SP-RSQ

Route Flight No Date Playback
Barcelona–El Prat (BCN) - Sofia (SOF) FR6330 2020-08-08 19:12:00
Sofia (SOF) - Barcelona–El Prat (BCN) FR6329 2020-08-08 16:26:00
Tille (BVA) - Sofia (SOF) FR6794 2020-08-07 20:58:00
Sofia (SOF) - Tille (BVA) FR6793 2020-08-07 17:40:00
Barcelona–El Prat (BCN) - Sofia (SOF) FR6330 2020-08-06 20:11:00
Sofia (SOF) - Barcelona–El Prat (BCN) FR6329 2020-08-06 17:30:00
Bergamo Orio Al Serio (BGY) - Sofia (SOF) FR6324 2020-08-06 12:17:00
Sofia (SOF) - Bergamo Orio Al Serio (BGY) FR6323 2020-08-06 09:49:00
Ciampino (CIA) - Sofia (SOF) FR6309 2020-08-06 07:28:00
Sofia (SOF) - Ciampino (CIA) FR6308 2020-08-06 05:50:00
Barcelona–El Prat (BCN) - Sofia (SOF) FR6330 2020-08-04 19:12:00
Sofia (SOF) - Barcelona–El Prat (BCN) FR6329 2020-08-04 15:39:00
Liverpool (LPL) - Sofia (SOF) FR6338 2020-08-04 12:05:00
Sofia (SOF) - Liverpool (LPL) FR6337 2020-08-04 08:48:00
Tille (BVA) - Sofia (SOF) FR6794 2020-08-04 04:41:00
Sofia (SOF) - Tille (BVA) FR6793 2020-08-03 17:00:00
Koln Bonn (CGN) - Sofia (SOF) FR6307 2020-08-03 14:17:00
Sofia (SOF) - Koln Bonn (CGN) FR6306 2020-08-03 11:11:00
Ciampino (CIA) - Sofia (SOF) FR6309 2020-08-03 07:21:00
Sofia (SOF) - Ciampino (CIA) FR6308 2020-08-03 05:22:00
Time Lat Lon Altitude Heading Speed Vertical Rate
2020-07-13 17:49:18 GMT 51.887970 0.227131 0 42 5 0
2020-07-13 17:48:49 GMT 51.887512 0.226407 0 351 6 0
2020-07-13 17:48:22 GMT 51.886780 0.227502 0 309 12 0
2020-07-13 17:48:07 GMT 51.886230 0.228579 0 309 12 0
2020-07-13 17:48:02 GMT 51.886066 0.228901 0 309 11 0
2020-07-13 17:47:56 GMT 51.885880 0.229263 0 309 11 0
2020-07-13 17:47:45 GMT 51.885544 0.229915 0 309 10 0
2020-07-13 17:47:32 GMT 51.885147 0.230598 0 345 9 0
2020-07-13 17:47:25 GMT 51.884903 0.230676 0 28 9 0
2020-07-13 17:47:15 GMT 51.884563 0.230236 0 39 9 0
2020-07-13 17:47:04 GMT 51.884239 0.229893 0 354 9 0
2020-07-13 17:46:55 GMT 51.883923 0.230103 0 295 8 0
2020-07-13 17:46:45 GMT 51.883747 0.230713 0 292 13 0
2020-07-13 17:46:35 GMT 51.883530 0.231571 0 292 12 0
2020-07-13 17:46:27 GMT 51.883400 0.232143 0 258 10 0
2020-07-13 17:46:24 GMT 51.883411 0.232353 0 236 10 0
2020-07-13 17:46:17 GMT 51.883678 0.232792 0 222 19 0
2020-07-13 17:46:14 GMT 51.883842 0.233040 0 222 24 0
2020-07-13 17:46:06 GMT 51.884586 0.234165 0 225 38 0
2020-07-13 17:46:03 GMT 51.885017 0.234795 0 222 41 0
2020-07-13 17:45:56 GMT 51.886173 0.236540 0 222 53 0
2020-07-13 17:45:53 GMT 51.886623 0.237198 0 225 61 0
2020-07-13 17:45:49 GMT 51.887444 0.238470 0 225 78 0
2020-07-13 17:45:44 GMT 51.888908 0.240660 0 225 100 0
2020-07-13 17:45:40 GMT 51.890385 0.242844 100 223 116 -128
2020-07-13 17:45:34 GMT 51.892868 0.246599 150 224 131 -320
2020-07-13 17:45:28 GMT 51.895458 0.250567 200 224 131 -640
2020-07-13 17:45:24 GMT 51.897354 0.253372 250 223 130 -576
2020-07-13 17:45:20 GMT 51.898911 0.255661 300 223 129 -640
2020-07-13 17:45:17 GMT 51.901974 0.260219 350 223 128 -576
2020-07-13 17:45:13 GMT 51.901974 0.260219 375 224 129 -640
2020-07-13 17:45:10 GMT 51.903324 0.262259 400 224 129 -704
2020-07-13 17:45:07 GMT 51.906349 0.266889 450 223 129 -576
2020-07-13 17:45:04 GMT 51.906349 0.266889 475 224 128 -704
2020-07-13 17:44:59 GMT 51.908306 0.269793 525 224 128 -640
2020-07-13 17:44:56 GMT 51.909668 0.271912 575 223 129 -768
2020-07-13 17:44:52 GMT 51.911087 0.273972 625 223 129 -640
2020-07-13 17:44:48 GMT 51.913010 0.276871 675 224 128 -640
2020-07-13 17:44:44 GMT 51.914730 0.279524 700 223 127 -512
2020-07-13 17:44:41 GMT 51.915848 0.281172 725 223 127 -640
2020-07-13 17:44:38 GMT 51.917522 0.283604 775 224 125 -704
2020-07-13 17:44:35 GMT 51.918594 0.285263 825 224 125 -640
2020-07-13 17:44:32 GMT 51.919945 0.287292 825 224 125 -704
2020-07-13 17:44:28 GMT 51.921707 0.289993 875 224 125 -640
2020-07-13 17:44:24 GMT 51.923767 0.293045 925 224 126 -640
2020-07-13 17:44:21 GMT 51.924454 0.294113 950 224 126 -640
2020-07-13 17:44:18 GMT 51.926056 0.296555 975 224 127 -704
2020-07-13 17:44:15 GMT 51.928482 0.300217 1,050 224 128 -704
2020-07-13 17:44:12 GMT 51.928482 0.300217 1,075 223 129 -768
2020-07-13 17:44:09 GMT 51.929718 0.302124 1,100 223 129 -640
2020-07-13 17:44:06 GMT 51.931091 0.304108 1,125 223 128 -640
2020-07-13 17:44:03 GMT 51.932419 0.306126 1,150 223 128 -576
2020-07-13 17:44:00 GMT 51.933701 0.307999 1,200 223 128 -576
2020-07-13 17:43:57 GMT 51.935074 0.310059 1,225 223 128 -640
2020-07-13 17:43:54 GMT 51.936356 0.311966 1,250 223 128 -640
2020-07-13 17:43:51 GMT 51.937679 0.313974 1,250 223 129 -640
2020-07-13 17:43:48 GMT 51.938889 0.315700 1,325 224 133 -832
2020-07-13 17:43:45 GMT 51.940704 0.318447 1,350 223 135 -768
2020-07-13 17:43:42 GMT 51.941635 0.319938 1,400 223 136 -704
2020-07-13 17:43:39 GMT 51.943268 0.322418 1,425 223 137 -704
2020-07-13 17:43:36 GMT 51.944477 0.324175 1,425 223 138 -704
2020-07-13 17:43:33 GMT 51.947411 0.328570 1,500 223 142 -832
2020-07-13 17:43:27 GMT 51.948578 0.330353 1,575 224 142 -832
2020-07-13 17:43:24 GMT 51.950317 0.333023 1,600 223 142 -832
2020-07-13 17:43:21 GMT 51.951412 0.334691 1,650 223 144 -640
2020-07-13 17:43:18 GMT 51.953476 0.337753 1,700 223 145 -576
2020-07-13 17:43:15 GMT 51.954674 0.339556 1,700 224 146 -576
2020-07-13 17:43:12 GMT 51.956451 0.342331 1,750 224 146 -576
2020-07-13 17:43:08 GMT 51.957745 0.344264 1,800 223 145 -640
2020-07-13 17:43:05 GMT 51.959606 0.347011 1,800 223 145 -640
2020-07-13 17:43:02 GMT 51.960815 0.348816 1,825 223 145 -576
2020-07-13 17:42:59 GMT 51.962540 0.351327 1,875 223 145 -448
2020-07-13 17:42:56 GMT 51.964050 0.353546 1,900 224 145 -320
2020-07-13 17:42:53 GMT 51.965469 0.355682 2,000 224 144 -256
2020-07-13 17:42:50 GMT 51.966980 0.357971 1,925 223 144 -320
2020-07-13 17:42:47 GMT 51.968491 0.360184 1,925 223 144 -384
2020-07-13 17:42:44 GMT 51.971924 0.365448 1,975 224 144 -384
2020-07-13 17:42:41 GMT 51.971924 0.365448 2,000 224 145 -384
2020-07-13 17:42:35 GMT 51.974396 0.369186 2,025 224 145 -384
2020-07-13 17:42:32 GMT 51.975620 0.371102 2,025 224 146 -320
2020-07-13 17:42:29 GMT 51.977249 0.373535 2,025 226 147 -384
2020-07-13 17:42:26 GMT 51.978458 0.375497 2,050 226 147 -384
2020-07-13 17:42:23 GMT 51.980072 0.378189 2,075 227 147 -320
2020-07-13 17:42:20 GMT 51.981262 0.380249 2,100 227 147 -448
2020-07-13 17:42:16 GMT 51.983349 0.383737 2,550 265 165 -640
2020-07-13 17:42:13 GMT 51.984745 0.386169 2,150 227 149 -384
2020-07-13 17:42:10 GMT 51.986023 0.388336 2,175 230 149 -384
2020-07-13 17:42:07 GMT 51.987633 0.391192 2,175 230 149 -384
2020-07-13 17:42:04 GMT 51.988979 0.393781 2,225 231 149 -384
2020-07-13 17:42:01 GMT 51.991699 0.399551 2,225 235 149 -384
2020-07-13 17:41:58 GMT 51.991699 0.399551 2,250 236 150 -384
2020-07-13 17:41:55 GMT 51.992798 0.402145 2,275 238 150 -448
2020-07-13 17:41:52 GMT 51.993774 0.404611 2,275 240 150 -576
2020-07-13 17:41:49 GMT 51.994766 0.407486 2,300 246 150 -512
2020-07-13 17:41:46 GMT 51.995407 0.410080 2,325 250 149 -384
2020-07-13 17:41:43 GMT 51.996010 0.415440 2,350 264 153 -448
2020-07-13 17:41:40 GMT 51.996151 0.417559 2,450 265 158 -448
2020-07-13 17:41:37 GMT 51.996368 0.420914 2,400 265 155 -448
2020-07-13 17:41:34 GMT 51.996597 0.424347 2,400 265 157 -384
2020-07-13 17:41:31 GMT 51.996895 0.429016 2,450 264 159 -448
2020-07-13 17:41:27 GMT 51.997147 0.432892 2,475 264 161 -576
2020-07-13 17:41:24 GMT 51.997360 0.436393 2,500 265 163 -640
2020-07-13 17:41:21 GMT 51.997547 0.439375 2,525 265 164 -640
2020-07-13 17:41:18 GMT 51.997787 0.443039 2,825 265 178 -1024
2020-07-13 17:41:15 GMT 51.998062 0.447693 2,600 265 167 -576
2020-07-13 17:41:12 GMT 51.998337 0.452401 2,625 265 169 -640
2020-07-13 17:41:09 GMT 51.998566 0.456390 2,650 265 172 -384
2020-07-13 17:41:06 GMT 51.998711 0.458444 2,675 265 174 -384
2020-07-13 17:41:03 GMT 51.998943 0.462681 2,700 265 177 -1024
2020-07-13 17:41:00 GMT 51.999081 0.465742 2,725 265 177 -960
2020-07-13 17:40:57 GMT 51.999344 0.470734 2,825 265 180 -1088
2020-07-13 17:40:54 GMT 51.999596 0.474688 2,825 265 180 -1152
2020-07-13 17:40:51 GMT 51.999783 0.478376 2,900 265 183 -1152
2020-07-13 17:40:48 GMT 52.000294 0.487479 3,025 265 186 -1216
2020-07-13 17:40:45 GMT 52.000572 0.492266 3,075 265 211 -704
2020-07-13 17:40:42 GMT 52.000763 0.496063 3,125 265 189 -1216
2020-07-13 17:40:39 GMT 52.000763 0.496063 3,150 265 190 -1216
2020-07-13 17:40:36 GMT 52.000992 0.500270 3,250 265 193 -1344
2020-07-13 17:40:33 GMT 52.001175 0.503159 3,275 265 194 -1408
2020-07-13 17:40:30 GMT 52.001450 0.508804 3,350 266 195 -1472
2020-07-13 17:40:27 GMT 52.001953 0.517960 3,500 266 198 -1536
2020-07-13 17:40:20 GMT 52.002228 0.523376 3,600 265 203 -704
2020-07-13 17:40:17 GMT 52.002434 0.527579 3,650 266 206 -768
2020-07-13 17:40:14 GMT 52.002686 0.532074 3,675 265 207 -832
2020-07-13 17:40:11 GMT 52.002995 0.537310 3,700 265 210 -768
2020-07-13 17:40:08 GMT 52.003319 0.543666 3,775 265 214 -1024
2020-07-13 17:40:05 GMT 52.003456 0.546256 3,800 265 214 -1536
2020-07-13 17:40:02 GMT 52.003784 0.551906 3,925 265 216 -2048
2020-07-13 17:39:59 GMT 52.004105 0.558167 4,025 266 218 -2048
2020-07-13 17:39:55 GMT 52.004341 0.562657 4,125 266 220 -2112
2020-07-13 17:39:49 GMT 52.004902 0.572780 4,375 265 221 -2752
2020-07-13 17:39:46 GMT 52.005180 0.577881 4,500 265 221 -2688
2020-07-13 17:39:43 GMT 52.005413 0.582118 4,600 265 222 -2752
2020-07-13 17:39:39 GMT 52.005981 0.590744 4,825 265 222 -2816
2020-07-13 17:39:36 GMT 52.006157 0.593890 5,000 264 224 -2240
2020-07-13 17:39:33 GMT 52.006531 0.599060 5,150 264 225 -2112
2020-07-13 17:39:29 GMT 52.006996 0.606053 5,200 264 227 -1920
2020-07-13 17:39:26 GMT 52.007401 0.612259 5,325 266 229 -2112
2020-07-13 17:39:23 GMT 52.007603 0.617432 5,525 269 231 -2304
2020-07-13 17:39:19 GMT 52.007767 0.624542 5,600 270 231 -2496
2020-07-13 17:39:16 GMT 52.007835 0.629987 5,750 270 231 -2688
2020-07-13 17:39:13 GMT 52.007835 0.634304 5,800 270 231 -2688
2020-07-13 17:39:10 GMT 52.007835 0.640032 5,975 271 232 -1792
2020-07-13 17:39:06 GMT 52.007835 0.646075 6,100 270 236 -832
2020-07-13 17:39:03 GMT 52.007812 0.650940 6,100 270 238 -896
2020-07-13 17:39:00 GMT 52.007812 0.656128 6,125 270 238 -1024
2020-07-13 17:38:57 GMT 52.007858 0.662918 6,250 270 243 -960
2020-07-13 17:38:54 GMT 52.007904 0.667801 6,250 270 244 -960
2020-07-13 17:38:51 GMT 52.007927 0.672442 6,325 270 245 -960
2020-07-13 17:38:48 GMT 52.007996 0.680542 6,375 270 247 -960
2020-07-13 17:38:45 GMT 52.007996 0.683670 6,425 270 250 -1024
2020-07-13 17:38:42 GMT 52.007996 0.689316 6,475 270 252 -1088
2020-07-13 17:38:39 GMT 52.008018 0.694179 6,500 270 252 -1088
2020-07-13 17:38:36 GMT 52.008068 0.705950 7,225 270 260 -1920
2020-07-13 17:38:33 GMT 52.008068 0.705950 6,675 270 257 -1536
2020-07-13 17:38:30 GMT 52.008114 0.713719 6,725 270 258 -1664
2020-07-13 17:38:27 GMT 52.008133 0.716858 6,800 270 259 -1792
2020-07-13 17:38:24 GMT 52.008179 0.723877 6,900 270 259 -1920
2020-07-13 17:38:21 GMT 52.008179 0.735779 7,025 270 260 -1856
2020-07-13 17:38:18 GMT 52.008179 0.735779 7,075 270 261 -1792
2020-07-13 17:38:14 GMT 52.008179 0.743332 7,200 270 263 -1664
2020-07-13 17:38:11 GMT 52.008179 0.749435 7,250 270 264 -1600
2020-07-13 17:38:08 GMT 52.008205 0.755467 7,350 270 266 -1600
2020-07-13 17:38:04 GMT 52.008224 0.764389 7,450 270 267 -1792
2020-07-13 17:38:01 GMT 52.008270 0.770493 7,550 270 267 -1920
2020-07-13 17:37:58 GMT 52.008408 0.775528 7,675 266 268 -2112
2020-07-13 17:37:55 GMT 52.008858 0.783247 8,075 258 270 -2176
2020-07-13 17:37:49 GMT 52.010193 0.792923 8,075 249 272 -2112
2020-07-13 17:37:46 GMT 52.011513 0.798785 8,100 246 273 -1984
2020-07-13 17:37:43 GMT 52.012863 0.803885 8,175 244 275 -1792
2020-07-13 17:37:40 GMT 52.014538 0.809378 8,525 244 277 -2304
2020-07-13 17:37:37 GMT 52.016418 0.815430 8,425 244 277 -2240
2020-07-13 17:37:34 GMT 52.018112 0.820923 8,500 244 277 -2368
2020-07-13 17:37:31 GMT 52.020077 0.827271 8,575 244 277 -2304
2020-07-13 17:37:28 GMT 52.021801 0.832764 8,725 244 278 -2304
2020-07-13 17:37:25 GMT 52.025528 0.844650 8,875 243 280 -1664
2020-07-13 17:37:22 GMT 52.025528 0.844650 8,925 243 281 -1216
2020-07-13 17:37:19 GMT 52.027039 0.849533 8,975 241 283 -320
2020-07-13 17:37:16 GMT 52.029202 0.855913 8,975 240 284 -64
2020-07-13 17:37:13 GMT 52.030830 0.860308 8,950 229 287 64
2020-07-13 17:37:10 GMT 52.033081 0.865479 8,975 231 286 128
2020-07-13 17:37:06 GMT 52.040268 0.877609 8,975 224 289 128
2020-07-13 17:37:03 GMT 52.040268 0.877609 8,950 218 293 128
2020-07-13 17:37:00 GMT 52.042282 0.880127 8,950 211 299 64
2020-07-13 17:36:57 GMT 52.045761 0.883942 8,950 211 299 64
2020-07-13 17:36:54 GMT 52.050064 0.887833 8,950 206 304 0
2020-07-13 17:36:51 GMT 52.054295 0.890677 8,950 200 312 -384
2020-07-13 17:36:48 GMT 52.062302 0.894444 8,975 194 319 -128
2020-07-13 17:36:45 GMT 52.062302 0.894444 8,975 191 323 -64
2020-07-13 17:36:42 GMT 52.066025 0.895543 8,975 190 326 -64
2020-07-13 17:36:39 GMT 52.070572 0.896301 8,975 180 337 -128
2020-07-13 17:36:36 GMT 52.080780 0.896378 9,000 177 342 -128
2020-07-13 17:36:33 GMT 52.080780 0.896378 9,000 177 345 -192
2020-07-13 17:36:30 GMT 52.085175 0.895996 9,050 176 354 -896
2020-07-13 17:36:27 GMT 52.088974 0.895621 9,050 176 352 -704
2020-07-13 17:36:24 GMT 52.093864 0.895150 9,075 176 354 -832
2020-07-13 17:36:21 GMT 52.099773 0.894601 9,100 176 357 -896
2020-07-13 17:36:18 GMT 52.105736 0.894052 9,200 176 363 -1024
2020-07-13 17:36:15 GMT 52.109783 0.893659 9,225 176 364 -1088
2020-07-13 17:36:12 GMT 52.114975 0.893097 9,275 176 365 -1600
2020-07-13 17:36:09 GMT 52.119282 0.892718 9,500 176 368 -2432
2020-07-13 17:36:06 GMT 52.124310 0.892247 9,500 176 371 -2816
2020-07-13 17:36:03 GMT 52.136086 0.891148 9,850 176 375 -3584
2020-07-13 17:36:00 GMT 52.136086 0.891148 9,900 176 375 -3520
2020-07-13 17:35:57 GMT 52.139877 0.890808 10,200 176 376 -3840
2020-07-13 17:35:54 GMT 52.146420 0.890206 10,175 176 377 -4160
2020-07-13 17:35:51 GMT 52.149864 0.889893 10,450 176 377 -4160
2020-07-13 17:35:48 GMT 52.156815 0.889206 10,575 176 378 -4160
2020-07-13 17:35:45 GMT 52.166531 0.888245 11,025 176 381 -4096
2020-07-13 17:35:39 GMT 52.171234 0.887774 11,125 176 381 -4096
2020-07-13 17:35:36 GMT 52.176315 0.887299 11,425 176 383 -4096
2020-07-13 17:35:33 GMT 52.182175 0.886688 11,525 176 384 -4096
2020-07-13 17:35:30 GMT 52.188629 0.886078 11,950 176 388 -4096
2020-07-13 17:35:27 GMT 52.194901 0.885468 12,150 176 388 -4096
2020-07-13 17:35:24 GMT 52.198471 0.885162 12,200 176 388 -4160
2020-07-13 17:35:21 GMT 52.203598 0.884705 12,950 176 391 -4352
2020-07-13 17:35:18 GMT 52.210243 0.884086 12,950 176 391 -4288
2020-07-13 17:35:15 GMT 52.214859 0.883713 12,950 176 391 -4352
2020-07-13 17:35:12 GMT 52.221786 0.883144 13,300 176 391 -4800
2020-07-13 17:35:09 GMT 52.225479 0.882797 13,750 176 392 -4864
2020-07-13 17:35:06 GMT 52.231155 0.882263 13,650 176 392 -4928
2020-07-13 17:35:03 GMT 52.242279 0.881271 14,000 176 395 -3840
2020-07-13 17:35:00 GMT 52.247131 0.880814 14,150 176 397 -3712
2020-07-13 17:34:57 GMT 52.254654 0.880162 14,275 176 398 -3648
2020-07-13 17:34:54 GMT 52.254654 0.880162 14,525 176 401 -3904
2020-07-13 17:34:51 GMT 52.258118 0.879822 14,650 176 401 -4032
2020-07-13 17:34:48 GMT 52.263977 0.879288 14,800 176 403 -4160
2020-07-13 17:34:45 GMT 52.269333 0.878830 15,175 176 405 -4224
2020-07-13 17:34:42 GMT 52.276024 0.878122 15,325 176 406 -4224
2020-07-13 17:34:39 GMT 52.280594 0.877686 15,325 176 407 -4224
2020-07-13 17:34:36 GMT 52.292313 0.876617 17,375 176 428 -4416
2020-07-13 17:34:33 GMT 52.292313 0.876617 18,400 176 419 -4032
2020-07-13 17:34:30 GMT 52.298584 0.876007 16,325 176 414 -4160
2020-07-13 17:34:27 GMT 52.303253 0.875532 16,425 176 415 -4096
2020-07-13 17:34:24 GMT 52.308701 0.875061 16,475 176 415 -4032
2020-07-13 17:34:21 GMT 52.314426 0.874512 17,975 176 426 -3904
2020-07-13 17:34:18 GMT 52.320877 0.873871 16,850 176 419 -4096
2020-07-13 17:34:15 GMT 52.333050 0.872707 17,275 176 421 -4416
2020-07-13 17:34:12 GMT 52.339096 0.872192 17,425 176 421 -4608
2020-07-13 17:34:09 GMT 52.339096 0.872192 17,575 176 423 -4544
2020-07-13 17:34:06 GMT 52.345013 0.871687 17,875 176 425 -3968
2020-07-13 17:34:03 GMT 52.351044 0.871124 18,000 176 426 -3904
2020-07-13 17:34:00 GMT 52.356216 0.870667 18,150 176 427 -3968
2020-07-13 17:33:57 GMT 52.360096 0.870274 18,250 176 427 -4160
2020-07-13 17:33:54 GMT 52.373795 0.868988 18,725 176 429 -4736
2020-07-13 17:33:51 GMT 52.373795 0.868988 18,850 176 429 -4800
2020-07-13 17:33:48 GMT 52.381325 0.868234 19,025 176 430 -4736
2020-07-13 17:33:45 GMT 52.385330 0.867767 19,400 176 432 -4480
2020-07-13 17:33:42 GMT 52.391937 0.867057 19,475 176 432 -4288
2020-07-13 17:33:39 GMT 52.398407 0.866350 19,800 176 436 -4032
2020-07-13 17:33:36 GMT 52.403713 0.865723 19,925 176 437 -4096
2020-07-13 17:33:33 GMT 52.416550 0.864334 20,475 176 438 -4736
2020-07-13 17:33:30 GMT 52.416550 0.864334 20,575 176 438 -4800
2020-07-13 17:33:27 GMT 52.423592 0.863604 20,725 176 439 -4736
2020-07-13 17:33:24 GMT 52.428574 0.863055 20,975 176 440 -4608
2020-07-13 17:33:21 GMT 52.435463 0.862427 21,250 177 440 -4672
2020-07-13 17:33:18 GMT 52.442139 0.862045 21,500 181 440 -4800
2020-07-13 17:33:15 GMT 52.447083 0.862045 21,425 181 440 -4800
2020-07-13 17:33:12 GMT 52.451431 0.862350 21,900 185 440 -4416
2020-07-13 17:33:09 GMT 52.459396 0.863571 22,050 189 440 -3968
2020-07-13 17:33:03 GMT 52.470657 0.867233 22,675 196 440 -4352
2020-07-13 17:33:00 GMT 52.477341 0.870514 22,750 201 439 -4992
2020-07-13 17:32:57 GMT 52.482971 0.873947 22,975 204 438 -5248
2020-07-13 17:32:54 GMT 52.487366 0.877228 23,100 206 436 -5376
2020-07-13 17:32:51 GMT 52.492310 0.881348 23,325 209 436 -5376
2020-07-13 17:32:48 GMT 52.499378 0.887931 23,875 211 437 -4736
2020-07-13 17:32:45 GMT 52.504578 0.893021 23,975 212 438 -4352
2020-07-13 17:32:42 GMT 52.508835 0.897217 24,150 212 440 -3968
2020-07-13 17:32:39 GMT 52.514740 0.903015 24,350 211 444 -3328
2020-07-13 17:32:36 GMT 52.519821 0.908051 24,625 211 446 -3456
2020-07-13 17:32:33 GMT 52.524994 0.913086 24,675 212 448 -3776
2020-07-13 17:32:30 GMT 52.530567 0.918692 24,925 212 450 -4352
2020-07-13 17:32:27 GMT 52.534927 0.922928 25,175 212 450 -4992
2020-07-13 17:32:24 GMT 52.541428 0.929413 25,450 212 449 -5760
2020-07-13 17:32:21 GMT 52.545372 0.933367 25,800 212 447 -6016
2020-07-13 17:32:18 GMT 52.550583 0.938568 25,850 212 447 -6016
2020-07-13 17:32:15 GMT 52.556580 0.944519 26,250 212 446 -6400
2020-07-13 17:32:12 GMT 52.561806 0.949611 26,500 212 445 -6400
2020-07-13 17:32:09 GMT 52.571960 0.959702 27,075 212 445 -4992
2020-07-13 17:32:06 GMT 52.576702 0.964364 27,250 212 443 -4928
2020-07-13 17:32:00 GMT 52.582241 0.969857 27,750 212 442 -4736
2020-07-13 17:31:57 GMT 52.589130 0.976685 27,900 212 441 -4800
2020-07-13 17:31:54 GMT 52.594162 0.981674 28,025 212 440 -4800
2020-07-13 17:31:51 GMT 52.602951 0.990448 28,800 212 435 -4608
2020-07-13 17:31:48 GMT 52.608917 0.996381 28,650 212 436 -4672
2020-07-13 17:31:45 GMT 52.608917 0.996381 28,925 212 434 -4352
2020-07-13 17:31:42 GMT 52.614365 1.001875 29,150 212 434 -4224
2020-07-13 17:31:39 GMT 52.618786 1.006348 29,250 212 433 -4160
2020-07-13 17:31:36 GMT 52.623718 1.011370 29,375 212 432 -4096
2020-07-13 17:31:33 GMT 52.633682 1.021572 29,850 213 430 -4032
2020-07-13 17:31:27 GMT 52.639782 1.027849 30,075 213 429 -3904
2020-07-13 17:31:24 GMT 52.643875 1.032087 30,325 213 428 -3712
2020-07-13 17:31:21 GMT 52.649651 1.038130 30,425 213 427 -3648
2020-07-13 17:31:18 GMT 52.653980 1.042681 30,700 213 426 -3520
2020-07-13 17:31:15 GMT 52.658981 1.047821 30,825 213 426 -3520
2020-07-13 17:31:12 GMT 52.664978 1.054077 30,900 213 426 -3456
2020-07-13 17:31:09 GMT 52.669949 1.059161 31,150 212 426 -3392
2020-07-13 17:31:06 GMT 52.675255 1.064575 31,425 212 423 -3328
2020-07-13 17:31:03 GMT 52.678604 1.068028 31,350 212 425 -3328
2020-07-13 17:31:00 GMT 52.684563 1.074071 31,700 212 424 -3392
2020-07-13 17:30:57 GMT 52.691128 1.080819 31,900 212 424 -3328
2020-07-13 17:30:54 GMT 52.694992 1.084743 31,900 212 424 -3328
2020-07-13 17:30:51 GMT 52.699509 1.089373 32,225 212 424 -3328
2020-07-13 17:30:48 GMT 52.705765 1.095734 32,225 212 424 -3328
2020-07-13 17:30:45 GMT 52.709656 1.099701 32,475 212 423 -3328
2020-07-13 17:30:42 GMT 52.714729 1.104911 32,725 212 422 -3328
2020-07-13 17:30:39 GMT 52.720642 1.110953 32,825 212 422 -3200
2020-07-13 17:30:36 GMT 52.723717 1.114014 33,100 212 422 -3264
2020-07-13 17:30:33 GMT 52.729671 1.120135 33,125 212 422 -3264
2020-07-13 17:30:30 GMT 52.733826 1.124344 33,600 212 422 -3200
2020-07-13 17:30:27 GMT 52.739170 1.129708 33,600 212 422 -3264
2020-07-13 17:30:24 GMT 52.745083 1.135751 33,700 212 421 -3264
2020-07-13 17:30:21 GMT 52.749573 1.140366 33,775 212 421 -3264
2020-07-13 17:30:18 GMT 52.755066 1.145935 33,900 212 421 -3264
2020-07-13 17:30:15 GMT 52.759369 1.150284 34,025 212 421 -3264
2020-07-13 17:30:12 GMT 52.763748 1.154663 34,350 206 417 -2880
2020-07-13 17:30:09 GMT 52.768730 1.159764 34,400 212 420 -3328
2020-07-13 17:30:06 GMT 52.779205 1.170358 34,675 212 418 -3200
2020-07-13 17:30:03 GMT 52.779205 1.170358 34,750 212 418 -3200
2020-07-13 17:30:00 GMT 52.784088 1.175308 34,950 212 417 -3200
2020-07-13 17:29:57 GMT 52.788300 1.179504 35,075 212 417 -3200
2020-07-13 17:29:54 GMT 52.793381 1.184692 35,175 212 416 -3200
2020-07-13 17:29:51 GMT 52.800110 1.191406 35,425 212 417 -3072
2020-07-13 17:29:48 GMT 52.808945 1.200180 35,975 210 416 -3072
2020-07-13 17:29:45 GMT 52.808945 1.200180 35,700 210 416 -3072
2020-07-13 17:29:42 GMT 52.813431 1.204376 35,900 209 417 -3008
2020-07-13 17:29:39 GMT 52.818634 1.209124 35,975 208 416 -2880
2020-07-13 17:29:36 GMT 52.823547 1.213379 36,225 206 416 -2880
2020-07-13 17:29:33 GMT 52.828690 1.217599 36,350 206 417 -2816
2020-07-13 17:29:30 GMT 52.833755 1.221542 36,375 203 418 -2560
2020-07-13 17:29:27 GMT 52.839584 1.225839 36,550 203 418 -2560
2020-07-13 17:29:24 GMT 52.845776 1.230076 36,675 202 419 -2624
2020-07-13 17:29:21 GMT 52.850384 1.233058 36,800 201 419 -2944
2020-07-13 17:29:18 GMT 52.855877 1.236354 37,025 199 419 -3136
2020-07-13 17:29:15 GMT 52.860443 1.238937 37,200 198 418 -3008
2020-07-13 17:29:12 GMT 52.867859 1.242828 37,250 198 418 -3008
2020-07-13 17:29:09 GMT 52.870560 1.244202 37,400 197 418 -2496
2020-07-13 17:29:06 GMT 52.883286 1.250381 37,550 197 418 -2176
2020-07-13 17:29:03 GMT 52.883286 1.250381 37,625 197 419 -2112
2020-07-13 17:29:00 GMT 52.889442 1.253383 37,825 197 418 -1920
2020-07-13 17:28:57 GMT 52.896057 1.256638 37,850 197 418 -1728
2020-07-13 17:28:54 GMT 52.899822 1.258484 37,925 197 418 -1280
2020-07-13 17:28:51 GMT 52.905640 1.261387 37,975 197 417 -960
2020-07-13 17:28:48 GMT 52.915882 1.266410 38,600 197 419 -1024
2020-07-13 17:28:42 GMT 52.922680 1.269784 38,150 197 417 -960
2020-07-13 17:28:39 GMT 52.928543 1.272609 38,175 197 417 -960
2020-07-13 17:28:36 GMT 52.933899 1.275199 38,225 197 418 -960
2020-07-13 17:28:33 GMT 52.939159 1.277788 38,275 197 418 -896
2020-07-13 17:28:30 GMT 52.945721 1.281006 38,300 197 418 -896
2020-07-13 17:28:27 GMT 52.950237 1.283203 38,425 197 418 -960
2020-07-13 17:28:24 GMT 52.954788 1.285400 38,400 197 418 -1024
2020-07-13 17:28:21 GMT 52.961288 1.288528 38,450 197 418 -1024
2020-07-13 17:28:18 GMT 52.966370 1.290970 38,525 197 419 -1024
2020-07-13 17:28:15 GMT 52.973282 1.294346 38,575 197 419 -1024
2020-07-13 17:28:12 GMT 52.978401 1.296779 38,575 197 420 -1024
2020-07-13 17:28:09 GMT 52.985001 1.299896 38,675 196 421 -1024
2020-07-13 17:28:06 GMT 52.994415 1.304313 38,750 196 421 -1024
2020-07-13 17:28:03 GMT 53.001492 1.307687 39,175 196 421 -960
2020-07-13 17:28:00 GMT 53.001492 1.307687 38,875 196 421 -896
2020-07-13 17:27:57 GMT 53.005371 1.309509 39,200 196 428 -448
2020-07-13 17:27:54 GMT 53.011597 1.312408 38,900 196 421 -896
2020-07-13 17:27:51 GMT 53.018204 1.315456 38,950 196 421 -704
2020-07-13 17:27:48 GMT 53.021851 1.317215 38,975 196 421 -512
2020-07-13 17:27:45 GMT 53.033661 1.322675 39,000 196 423 -448
2020-07-13 17:27:39 GMT 53.039104 1.325187 39,050 196 424 -448
2020-07-13 17:27:36 GMT 53.045856 1.328326 39,050 196 425 -448
2020-07-13 17:27:33 GMT 53.051208 1.330758 39,075 196 425 -448
2020-07-13 17:27:30 GMT 53.056778 1.333237 39,100 196 426 -448
2020-07-13 17:27:27 GMT 53.061905 1.335526 39,150 196 426 -448
2020-07-13 17:27:24 GMT 53.068634 1.338577 39,150 196 428 -448
2020-07-13 17:27:21 GMT 53.073624 1.340866 39,175 196 428 -448
2020-07-13 17:27:18 GMT 53.078815 1.343157 39,175 196 428 -448
2020-07-13 17:27:15 GMT 53.084309 1.345747 39,300 196 430 -448
2020-07-13 17:27:12 GMT 53.092129 1.349278 39,250 196 429 -448
2020-07-13 17:27:06 GMT 53.101345 1.353499 39,275 196 430 -448
2020-07-13 17:27:03 GMT 53.108376 1.356731 39,325 196 430 -448
2020-07-13 17:27:00 GMT 53.113029 1.358912 39,325 196 430 -448
2020-07-13 17:26:57 GMT 53.119595 1.362062 39,350 197 430 -512
2020-07-13 17:26:54 GMT 53.125397 1.364894 39,425 201 427 -512
2020-07-13 17:26:51 GMT 53.131279 1.367959 39,425 199 429 -512
2020-07-13 17:26:48 GMT 53.135654 1.370464 39,425 200 428 -512
2020-07-13 17:26:45 GMT 53.141098 1.373762 39,475 202 427 -512
2020-07-13 17:26:42 GMT 53.146687 1.377492 39,525 205 426 -448
2020-07-13 17:26:39 GMT 53.154228 1.382823 39,500 204 427 -448
2020-07-13 17:26:36 GMT 53.163399 1.390094 39,550 207 426 -512
2020-07-13 17:26:33 GMT 53.163399 1.390094 39,700 209 425 -512
2020-07-13 17:26:30 GMT 53.173969 1.399545 39,600 210 424 -512
2020-07-13 17:26:27 GMT 53.173969 1.399545 39,650 211 424 -512
2020-07-13 17:26:24 GMT 53.179138 1.404681 39,650 218 422 -512
2020-07-13 17:26:21 GMT 53.184494 1.410174 39,675 214 422 -512
2020-07-13 17:26:18 GMT 53.189842 1.416105 39,700 216 423 -512
2020-07-13 17:26:15 GMT 53.193100 1.419904 39,700 216 423 -512
2020-07-13 17:26:12 GMT 53.202785 1.432019 39,750 220 422 -512
2020-07-13 17:26:09 GMT 53.202785 1.432019 39,775 220 422 -512
2020-07-13 17:26:06 GMT 53.207439 1.438320 39,800 222 423 -576
2020-07-13 17:26:03 GMT 53.211441 1.443975 39,850 223 423 -576
2020-07-13 17:26:00 GMT 53.215714 1.450352 39,850 224 423 -576
2020-07-13 17:25:57 GMT 53.220196 1.457466 39,875 225 422 -576
2020-07-13 17:25:54 GMT 53.224548 1.464634 39,950 228 422 -512
2020-07-13 17:25:51 GMT 53.228622 1.471776 39,950 228 422 -448
2020-07-13 17:25:48 GMT 53.232811 1.479438 39,975 231 422 -384
2020-07-13 17:25:45 GMT 53.236301 1.486224 39,975 231 422 -320
2020-07-13 17:25:42 GMT 53.239929 1.493591 40,000 233 422 -192
2020-07-13 17:25:39 GMT 53.243958 1.502223 40,000 234 422 -64
2020-07-13 17:25:36 GMT 53.251511 1.519958 40,000 236 421 0
2020-07-13 17:25:33 GMT 53.251511 1.519958 40,000 238 421 64
2020-07-13 17:25:30 GMT 53.253990 1.526211 40,000 239 420 64
2020-07-13 17:25:26 GMT 53.258881 1.539498 40,000 239 420 0
2020-07-13 17:25:23 GMT 53.260986 1.545541 40,000 243 420 0
2020-07-13 17:25:20 GMT 53.263348 1.552869 40,000 243 420 0
2020-07-13 17:25:17 GMT 53.266933 1.564421 40,000 245 419 0
2020-07-13 17:25:14 GMT 53.268608 1.570156 40,000 245 419 0
2020-07-13 17:25:11 GMT 53.270935 1.578638 40,000 247 418 0
2020-07-13 17:25:08 GMT 53.275360 1.596653 40,000 249 418 -64
2020-07-13 17:25:05 GMT 53.277878 1.608085 40,000 250 418 0
2020-07-13 17:25:02 GMT 53.277878 1.608085 40,000 252 417 64
2020-07-13 17:24:59 GMT 53.279388 1.615540 40,000 253 417 128
2020-07-13 17:24:56 GMT 53.281223 1.625330 40,000 256 416 -64
2020-07-13 17:24:53 GMT 53.282684 1.634216 40,000 255 417 0
2020-07-13 17:24:50 GMT 53.285294 1.651716 40,000 259 416 -64
2020-07-13 17:24:47 GMT 53.286530 1.662005 40,000 259 416 -64
2020-07-13 17:24:44 GMT 53.286530 1.662005 40,000 261 416 -64
2020-07-13 17:24:41 GMT 53.287537 1.671334 40,000 262 416 -64
2020-07-13 17:24:38 GMT 53.288532 1.682281 40,000 263 415 0
2020-07-13 17:24:35 GMT 53.289185 1.691652 40,000 265 415 64
2020-07-13 17:24:32 GMT 53.289780 1.701704 40,000 266 415 64
2020-07-13 17:24:29 GMT 53.290192 1.712062 40,000 267 415 64
2020-07-13 17:24:26 GMT 53.290421 1.720616 40,000 279 414 -64
2020-07-13 17:24:23 GMT 53.290558 1.730504 40,000 271 415 0
2020-07-13 17:24:20 GMT 53.290535 1.740525 40,000 272 415 0
2020-07-13 17:24:17 GMT 53.290329 1.750044 40,000 274 414 0
2020-07-13 17:24:14 GMT 53.290024 1.759751 40,000 275 414 -64
2020-07-13 17:24:11 GMT 53.289509 1.769607 40,000 276 414 0
2020-07-13 17:24:08 GMT 53.288910 1.779157 40,000 277 414 64
2020-07-13 17:24:05 GMT 53.288177 1.788967 40,000 279 414 64
2020-07-13 17:24:02 GMT 53.286625 1.807574 40,000 279 414 0
2020-07-13 17:23:59 GMT 53.286625 1.807574 40,000 279 414 0
2020-07-13 17:23:56 GMT 53.285934 1.815648 40,000 279 414 -64
2020-07-13 17:23:53 GMT 53.285229 1.823811 40,000 279 414 -64
2020-07-13 17:23:50 GMT 53.284435 1.833263 40,000 279 414 0
2020-07-13 17:23:47 GMT 53.283417 1.845154 40,000 279 413 -64
2020-07-13 17:23:44 GMT 53.282852 1.851762 40,000 279 414 0
2020-07-13 17:23:41 GMT 53.281784 1.864364 40,000 279 414 0
2020-07-13 17:23:38 GMT 53.281219 1.870736 40,000 279 414 64
2020-07-13 17:23:35 GMT 53.280396 1.880467 40,000 279 414 64
2020-07-13 17:23:32 GMT 53.279572 1.890119 40,000 279 413 0
2020-07-13 17:23:29 GMT 53.278709 1.900231 40,000 279 413 -64
2020-07-13 17:23:26 GMT 53.277870 1.909925 40,000 279 413 0
2020-07-13 17:23:23 GMT 53.277267 1.917276 40,000 279 413 0
2020-07-13 17:23:20 GMT 53.276291 1.928101 40,000 279 413 0
2020-07-13 17:23:17 GMT 53.275497 1.937471 40,000 279 413 0
2020-07-13 17:23:14 GMT 53.274536 1.948425 40,000 279 413 -64
2020-07-13 17:23:10 GMT 53.273590 1.959605 40,000 279 413 -64
2020-07-13 17:23:07 GMT 53.272614 1.970915 40,000 279 413 64
2020-07-13 17:23:04 GMT 53.271915 1.978508 40,000 279 413 64
2020-07-13 17:23:01 GMT 53.271030 1.988929 40,000 279 413 0
2020-07-13 17:22:58 GMT 53.269363 2.007987 40,000 279 413 0
2020-07-13 17:22:55 GMT 53.269363 2.007987 40,000 279 413 64
2020-07-13 17:22:52 GMT 53.268421 2.018495 40,000 279 413 64
2020-07-13 17:22:49 GMT 53.266792 2.037075 40,000 279 412 -64
2020-07-13 17:22:46 GMT 53.266094 2.044911 40,000 279 412 -64
2020-07-13 17:22:43 GMT 53.266094 2.044911 40,000 279 412 64
2020-07-13 17:22:40 GMT 53.265072 2.056382 40,000 279 412 0
2020-07-13 17:22:36 GMT 53.263275 2.077279 40,000 279 412 64
2020-07-13 17:22:33 GMT 53.263275 2.077279 40,000 279 412 64
2020-07-13 17:22:30 GMT 53.261860 2.092896 40,000 279 412 64
2020-07-13 17:22:24 GMT 53.260803 2.105373 40,000 279 412 0
2020-07-13 17:22:21 GMT 53.260025 2.113848 40,000 279 412 0
2020-07-13 17:22:18 GMT 53.258461 2.131994 40,000 279 412 0
2020-07-13 17:22:15 GMT 53.258461 2.131994 40,000 279 412 0
2020-07-13 17:22:12 GMT 53.257278 2.145316 40,000 279 412 -64
2020-07-13 17:22:09 GMT 53.256737 2.151624 40,000 279 412 -64
2020-07-13 17:22:06 GMT 53.255814 2.162266 40,000 279 412 64
2020-07-13 17:22:03 GMT 53.254829 2.173193 40,000 279 412 64
2020-07-13 17:22:00 GMT 53.254177 2.180948 40,000 279 412 64
2020-07-13 17:21:57 GMT 53.253433 2.189430 40,000 279 412 0
2020-07-13 17:21:54 GMT 53.252502 2.200174 40,000 279 412 -128
2020-07-13 17:21:51 GMT 53.251144 2.215315 40,000 279 412 -128
2020-07-13 17:21:48 GMT 53.251144 2.215315 40,000 279 411 -64
2020-07-13 17:21:45 GMT 53.250175 2.226347 40,000 279 411 0
2020-07-13 17:21:42 GMT 53.249359 2.235639 40,000 279 411 64
2020-07-13 17:21:39 GMT 53.248543 2.244765 40,000 279 411 0
2020-07-13 17:21:36 GMT 53.246704 2.265616 40,000 279 411 -64
2020-07-13 17:21:33 GMT 53.246704 2.265616 40,000 279 411 -64
2020-07-13 17:21:30 GMT 53.245983 2.273685 40,000 279 411 -64
2020-07-13 17:21:27 GMT 53.244122 2.294850 40,000 279 411 64
2020-07-13 17:21:24 GMT 53.244122 2.294850 40,000 279 411 128
2020-07-13 17:21:21 GMT 53.243519 2.301474 40,000 279 411 64
2020-07-13 17:21:18 GMT 53.242676 2.310817 40,000 279 411 64
2020-07-13 17:21:14 GMT 53.240845 2.331299 40,000 279 411 64
2020-07-13 17:21:11 GMT 53.240845 2.331299 40,000 279 411 0
2020-07-13 17:21:08 GMT 53.239838 2.342128 40,000 279 411 -64
2020-07-13 17:21:04 GMT 53.238674 2.355113 40,000 279 411 -64
2020-07-13 17:21:01 GMT 53.237789 2.364807 40,000 279 411 -64
2020-07-13 17:20:58 GMT 53.236679 2.376971 40,000 279 411 0
2020-07-13 17:20:54 GMT 53.235809 2.386466 40,000 279 411 128
2020-07-13 17:20:51 GMT 53.234940 2.396432 40,000 279 411 128
2020-07-13 17:20:48 GMT 53.234207 2.404229 40,000 279 411 -64
2020-07-13 17:20:45 GMT 53.233383 2.413304 40,000 279 411 -64
2020-07-13 17:20:42 GMT 53.232376 2.424133 40,000 279 411 -64
2020-07-13 17:20:39 GMT 53.231552 2.433158 40,000 279 411 -64
2020-07-13 17:20:36 GMT 53.230682 2.442810 40,000 279 411 192
2020-07-13 17:20:33 GMT 53.229950 2.450971 40,000 279 411 128
2020-07-13 17:20:30 GMT 53.229134 2.459726 40,000 279 410 -64
2020-07-13 17:20:27 GMT 53.228165 2.470590 40,000 279 411 -64
2020-07-13 17:20:24 GMT 53.227341 2.479614 40,000 279 411 -128
2020-07-13 17:20:21 GMT 53.226517 2.488874 40,000 279 410 -64
2020-07-13 17:20:18 GMT 53.225502 2.499955 40,000 279 410 64
2020-07-13 17:20:15 GMT 53.224823 2.507315 40,000 279 410 64
2020-07-13 17:20:12 GMT 53.223034 2.527017 40,000 279 410 -64
2020-07-13 17:20:06 GMT 53.221985 2.538470 40,000 279 410 0
2020-07-13 17:20:03 GMT 53.221359 2.545516 40,000 279 410 64
2020-07-13 17:20:00 GMT 53.220245 2.557617 40,000 279 410 64
2020-07-13 17:19:57 GMT 53.219635 2.564177 40,000 279 410 0
2020-07-13 17:19:54 GMT 53.218597 2.575588 40,000 279 410 0
2020-07-13 17:19:51 GMT 53.218006 2.581868 40,000 279 410 -64
2020-07-13 17:19:48 GMT 53.216263 2.600935 40,000 279 410 64
2020-07-13 17:19:42 GMT 53.215164 2.612470 40,000 279 410 0
2020-07-13 17:19:39 GMT 53.213470 2.630912 40,000 279 409 -128
2020-07-13 17:19:36 GMT 53.213470 2.630912 40,000 279 409 -128
2020-07-13 17:19:33 GMT 53.212738 2.638602 40,000 279 409 0
2020-07-13 17:19:30 GMT 53.211594 2.650766 40,000 279 410 0
2020-07-13 17:19:27 GMT 53.210861 2.658613 40,000 279 409 0
2020-07-13 17:19:24 GMT 53.209908 2.669031 40,000 279 410 0
2020-07-13 17:19:21 GMT 53.208370 2.685753 40,000 279 410 0
2020-07-13 17:19:18 GMT 53.208370 2.685753 40,000 279 410 0
2020-07-13 17:19:15 GMT 53.207439 2.695609 40,000 279 410 0
2020-07-13 17:19:12 GMT 53.206650 2.704049 40,000 279 410 -64
2020-07-13 17:19:09 GMT 53.204971 2.721944 40,000 279 410 -64
2020-07-13 17:19:03 GMT 53.203766 2.734811 40,000 279 410 0
2020-07-13 17:19:00 GMT 53.202366 2.750056 40,000 279 410 0
2020-07-13 17:18:57 GMT 53.202366 2.750056 40,000 279 410 -64
2020-07-13 17:18:54 GMT 53.201248 2.761931 40,000 279 410 0
2020-07-13 17:18:51 GMT 53.200516 2.769889 40,000 279 410 64
2020-07-13 17:18:48 GMT 53.199478 2.780834 40,000 279 410 0
2020-07-13 17:18:45 GMT 53.198914 2.787074 40,000 279 410 0
2020-07-13 17:18:42 GMT 53.197906 2.797904 40,000 279 410 64
2020-07-13 17:18:39 GMT 53.196991 2.807792 40,000 279 410 0
2020-07-13 17:18:36 GMT 53.195892 2.819286 40,000 279 410 0
2020-07-13 17:18:33 GMT 53.195194 2.827122 40,000 279 411 0
2020-07-13 17:18:30 GMT 53.194473 2.834787 40,000 279 411 0
2020-07-13 17:18:27 GMT 53.192459 2.856131 40,000 279 410 0
2020-07-13 17:18:24 GMT 53.192459 2.856131 40,000 279 410 0
2020-07-13 17:18:21 GMT 53.191452 2.866411 40,000 279 410 0
2020-07-13 17:18:18 GMT 53.190720 2.874023 40,000 279 410 0
2020-07-13 17:18:15 GMT 53.189667 2.885088 40,000 279 410 0
2020-07-13 17:18:12 GMT 53.189163 2.890738 40,000 279 410 64
2020-07-13 17:18:09 GMT 53.188019 2.902823 40,000 279 410 0
2020-07-13 17:18:06 GMT 53.187050 2.912589 40,000 280 409 0
2020-07-13 17:18:03 GMT 53.186398 2.919778 40,000 280 409 0
2020-07-13 17:18:00 GMT 53.185547 2.928406 40,000 280 409 0
2020-07-13 17:17:57 GMT 53.183605 2.949021 40,000 279 407 64
2020-07-13 17:17:54 GMT 53.183605 2.949021 40,000 279 408 0
2020-07-13 17:17:51 GMT 53.182846 2.957284 40,000 279 408 0
2020-07-13 17:17:48 GMT 53.181931 2.966779 40,000 279 407 64
2020-07-13 17:17:45 GMT 53.181015 2.976432 40,000 279 408 64
2020-07-13 17:17:42 GMT 53.179974 2.987473 40,000 279 408 0
2020-07-13 17:17:39 GMT 53.179413 2.993696 40,000 279 408 0
2020-07-13 17:17:36 GMT 53.178497 3.003348 40,000 279 408 0
2020-07-13 17:17:33 GMT 53.177601 3.012839 40,000 280 409 0
2020-07-13 17:17:30 GMT 53.175877 3.031176 40,000 280 409 0
2020-07-13 17:17:27 GMT 53.175877 3.031176 40,000 280 409 0
2020-07-13 17:17:24 GMT 53.174789 3.042350 40,000 280 409 0
2020-07-13 17:17:21 GMT 53.173874 3.052018 40,000 280 409 0
2020-07-13 17:17:18 GMT 53.172958 3.061733 40,000 280 409 64
2020-07-13 17:17:15 GMT 53.171585 3.075780 39,975 280 409 64
2020-07-13 17:17:09 GMT 53.170486 3.087394 39,975 280 410 0
2020-07-13 17:17:06 GMT 53.169685 3.095640 40,000 280 410 -64
2020-07-13 17:17:03 GMT 53.168755 3.105253 40,000 280 410 -64
2020-07-13 17:17:00 GMT 53.167683 3.116563 40,000 280 410 -64
2020-07-13 17:16:57 GMT 53.166752 3.125933 40,000 280 410 -64
2020-07-13 17:16:54 GMT 53.166138 3.132359 40,000 280 410 0
2020-07-13 17:16:51 GMT 53.165131 3.142718 40,000 280 410 0
2020-07-13 17:16:48 GMT 53.164146 3.152430 40,000 280 410 0
2020-07-13 17:16:45 GMT 53.162109 3.173087 40,000 280 410 -64
2020-07-13 17:16:42 GMT 53.162109 3.173087 40,000 280 412 0
2020-07-13 17:16:39 GMT 53.161377 3.181013 40,000 280 411 -64
2020-07-13 17:16:36 GMT 53.160469 3.190236 40,000 280 411 128
2020-07-13 17:16:33 GMT 53.159546 3.199847 40,000 280 411 128
2020-07-13 17:16:30 GMT 53.158722 3.208165 40,000 280 411 64
2020-07-13 17:16:27 GMT 53.157623 3.219857 40,000 280 412 0
2020-07-13 17:16:24 GMT 53.156662 3.229510 40,000 280 412 64
2020-07-13 17:16:21 GMT 53.155975 3.236572 40,000 280 412 0
2020-07-13 17:16:18 GMT 53.154877 3.248186 40,000 280 412 0
2020-07-13 17:16:15 GMT 53.153950 3.257366 40,000 280 412 0
2020-07-13 17:16:12 GMT 53.153393 3.263505 40,000 280 413 -64
2020-07-13 17:16:09 GMT 53.152462 3.273037 40,000 280 412 0
2020-07-13 17:16:06 GMT 53.151299 3.284912 40,000 280 413 0
2020-07-13 17:16:03 GMT 53.150528 3.292446 40,000 280 415 0
2020-07-13 17:16:00 GMT 53.149670 3.301149 40,000 280 413 -64
2020-07-13 17:15:57 GMT 53.148643 3.311893 40,000 280 413 0
2020-07-13 17:15:54 GMT 53.147598 3.322658 40,000 280 413 0
2020-07-13 17:15:51 GMT 53.146774 3.330819 40,000 280 413 64
2020-07-13 17:15:48 GMT 53.146088 3.337568 40,000 280 413 64
2020-07-13 17:15:45 GMT 53.143799 3.361189 40,000 280 415 0
2020-07-13 17:15:42 GMT 53.143799 3.361189 40,000 280 414 0
2020-07-13 17:15:39 GMT 53.143158 3.367388 40,000 280 414 64
2020-07-13 17:15:36 GMT 53.142220 3.376599 40,000 280 414 64
2020-07-13 17:15:33 GMT 53.141335 3.385647 40,000 280 414 -64
2020-07-13 17:15:30 GMT 53.140411 3.394854 40,000 280 414 0
2020-07-13 17:15:27 GMT 53.138542 3.413355 40,000 280 414 0
2020-07-13 17:15:21 GMT 53.137516 3.423776 40,000 280 415 0
2020-07-13 17:15:18 GMT 53.136398 3.434762 40,000 280 415 0
2020-07-13 17:15:14 GMT 53.135189 3.446799 40,000 280 415 0
2020-07-13 17:15:11 GMT 53.133373 3.465298 40,000 280 415 0
2020-07-13 17:15:08 GMT 53.132355 3.475368 40,000 280 415 64
2020-07-13 17:15:05 GMT 53.132355 3.475368 40,000 280 415 0
2020-07-13 17:15:02 GMT 53.131210 3.486511 40,000 280 415 -64
2020-07-13 17:14:59 GMT 53.130569 3.492632 40,000 280 416 -64
2020-07-13 17:14:56 GMT 53.129463 3.503831 40,000 280 415 0
2020-07-13 17:14:53 GMT 53.128674 3.511828 40,000 280 416 0
2020-07-13 17:14:50 GMT 53.127510 3.523380 40,000 280 416 -128
2020-07-13 17:14:47 GMT 53.126816 3.530143 40,000 280 416 64
2020-07-13 17:14:44 GMT 53.124996 3.548665 40,000 280 416 64
2020-07-13 17:14:41 GMT 53.123833 3.560297 40,000 280 416 0
2020-07-13 17:14:38 GMT 53.123833 3.560297 40,000 280 416 0
2020-07-13 17:14:35 GMT 53.122650 3.572126 40,000 280 416 0
2020-07-13 17:14:32 GMT 53.122108 3.577342 40,000 280 416 0
2020-07-13 17:14:29 GMT 53.120014 3.598830 40,000 280 416 0
2020-07-13 17:14:26 GMT 53.120014 3.598830 40,000 280 416 0
2020-07-13 17:14:23 GMT 53.119034 3.608459 40,000 280 416 0
2020-07-13 17:14:20 GMT 53.118198 3.616764 40,000 280 416 0
2020-07-13 17:14:17 GMT 53.117294 3.626038 40,000 280 416 64
2020-07-13 17:14:14 GMT 53.116291 3.636232 40,000 280 416 0
2020-07-13 17:14:10 GMT 53.114243 3.656509 40,000 280 416 0
2020-07-13 17:14:07 GMT 53.113083 3.667550 40,000 280 416 -64
2020-07-13 17:14:01 GMT 53.112213 3.676575 40,000 280 415 0
2020-07-13 17:13:58 GMT 53.111214 3.686236 40,000 280 416 -64
2020-07-13 17:13:54 GMT 53.109970 3.698312 40,000 280 415 0
2020-07-13 17:13:51 GMT 53.109028 3.707563 40,000 280 415 0
2020-07-13 17:13:48 GMT 53.108002 3.717337 40,000 280 415 64
2020-07-13 17:13:45 GMT 53.106995 3.726955 40,000 280 415 0
2020-07-13 17:13:42 GMT 53.106033 3.736293 40,000 280 416 0
2020-07-13 17:13:39 GMT 53.105068 3.745934 40,000 280 416 0
2020-07-13 17:13:36 GMT 53.104137 3.754739 40,000 280 416 0
2020-07-13 17:13:33 GMT 53.103241 3.763681 40,000 280 416 0
2020-07-13 17:13:30 GMT 53.102325 3.772548 40,000 280 415 -64
2020-07-13 17:13:27 GMT 53.100998 3.785261 40,000 280 416 0
2020-07-13 17:13:24 GMT 53.099995 3.795130 40,000 280 416 64
2020-07-13 17:13:21 GMT 53.099213 3.802447 40,000 280 416 64
2020-07-13 17:13:18 GMT 53.098228 3.811771 40,000 280 415 0
2020-07-13 17:13:15 GMT 53.097244 3.821359 40,000 280 415 0
2020-07-13 17:13:11 GMT 53.096146 3.832345 40,000 280 415 64
2020-07-13 17:13:08 GMT 53.094910 3.844299 40,000 280 415 0
2020-07-13 17:13:05 GMT 53.093765 3.855362 40,000 280 415 0
2020-07-13 17:13:02 GMT 53.093105 3.861694 40,000 280 415 0
2020-07-13 17:12:59 GMT 53.092175 3.870719 40,000 280 415 0
2020-07-13 17:12:56 GMT 53.091110 3.881454 40,000 280 415 -64
2020-07-13 17:12:53 GMT 53.089279 3.899155 40,000 280 415 -64
2020-07-13 17:12:47 GMT 53.088135 3.910217 40,000 280 415 0
2020-07-13 17:12:44 GMT 53.087009 3.921099 40,000 280 414 0
2020-07-13 17:12:41 GMT 53.086441 3.926544 40,000 280 415 -64
2020-07-13 17:12:38 GMT 53.085148 3.938913 40,000 280 414 -64
2020-07-13 17:12:35 GMT 53.084309 3.947231 40,000 280 415 -64
2020-07-13 17:12:32 GMT 53.083469 3.955157 40,000 280 415 0
2020-07-13 17:12:29 GMT 53.082413 3.965225 40,000 280 415 64
2020-07-13 17:12:26 GMT 53.081467 3.974383 40,000 280 415 0
2020-07-13 17:12:23 GMT 53.079514 3.992746 40,000 280 415 -64
2020-07-13 17:12:20 GMT 53.078442 4.002947 40,000 280 415 -64
2020-07-13 17:12:17 GMT 53.078442 4.002947 40,000 280 415 -64
2020-07-13 17:12:14 GMT 53.077278 4.013933 40,000 280 415 0
2020-07-13 17:12:11 GMT 53.076256 4.023664 40,000 280 415 64
2020-07-13 17:12:08 GMT 53.075317 4.032288 40,000 280 415 64
2020-07-13 17:12:05 GMT 53.074310 4.042053 40,000 280 415 64
2020-07-13 17:12:02 GMT 53.072296 4.061253 40,000 280 415 -64
2020-07-13 17:11:59 GMT 53.072296 4.061253 40,000 280 415 0
2020-07-13 17:11:56 GMT 53.071320 4.071062 40,000 280 415 0
2020-07-13 17:11:53 GMT 53.070389 4.079773 40,000 280 415 64
2020-07-13 17:11:50 GMT 53.069458 4.088669 40,000 280 415 64
2020-07-13 17:11:47 GMT 53.068588 4.096756 40,000 281 414 0
2020-07-13 17:11:44 GMT 53.067410 4.108259 40,000 281 414 0
2020-07-13 17:11:41 GMT 53.066528 4.116364 40,000 281 414 0
2020-07-13 17:11:38 GMT 53.065735 4.124111 40,000 281 414 0
2020-07-13 17:11:35 GMT 53.063591 4.143964 40,000 280 414 0
2020-07-13 17:11:29 GMT 53.062363 4.155960 40,000 280 414 0
2020-07-13 17:11:26 GMT 53.061401 4.164734 40,000 280 414 64
2020-07-13 17:11:23 GMT 53.060486 4.173584 40,000 280 414 64
2020-07-13 17:11:20 GMT 53.059681 4.181161 40,000 280 414 64
2020-07-13 17:11:17 GMT 53.058331 4.194188 40,000 280 414 0
2020-07-13 17:11:14 GMT 53.057556 4.201355 40,000 281 414 0
2020-07-13 17:11:11 GMT 53.056549 4.211197 40,000 281 414 64
2020-07-13 17:11:08 GMT 53.055771 4.218445 40,000 281 414 -64
2020-07-13 17:11:05 GMT 53.054607 4.229422 40,000 281 414 0
2020-07-13 17:11:02 GMT 53.053757 4.237137 40,000 281 414 0
2020-07-13 17:10:59 GMT 53.052746 4.246765 40,000 281 414 -128
2020-07-13 17:10:56 GMT 53.051926 4.254456 40,000 281 414 -64
2020-07-13 17:10:53 GMT 53.049625 4.275487 40,000 281 414 64
2020-07-13 17:10:50 GMT 53.049625 4.275487 40,000 281 414 64
2020-07-13 17:10:47 GMT 53.048538 4.285583 40,000 281 414 64
2020-07-13 17:10:44 GMT 53.047718 4.293536 40,000 281 414 64
2020-07-13 17:10:41 GMT 53.046524 4.304581 40,000 281 414 -64
2020-07-13 17:10:38 GMT 53.045250 4.316136 40,000 281 414 -64
2020-07-13 17:10:35 GMT 53.044281 4.325027 40,000 281 413 -64
2020-07-13 17:10:32 GMT 53.043621 4.331203 40,000 281 413 0
2020-07-13 17:10:29 GMT 53.041306 4.352264 40,000 281 413 64
2020-07-13 17:10:26 GMT 53.041306 4.352264 40,000 281 413 0
2020-07-13 17:10:23 GMT 53.040363 4.361180 40,000 281 413 0
2020-07-13 17:10:20 GMT 53.039658 4.367599 40,000 281 413 0
2020-07-13 17:10:17 GMT 53.038376 4.379120 40,000 281 413 0
2020-07-13 17:10:14 GMT 53.037231 4.389877 40,000 281 413 -64
2020-07-13 17:10:11 GMT 53.036591 4.395752 40,000 278 414 0
2020-07-13 17:10:08 GMT 53.035400 4.406738 40,000 281 413 0
2020-07-13 17:10:05 GMT 53.034172 4.418073 40,000 281 413 64
2020-07-13 17:10:02 GMT 53.033428 4.424665 40,000 278 414 0
2020-07-13 17:09:59 GMT 53.032288 4.435501 40,000 278 414 0
2020-07-13 17:09:56 GMT 53.031563 4.443499 40,000 278 413 64
2020-07-13 17:09:53 GMT 53.030773 4.453465 40,000 278 414 64
2020-07-13 17:09:50 GMT 53.029953 4.463730 40,000 278 414 0
2020-07-13 17:09:47 GMT 53.029083 4.475098 40,000 278 414 0
2020-07-13 17:09:44 GMT 53.028488 4.482574 40,000 278 414 0
2020-07-13 17:09:41 GMT 53.027985 4.488678 40,000 278 414 0
2020-07-13 17:09:38 GMT 53.026955 4.502040 40,000 278 414 0
2020-07-13 17:09:35 GMT 53.026302 4.509888 40,000 278 414 -64
2020-07-13 17:09:32 GMT 53.025513 4.520264 40,000 278 414 64
2020-07-13 17:09:29 GMT 53.024872 4.528351 40,000 278 414 -64
2020-07-13 17:09:26 GMT 53.023884 4.540492 40,000 278 414 0
2020-07-13 17:09:23 GMT 53.023270 4.548416 40,000 278 414 64
2020-07-13 17:09:20 GMT 53.022533 4.557757 40,000 278 414 0
2020-07-13 17:09:17 GMT 53.021881 4.565761 40,000 278 414 0
2020-07-13 17:09:14 GMT 53.021118 4.575195 40,000 278 414 0
2020-07-13 17:09:11 GMT 53.020294 4.585800 40,000 278 415 0
2020-07-13 17:09:08 GMT 53.019508 4.595503 40,000 278 415 0
2020-07-13 17:09:05 GMT 53.018875 4.603424 40,000 278 415 0
2020-07-13 17:09:02 GMT 53.018158 4.612767 40,000 278 415 0
2020-07-13 17:08:59 GMT 53.017414 4.621948 40,000 278 415 0
2020-07-13 17:08:56 GMT 53.016769 4.630585 40,000 278 415 0
2020-07-13 17:08:53 GMT 53.014938 4.653549 40,000 278 415 0
2020-07-13 17:08:50 GMT 53.014938 4.653549 40,000 278 415 0
2020-07-13 17:08:46 GMT 53.014061 4.664716 40,000 278 415 -64
2020-07-13 17:08:43 GMT 53.013199 4.675751 40,000 278 415 0
2020-07-13 17:08:40 GMT 53.012711 4.682138 40,000 278 415 0
2020-07-13 17:08:37 GMT 53.011826 4.693830 40,000 278 416 0
2020-07-13 17:08:34 GMT 53.011223 4.701364 40,000 278 416 0
2020-07-13 17:08:31 GMT 53.010288 4.713213 40,000 278 416 0
2020-07-13 17:08:28 GMT 53.009777 4.719884 40,000 278 416 0
2020-07-13 17:08:25 GMT 53.008987 4.729919 40,000 278 416 0
2020-07-13 17:08:22 GMT 53.008057 4.741856 40,000 278 416 0
2020-07-13 17:08:19 GMT 53.007313 4.751195 40,000 278 416 0
2020-07-13 17:08:16 GMT 53.006836 4.757309 40,000 278 416 0
2020-07-13 17:08:13 GMT 53.005188 4.778214 40,000 278 417 0
2020-07-13 17:08:10 GMT 53.005188 4.778214 40,000 278 416 -64
2020-07-13 17:08:07 GMT 53.004410 4.788055 40,000 278 416 0
2020-07-13 17:08:04 GMT 53.003723 4.796295 40,000 278 417 0
2020-07-13 17:08:01 GMT 53.002945 4.806213 40,000 278 417 0
2020-07-13 17:07:58 GMT 53.002213 4.815826 40,000 278 417 0
2020-07-13 17:07:55 GMT 53.001343 4.826965 40,000 278 417 -64
2020-07-13 17:07:52 GMT 53.000095 4.842538 40,000 278 417 0
2020-07-13 17:07:49 GMT 52.999119 4.854701 40,000 278 417 -64
2020-07-13 17:07:46 GMT 52.999119 4.854701 40,000 278 417 0
2020-07-13 17:07:43 GMT 52.998505 4.862442 40,000 278 417 0
2020-07-13 17:07:40 GMT 52.997723 4.872358 40,000 278 417 0
2020-07-13 17:07:37 GMT 52.997086 4.880447 40,000 278 417 0
2020-07-13 17:07:34 GMT 52.996140 4.892212 40,000 278 417 0
2020-07-13 17:07:31 GMT 52.995483 4.900284 40,000 278 417 0
2020-07-13 17:07:28 GMT 52.994694 4.909869 40,000 278 417 64
2020-07-13 17:07:25 GMT 52.993835 4.920807 40,000 278 417 0
2020-07-13 17:07:22 GMT 52.993111 4.930036 40,000 278 417 0
2020-07-13 17:07:19 GMT 52.992188 4.941101 40,000 278 417 0
2020-07-13 17:07:16 GMT 52.991531 4.949498 40,000 278 417 64
2020-07-13 17:07:13 GMT 52.990768 4.958725 40,000 278 417 0
2020-07-13 17:07:10 GMT 52.989250 4.976964 40,000 278 417 0
2020-07-13 17:07:07 GMT 52.989250 4.976964 40,000 278 417 0
2020-07-13 17:07:04 GMT 52.988457 4.986459 40,000 278 417 0
2020-07-13 17:07:01 GMT 52.987667 4.996111 40,000 278 417 0
2020-07-13 17:06:58 GMT 52.986965 5.004586 40,000 278 417 0
2020-07-13 17:06:55 GMT 52.986130 5.014945 40,000 278 417 -64
2020-07-13 17:06:52 GMT 52.985432 5.023577 40,000 278 417 0
2020-07-13 17:06:49 GMT 52.984360 5.036392 40,000 278 417 0
2020-07-13 17:06:46 GMT 52.983616 5.045157 40,000 278 417 -64
2020-07-13 17:06:43 GMT 52.982758 5.055161 40,000 278 417 0
2020-07-13 17:06:40 GMT 52.982265 5.061480 40,000 278 417 64
2020-07-13 17:06:37 GMT 52.981384 5.072174 40,000 278 418 64
2020-07-13 17:06:34 GMT 52.980541 5.081961 40,000 278 418 0
2020-07-13 17:06:31 GMT 52.979893 5.089887 40,000 278 419 0
2020-07-13 17:06:28 GMT 52.979050 5.099792 40,000 278 418 0
2020-07-13 17:06:25 GMT 52.977982 5.112566 40,000 278 419 0
2020-07-13 17:06:22 GMT 52.977402 5.119476 40,000 278 418 0
2020-07-13 17:06:19 GMT 52.976578 5.128784 40,000 278 418 0
2020-07-13 17:06:16 GMT 52.975800 5.138321 40,000 278 418 0
2020-07-13 17:06:13 GMT 52.974838 5.149765 40,000 278 418 -64
2020-07-13 17:06:10 GMT 52.974152 5.158081 40,000 278 418 -64
2020-07-13 17:06:07 GMT 52.973419 5.166779 40,000 278 418 -64
2020-07-13 17:06:04 GMT 52.972675 5.175816 40,000 278 418 0
2020-07-13 17:06:01 GMT 52.971699 5.187666 40,000 278 418 0
2020-07-13 17:05:55 GMT 52.970207 5.205401 40,000 278 419 0
2020-07-13 17:05:52 GMT 52.969299 5.216522 40,000 278 418 0
2020-07-13 17:05:49 GMT 52.968487 5.226275 40,000 278 418 -64
2020-07-13 17:05:46 GMT 52.967739 5.235221 40,000 278 418 0
2020-07-13 17:05:43 GMT 52.967136 5.242597 40,000 278 418 0
2020-07-13 17:05:40 GMT 52.965546 5.261765 40,000 278 418 -64
2020-07-13 17:05:37 GMT 52.965546 5.261765 40,000 278 418 -64
2020-07-13 17:05:34 GMT 52.964493 5.274506 40,000 278 419 0
2020-07-13 17:05:31 GMT 52.963715 5.283585 40,000 278 419 0
2020-07-13 17:05:28 GMT 52.962898 5.293370 40,000 278 419 0
2020-07-13 17:05:25 GMT 52.962387 5.299648 40,000 278 419 0
2020-07-13 17:05:22 GMT 52.961380 5.311050 40,000 279 419 0
2020-07-13 17:05:19 GMT 52.960480 5.321699 40,000 279 419 0
2020-07-13 17:05:16 GMT 52.959923 5.328212 40,000 279 419 64
2020-07-13 17:05:13 GMT 52.959000 5.338898 40,000 279 419 64
2020-07-13 17:05:10 GMT 52.958199 5.348615 40,000 279 419 0
2020-07-13 17:05:07 GMT 52.957489 5.356445 40,000 279 419 0
2020-07-13 17:05:04 GMT 52.956524 5.367763 40,000 279 419 0
2020-07-13 17:05:01 GMT 52.955475 5.379715 40,000 279 419 0
2020-07-13 17:04:58 GMT 52.954742 5.388184 40,000 279 419 0
2020-07-13 17:04:55 GMT 52.954056 5.396271 40,000 279 419 -64
2020-07-13 17:04:52 GMT 52.953358 5.404646 40,000 279 419 0
2020-07-13 17:04:49 GMT 52.952408 5.415421 40,000 279 419 0
2020-07-13 17:04:46 GMT 52.950748 5.434937 40,000 279 419 0
2020-07-13 17:04:43 GMT 52.950748 5.434937 40,000 279 419 0
2020-07-13 17:04:40 GMT 52.949844 5.445328 40,000 279 419 0
2020-07-13 17:04:37 GMT 52.949066 5.454330 40,000 279 419 0
2020-07-13 17:04:34 GMT 52.948105 5.465698 40,000 279 419 0
2020-07-13 17:04:31 GMT 52.947372 5.473938 40,000 279 419 0
2020-07-13 17:04:28 GMT 52.946793 5.480530 40,000 279 419 0
2020-07-13 17:04:24 GMT 52.945450 5.495834 40,000 279 419 0
2020-07-13 17:04:21 GMT 52.944790 5.503444 40,000 279 419 0
2020-07-13 17:04:18 GMT 52.943802 5.514832 40,000 279 419 0
2020-07-13 17:04:15 GMT 52.943161 5.522308 40,000 279 419 0
2020-07-13 17:04:12 GMT 52.942429 5.530701 40,000 279 419 0
2020-07-13 17:04:09 GMT 52.941578 5.540327 40,000 279 419 0
2020-07-13 17:04:06 GMT 52.940647 5.550842 40,000 279 419 0
2020-07-13 17:04:03 GMT 52.938927 5.570932 40,000 279 419 0
2020-07-13 17:04:00 GMT 52.938927 5.570932 40,000 279 419 0
2020-07-13 17:03:57 GMT 52.938263 5.578537 40,000 279 419 0
2020-07-13 17:03:54 GMT 52.937389 5.588117 40,000 279 419 0
2020-07-13 17:03:51 GMT 52.936226 5.601772 40,000 279 418 0
2020-07-13 17:03:48 GMT 52.935791 5.606766 40,000 279 419 0
2020-07-13 17:03:45 GMT 52.934875 5.616996 40,000 279 419 0
2020-07-13 17:03:42 GMT 52.934052 5.626678 40,000 279 419 0
2020-07-13 17:03:39 GMT 52.933060 5.637948 40,000 279 419 -64
2020-07-13 17:03:36 GMT 52.932404 5.645218 40,000 279 419 0
2020-07-13 17:03:33 GMT 52.931431 5.656468 40,000 279 419 0
2020-07-13 17:03:30 GMT 52.930756 5.664215 40,000 279 419 0
2020-07-13 17:03:27 GMT 52.929886 5.674057 40,000 279 419 0
2020-07-13 17:03:24 GMT 52.928055 5.694809 40,000 279 419 0
2020-07-13 17:03:21 GMT 52.928055 5.694809 40,000 279 419 0
2020-07-13 17:03:18 GMT 52.926361 5.714188 40,000 279 419 0
2020-07-13 17:03:15 GMT 52.926361 5.714188 40,000 279 419 0
2020-07-13 17:03:11 GMT 52.925518 5.724112 40,000 279 419 0
2020-07-13 17:03:08 GMT 52.923660 5.745468 40,000 279 419 0
2020-07-13 17:03:05 GMT 52.923660 5.745468 40,000 279 419 0
2020-07-13 17:03:02 GMT 52.922928 5.753937 40,000 279 419 0
2020-07-13 17:02:59 GMT 52.921841 5.766802 40,000 279 419 -64
2020-07-13 17:02:56 GMT 52.921143 5.774689 40,000 279 419 0
2020-07-13 17:02:53 GMT 52.920536 5.781555 40,000 279 419 0
2020-07-13 17:02:50 GMT 52.919724 5.790787 40,000 279 419 0
2020-07-13 17:02:47 GMT 52.918671 5.802841 40,000 279 419 0
2020-07-13 17:02:44 GMT 52.918030 5.810394 40,000 279 419 0
2020-07-13 17:02:41 GMT 52.917000 5.821891 40,000 279 419 0
2020-07-13 17:02:38 GMT 52.916290 5.829773 40,000 279 419 0
2020-07-13 17:02:35 GMT 52.915741 5.836487 40,000 279 419 0
2020-07-13 17:02:32 GMT 52.914345 5.852025 40,000 279 419 0
2020-07-13 17:02:29 GMT 52.913692 5.859558 40,000 279 419 0
2020-07-13 17:02:26 GMT 52.912994 5.867310 40,000 279 419 0
2020-07-13 17:02:23 GMT 52.911926 5.879255 40,000 279 419 0
2020-07-13 17:02:20 GMT 52.911255 5.886230 40,000 279 419 0
2020-07-13 17:02:17 GMT 52.910522 5.894699 40,000 279 419 0
2020-07-13 17:02:14 GMT 52.909653 5.904160 40,000 279 419 0
2020-07-13 17:02:11 GMT 52.908737 5.914078 40,000 279 418 0
2020-07-13 17:02:08 GMT 52.907776 5.924377 40,000 279 419 0
2020-07-13 17:02:02 GMT 52.906059 5.943290 40,000 279 419 0
2020-07-13 17:01:59 GMT 52.905212 5.952606 40,000 279 419 0
2020-07-13 17:01:56 GMT 52.904114 5.964661 40,000 279 419 0
2020-07-13 17:01:53 GMT 52.903126 5.975699 40,000 279 419 0
2020-07-13 17:01:50 GMT 52.902706 5.980565 40,000 279 419 0
2020-07-13 17:01:47 GMT 52.901230 5.996780 40,000 279 419 0
2020-07-13 17:01:44 GMT 52.900940 6.000262 40,000 279 418 0
2020-07-13 17:01:41 GMT 52.899811 6.012650 40,000 279 418 0
2020-07-13 17:01:38 GMT 52.899216 6.019058 40,000 279 418 0
2020-07-13 17:01:35 GMT 52.898392 6.028442 40,000 279 418 0
2020-07-13 17:01:32 GMT 52.896515 6.048915 40,000 279 418 0
2020-07-13 17:01:29 GMT 52.896515 6.048915 40,000 279 418 0
2020-07-13 17:01:26 GMT 52.895599 6.059036 40,000 279 418 0
2020-07-13 17:01:23 GMT 52.894749 6.068534 40,000 279 418 0
2020-07-13 17:01:20 GMT 52.893909 6.077637 40,000 279 418 0
2020-07-13 17:01:17 GMT 52.893070 6.086661 40,000 279 418 0
2020-07-13 17:01:14 GMT 52.892372 6.094430 40,000 279 418 0
2020-07-13 17:01:11 GMT 52.891441 6.104318 40,000 279 418 0
2020-07-13 17:01:08 GMT 52.890419 6.115461 40,000 279 418 0
2020-07-13 17:01:05 GMT 52.889767 6.122524 40,000 279 418 0
2020-07-13 17:01:02 GMT 52.888695 6.133981 40,000 279 418 64
2020-07-13 17:00:59 GMT 52.888000 6.141815 40,000 279 418 0
2020-07-13 17:00:56 GMT 52.886974 6.152815 40,000 279 418 0
2020-07-13 17:00:53 GMT 52.886124 6.162033 40,000 279 416 0
2020-07-13 17:00:50 GMT 52.884365 6.181222 40,000 279 418 0
2020-07-13 17:00:47 GMT 52.884365 6.181222 40,000 279 418 0
2020-07-13 17:00:44 GMT 52.883575 6.189697 40,000 279 418 64
2020-07-13 17:00:41 GMT 52.882599 6.200213 40,000 279 418 64
2020-07-13 17:00:38 GMT 52.881775 6.208725 40,000 279 418 0
2020-07-13 17:00:35 GMT 52.880733 6.220067 40,000 279 418 0
2020-07-13 17:00:32 GMT 52.879898 6.229401 40,000 279 418 0
2020-07-13 17:00:29 GMT 52.879028 6.238480 40,000 279 418 0
2020-07-13 17:00:26 GMT 52.878315 6.246198 40,000 279 418 0
2020-07-13 17:00:23 GMT 52.877426 6.255646 40,000 279 418 -64
2020-07-13 17:00:20 GMT 52.876328 6.267319 40,000 279 418 0
2020-07-13 17:00:17 GMT 52.875595 6.275177 40,000 279 419 64
2020-07-13 17:00:14 GMT 52.874451 6.287711 40,000 279 418 0
2020-07-13 17:00:11 GMT 52.873810 6.294632 40,000 279 418 0
2020-07-13 17:00:08 GMT 52.872986 6.303253 40,000 279 418 0
2020-07-13 17:00:05 GMT 52.872070 6.313171 40,000 279 418 0
2020-07-13 17:00:02 GMT 52.870167 6.333618 40,000 279 418 0
2020-07-13 16:59:59 GMT 52.869278 6.343307 40,000 279 417 0
2020-07-13 16:59:56 GMT 52.869278 6.343307 40,000 279 417 0
2020-07-13 16:59:53 GMT 52.868362 6.352844 40,000 279 417 0
2020-07-13 16:59:50 GMT 52.867722 6.359711 40,000 279 417 0
2020-07-13 16:59:47 GMT 52.866585 6.371599 40,000 279 418 0
2020-07-13 16:59:44 GMT 52.866074 6.377182 40,000 279 418 0
2020-07-13 16:59:41 GMT 52.864861 6.390041 40,000 279 418 0
2020-07-13 16:59:38 GMT 52.863930 6.399850 40,000 279 417 0
2020-07-13 16:59:35 GMT 52.863235 6.407318 40,000 279 418 -64
2020-07-13 16:59:32 GMT 52.862301 6.417193 40,000 279 418 0
2020-07-13 16:59:29 GMT 52.861313 6.427917 40,000 279 418 64
2020-07-13 16:59:26 GMT 52.860443 6.437073 40,000 279 419 0
2020-07-13 16:59:23 GMT 52.859573 6.446304 40,000 279 419 0
2020-07-13 16:59:20 GMT 52.858437 6.458078 40,000 279 419 0
2020-07-13 16:59:17 GMT 52.857834 6.464539 40,000 279 419 0
2020-07-13 16:59:14 GMT 52.856995 6.473380 40,000 279 419 0
2020-07-13 16:59:11 GMT 52.856003 6.484070 40,000 279 419 0
2020-07-13 16:59:08 GMT 52.855042 6.494064 40,000 279 419 0
2020-07-13 16:59:05 GMT 52.854172 6.503448 40,000 279 419 0
2020-07-13 16:59:02 GMT 52.853455 6.510969 40,000 279 419 0
2020-07-13 16:58:59 GMT 52.852524 6.520621 40,000 279 418 0
2020-07-13 16:58:56 GMT 52.851456 6.531764 40,000 279 418 0
2020-07-13 16:58:53 GMT 52.850758 6.539298 40,000 279 418 0
2020-07-13 16:58:50 GMT 52.848816 6.559830 40,000 279 419 0
2020-07-13 16:58:47 GMT 52.847916 6.569353 40,000 279 419 0
2020-07-13 16:58:44 GMT 52.847916 6.569353 40,000 279 419 0
2020-07-13 16:58:41 GMT 52.847126 6.577829 40,000 279 419 0
2020-07-13 16:58:38 GMT 52.846191 6.587245 40,000 280 417 -64
2020-07-13 16:58:35 GMT 52.845402 6.595642 40,000 280 419 0
2020-07-13 16:58:32 GMT 52.844379 6.606393 40,000 280 419 0
2020-07-13 16:58:29 GMT 52.842518 6.625619 40,000 280 419 0
2020-07-13 16:58:26 GMT 52.842518 6.625619 40,000 280 419 0
2020-07-13 16:58:23 GMT 52.841583 6.635428 40,000 280 419 0
2020-07-13 16:58:20 GMT 52.840714 6.644363 40,000 280 419 0
2020-07-13 16:58:17 GMT 52.839909 6.652536 40,000 280 419 0
2020-07-13 16:58:14 GMT 52.838932 6.662502 40,000 280 419 -64
2020-07-13 16:58:11 GMT 52.838013 6.672363 40,000 280 419 -64
2020-07-13 16:58:08 GMT 52.836227 6.690750 40,000 280 418 0
2020-07-13 16:58:02 GMT 52.835083 6.702347 40,000 280 418 0
2020-07-13 16:57:59 GMT 52.834167 6.711578 40,000 280 418 0
2020-07-13 16:57:55 GMT 52.833019 6.723711 40,000 280 418 0
2020-07-13 16:57:52 GMT 52.832230 6.731480 40,000 280 418 0
2020-07-13 16:57:49 GMT 52.831158 6.742780 40,000 280 418 0
2020-07-13 16:57:46 GMT 52.830322 6.751251 40,000 280 418 0
2020-07-13 16:57:43 GMT 52.829315 6.761627 40,000 280 418 -64
2020-07-13 16:57:40 GMT 52.828491 6.769714 40,000 280 418 0
2020-07-13 16:57:37 GMT 52.826550 6.789943 40,000 280 418 0
2020-07-13 16:57:34 GMT 52.826550 6.789943 40,000 280 418 0
2020-07-13 16:57:31 GMT 52.825619 6.799360 40,000 280 418 0
2020-07-13 16:57:28 GMT 52.824875 6.807050 40,000 280 418 0
2020-07-13 16:57:25 GMT 52.823730 6.818237 40,000 280 418 0
2020-07-13 16:57:22 GMT 52.822777 6.828317 40,000 280 418 64
2020-07-13 16:57:19 GMT 52.821800 6.838048 40,000 280 418 64
2020-07-13 16:57:16 GMT 52.820961 6.846523 40,000 280 418 0
2020-07-13 16:57:12 GMT 52.819702 6.859512 40,000 280 418 -64
2020-07-13 16:57:09 GMT 52.819016 6.866379 40,000 280 418 -64
2020-07-13 16:57:06 GMT 52.817982 6.877049 40,000 280 418 0
2020-07-13 16:57:03 GMT 52.816727 6.889572 40,000 280 418 0
2020-07-13 16:57:00 GMT 52.816166 6.895255 40,000 280 418 0
2020-07-13 16:56:57 GMT 52.815262 6.904449 40,000 280 418 0
2020-07-13 16:56:54 GMT 52.813248 6.925201 40,000 280 418 64
2020-07-13 16:56:51 GMT 52.813248 6.925201 40,000 280 418 64
2020-07-13 16:56:48 GMT 52.812469 6.933060 40,000 280 418 64
2020-07-13 16:56:45 GMT 52.811646 6.941147 40,000 280 418 0
2020-07-13 16:56:42 GMT 52.810440 6.953482 40,000 280 418 0
2020-07-13 16:56:39 GMT 52.809677 6.961365 40,000 280 418 0
2020-07-13 16:56:36 GMT 52.808765 6.970511 40,000 280 418 0
2020-07-13 16:56:33 GMT 52.807663 6.981506 40,000 280 418 0
2020-07-13 16:56:30 GMT 52.806808 6.990287 40,000 280 418 0
2020-07-13 16:56:27 GMT 52.804733 7.011108 40,000 280 418 0
2020-07-13 16:56:24 GMT 52.804016 7.018302 40,000 280 418 0
2020-07-13 16:56:21 GMT 52.804016 7.018302 40,000 280 418 0
2020-07-13 16:56:18 GMT 52.802994 7.028582 40,000 280 417 0
2020-07-13 16:56:15 GMT 52.802032 7.038345 40,000 280 417 0
2020-07-13 16:56:12 GMT 52.801083 7.047729 40,000 280 417 0
2020-07-13 16:56:09 GMT 52.800156 7.056732 40,000 280 417 0
2020-07-13 16:56:06 GMT 52.799221 7.066092 40,000 280 417 0
2020-07-13 16:56:03 GMT 52.798279 7.075500 40,000 280 417 -64
2020-07-13 16:56:00 GMT 52.797363 7.084579 40,000 280 417 -64
2020-07-13 16:55:57 GMT 52.796383 7.094107 40,000 280 417 64
2020-07-13 16:55:54 GMT 52.795624 7.101746 40,000 280 417 0
2020-07-13 16:55:51 GMT 52.793308 7.124477 40,000 280 417 64
2020-07-13 16:55:45 GMT 52.792648 7.130966 40,000 280 417 0
2020-07-13 16:55:42 GMT 52.791542 7.142133 40,000 280 417 -64
2020-07-13 16:55:39 GMT 52.790703 7.150373 40,000 280 417 0
2020-07-13 16:55:36 GMT 52.789726 7.159869 40,000 280 417 0
2020-07-13 16:55:33 GMT 52.788895 7.168274 40,000 280 417 0
2020-07-13 16:55:30 GMT 52.787613 7.180634 40,000 280 417 0
2020-07-13 16:55:26 GMT 52.786793 7.188590 40,000 280 417 0
2020-07-13 16:55:23 GMT 52.785645 7.199860 40,000 280 417 0
2020-07-13 16:55:20 GMT 52.784546 7.210922 40,000 280 417 0
2020-07-13 16:55:17 GMT 52.783489 7.221157 40,000 280 417 0
2020-07-13 16:55:14 GMT 52.782604 7.229710 40,000 280 417 0
2020-07-13 16:55:11 GMT 52.781479 7.240753 40,000 280 417 0
2020-07-13 16:55:08 GMT 52.779716 7.258039 40,000 280 417 0
2020-07-13 16:55:05 GMT 52.779716 7.258039 40,000 280 417 0
2020-07-13 16:55:02 GMT 52.778831 7.266593 40,000 280 416 64
2020-07-13 16:54:59 GMT 52.777954 7.275162 40,000 280 417 0
2020-07-13 16:54:56 GMT 52.776764 7.286911 40,000 280 417 0
2020-07-13 16:54:53 GMT 52.775940 7.294846 40,000 280 417 0
2020-07-13 16:54:50 GMT 52.773758 7.316110 40,000 280 416 0
2020-07-13 16:54:47 GMT 52.773758 7.316110 40,000 280 416 0
2020-07-13 16:54:44 GMT 52.772827 7.325211 40,000 280 416 0
2020-07-13 16:54:41 GMT 52.772095 7.332687 40,000 280 416 0
2020-07-13 16:54:38 GMT 52.771107 7.342006 40,000 280 416 0
2020-07-13 16:54:35 GMT 52.770267 7.350403 40,000 280 416 0
2020-07-13 16:54:32 GMT 52.768890 7.363510 40,000 280 416 0
2020-07-13 16:54:29 GMT 52.768078 7.371512 40,000 280 416 0
2020-07-13 16:54:26 GMT 52.766373 7.388382 40,000 280 416 64
2020-07-13 16:54:20 GMT 52.764355 7.407846 40,000 280 416 -64
2020-07-13 16:54:17 GMT 52.764355 7.407846 40,000 280 416 -64
2020-07-13 16:54:14 GMT 52.762493 7.426130 40,000 280 416 0
2020-07-13 16:54:11 GMT 52.761517 7.435390 40,000 280 416 64
2020-07-13 16:54:08 GMT 52.761517 7.435390 40,000 280 416 64
2020-07-13 16:54:05 GMT 52.760536 7.444885 40,000 280 416 0
2020-07-13 16:54:02 GMT 52.759369 7.456207 40,000 280 416 0
2020-07-13 16:53:59 GMT 52.758583 7.463797 40,000 280 416 0
2020-07-13 16:53:56 GMT 52.757744 7.471959 40,000 280 417 0
2020-07-13 16:53:53 GMT 52.755604 7.492990 40,000 280 416 0
2020-07-13 16:53:50 GMT 52.755604 7.492990 40,000 280 416 0
2020-07-13 16:53:47 GMT 52.754578 7.502642 40,000 280 416 0
2020-07-13 16:53:44 GMT 52.753830 7.510071 40,000 280 416 0
2020-07-13 16:53:41 GMT 52.752823 7.519531 40,000 280 416 0
2020-07-13 16:53:38 GMT 52.751598 7.531520 40,000 280 417 0
2020-07-13 16:53:35 GMT 52.750713 7.539682 40,000 280 417 0
2020-07-13 16:53:32 GMT 52.749939 7.547302 40,000 280 417 0
2020-07-13 16:53:29 GMT 52.747604 7.569656 40,000 280 416 0
2020-07-13 16:53:26 GMT 52.747604 7.569656 40,000 280 416 0
2020-07-13 16:53:23 GMT 52.747055 7.574997 40,000 280 416 0
2020-07-13 16:53:20 GMT 52.745827 7.586687 40,000 280 417 0
2020-07-13 16:53:17 GMT 52.744904 7.595596 40,000 280 416 0
2020-07-13 16:53:14 GMT 52.744057 7.603402 40,000 280 416 -64
2020-07-13 16:53:11 GMT 52.741837 7.625046 40,000 280 416 0
2020-07-13 16:53:08 GMT 52.741837 7.625046 40,000 280 416 0
2020-07-13 16:53:05 GMT 52.740891 7.634242 40,000 280 416 0
2020-07-13 16:53:02 GMT 52.740051 7.642212 40,000 280 416 0
2020-07-13 16:52:59 GMT 52.738907 7.653198 40,000 280 416 -64
2020-07-13 16:52:56 GMT 52.737991 7.662048 40,000 280 417 0
2020-07-13 16:52:53 GMT 52.737213 7.669556 40,000 280 417 128
2020-07-13 16:52:50 GMT 52.736298 7.678299 40,000 280 417 64
2020-07-13 16:52:47 GMT 52.735107 7.689819 40,000 280 417 -64
2020-07-13 16:52:44 GMT 52.734375 7.696629 40,000 280 417 0
2020-07-13 16:52:41 GMT 52.733139 7.708359 40,000 280 417 0
2020-07-13 16:52:38 GMT 52.732315 7.716141 40,000 281 417 0
2020-07-13 16:52:35 GMT 52.730484 7.733536 40,000 280 417 0
2020-07-13 16:52:28 GMT 52.729160 7.746381 40,000 280 417 0
2020-07-13 16:52:25 GMT 52.728058 7.756805 40,000 280 417 0
2020-07-13 16:52:22 GMT 52.727066 7.766157 40,000 280 417 0
2020-07-13 16:52:19 GMT 52.725998 7.776337 40,000 280 417 0
2020-07-13 16:52:16 GMT 52.724991 7.786331 40,000 280 417 -64
2020-07-13 16:52:13 GMT 52.724228 7.793230 40,000 280 417 -64
2020-07-13 16:52:10 GMT 52.721947 7.814968 40,000 280 417 0
2020-07-13 16:52:07 GMT 52.721947 7.814968 40,000 280 417 0
2020-07-13 16:52:04 GMT 52.720917 7.824326 40,000 281 417 0
2020-07-13 16:52:01 GMT 52.719852 7.834351 40,000 281 417 64
2020-07-13 16:51:58 GMT 52.719200 7.840550 40,000 281 417 -64
2020-07-13 16:51:55 GMT 52.718079 7.851028 40,000 281 417 -64
2020-07-13 16:51:52 GMT 52.717026 7.860718 40,000 281 417 -64
2020-07-13 16:51:49 GMT 52.716171 7.868487 40,000 281 417 -64
2020-07-13 16:51:46 GMT 52.714966 7.879333 40,000 281 417 -64
2020-07-13 16:51:43 GMT 52.713043 7.896957 40,000 281 417 0
2020-07-13 16:51:37 GMT 52.711704 7.909450 40,000 281 418 0
2020-07-13 16:51:34 GMT 52.711006 7.915571 40,000 281 418 0
2020-07-13 16:51:31 GMT 52.709984 7.924988 40,000 281 418 64
2020-07-13 16:51:28 GMT 52.708912 7.935111 40,000 281 418 -64
2020-07-13 16:51:25 GMT 52.707981 7.943586 40,000 281 418 0
2020-07-13 16:51:22 GMT 52.707092 7.951813 40,000 281 418 -64
2020-07-13 16:51:19 GMT 52.705746 7.964225 40,000 281 418 0
2020-07-13 16:51:16 GMT 52.704720 7.973642 40,000 281 418 0
2020-07-13 16:51:13 GMT 52.703697 7.982980 40,000 281 418 0
2020-07-13 16:51:10 GMT 52.702835 7.990799 40,000 281 418 0
2020-07-13 16:51:07 GMT 52.701828 7.999878 40,000 281 418 64
2020-07-13 16:51:04 GMT 52.700500 8.011932 40,000 281 418 0
2020-07-13 16:51:01 GMT 52.699722 8.019028 40,000 281 418 0
2020-07-13 16:50:58 GMT 52.698349 8.031540 40,000 281 418 64
2020-07-13 16:50:55 GMT 52.696529 8.048113 40,000 281 418 -64
2020-07-13 16:50:52 GMT 52.696529 8.048113 40,000 281 418 0
2020-07-13 16:50:48 GMT 52.695053 8.061905 40,000 281 418 0
2020-07-13 16:50:45 GMT 52.693874 8.072597 40,000 281 418 0
2020-07-13 16:50:42 GMT 52.693176 8.078918 40,000 281 418 0
2020-07-13 16:50:39 GMT 52.692104 8.088763 40,000 281 418 0
2020-07-13 16:50:36 GMT 52.690105 8.107439 40,000 281 418 0
2020-07-13 16:50:33 GMT 52.690105 8.107439 40,000 281 418 0
2020-07-13 16:50:30 GMT 52.688919 8.118286 40,000 281 418 0
2020-07-13 16:50:27 GMT 52.688007 8.126430 40,000 281 418 0
2020-07-13 16:50:24 GMT 52.686584 8.139801 40,000 281 418 0
2020-07-13 16:50:21 GMT 52.686218 8.143005 40,000 281 418 64
2020-07-13 16:50:18 GMT 52.684097 8.162449 40,000 281 418 0
2020-07-13 16:50:15 GMT 52.682739 8.174438 40,000 281 418 0
2020-07-13 16:50:12 GMT 52.682739 8.174438 40,000 281 418 0
2020-07-13 16:50:09 GMT 52.681824 8.182678 40,000 281 418 0
2020-07-13 16:50:06 GMT 52.680935 8.190700 40,000 281 418 0
2020-07-13 16:50:03 GMT 52.679718 8.201752 40,000 281 418 0
2020-07-13 16:50:00 GMT 52.678848 8.209305 40,000 281 418 -128
2020-07-13 16:49:57 GMT 52.676556 8.229937 40,000 281 418 0
2020-07-13 16:49:54 GMT 52.676556 8.229937 40,000 281 418 0
2020-07-13 16:49:51 GMT 52.675369 8.240433 40,000 281 418 0
2020-07-13 16:49:47 GMT 52.673904 8.253636 40,000 281 418 128
2020-07-13 16:49:44 GMT 52.672832 8.263131 40,000 281 418 -64
2020-07-13 16:49:41 GMT 52.671810 8.272548 40,000 281 418 0
2020-07-13 16:49:38 GMT 52.671066 8.278961 40,000 281 418 0
2020-07-13 16:49:35 GMT 52.669922 8.289261 40,000 281 418 -64
2020-07-13 16:49:32 GMT 52.667850 8.308097 40,000 281 418 0
2020-07-13 16:49:29 GMT 52.667850 8.308097 40,000 281 418 0
2020-07-13 16:49:26 GMT 52.666641 8.318769 40,000 281 418 0
2020-07-13 16:49:23 GMT 52.665619 8.328108 40,000 281 418 -64
2020-07-13 16:49:20 GMT 52.664795 8.335419 40,000 281 418 -64
2020-07-13 16:49:17 GMT 52.662823 8.353219 40,000 281 418 0
2020-07-13 16:49:11 GMT 52.661362 8.366013 40,000 281 418 -64
2020-07-13 16:49:08 GMT 52.660721 8.372040 40,000 281 418 -64
2020-07-13 16:49:05 GMT 52.659519 8.382804 40,000 281 417 0
2020-07-13 16:49:02 GMT 52.658295 8.393784 40,000 281 417 0
2020-07-13 16:48:59 GMT 52.657238 8.403285 40,000 281 417 -64
2020-07-13 16:48:56 GMT 52.655411 8.419418 40,000 281 417 0
2020-07-13 16:48:53 GMT 52.655411 8.419418 40,000 281 417 64
2020-07-13 16:48:50 GMT 52.652939 8.441849 40,000 281 417 0
2020-07-13 16:48:47 GMT 52.652351 8.446995 40,000 281 417 0
2020-07-13 16:48:44 GMT 52.651279 8.456491 40,000 281 417 0
2020-07-13 16:48:41 GMT 52.651279 8.456491 40,000 281 417 64
2020-07-13 16:48:38 GMT 52.650192 8.466263 40,000 281 418 0
2020-07-13 16:48:35 GMT 52.649048 8.476181 40,000 281 418 0
2020-07-13 16:48:31 GMT 52.647537 8.489761 40,000 281 417 64
2020-07-13 16:48:28 GMT 52.646763 8.496355 40,000 281 417 64
2020-07-13 16:48:25 GMT 52.645203 8.510132 40,000 281 417 -64
2020-07-13 16:48:22 GMT 52.644157 8.519270 40,000 281 417 -64
2020-07-13 16:48:19 GMT 52.643646 8.523865 40,000 281 417 -64
2020-07-13 16:48:16 GMT 52.642246 8.535906 40,000 281 416 -64
2020-07-13 16:48:13 GMT 52.641312 8.544083 40,000 281 416 0
2020-07-13 16:48:10 GMT 52.640350 8.552322 40,000 281 415 64
2020-07-13 16:48:07 GMT 52.639160 8.562698 40,000 281 416 0
2020-07-13 16:48:04 GMT 52.637920 8.573417 40,000 281 416 0
2020-07-13 16:48:01 GMT 52.637054 8.581390 40,000 281 416 0
2020-07-13 16:47:58 GMT 52.635639 8.593977 40,000 281 416 0
2020-07-13 16:47:55 GMT 52.633636 8.611712 40,000 281 416 0
2020-07-13 16:47:52 GMT 52.633636 8.611712 40,000 281 416 0
2020-07-13 16:47:49 GMT 52.632847 8.618304 40,000 281 416 0
2020-07-13 16:47:46 GMT 52.631561 8.629761 40,000 281 416 0
2020-07-13 16:47:43 GMT 52.630508 8.639069 40,000 281 416 0
2020-07-13 16:47:40 GMT 52.629639 8.646698 40,000 281 416 0
2020-07-13 16:47:37 GMT 52.628448 8.657074 40,000 281 415 0
2020-07-13 16:47:34 GMT 52.627396 8.666382 40,000 281 415 0
2020-07-13 16:47:31 GMT 52.626389 8.674850 40,000 281 415 64
2020-07-13 16:47:28 GMT 52.625107 8.686218 40,000 281 415 0
2020-07-13 16:47:25 GMT 52.624092 8.694894 40,000 281 415 -64
2020-07-13 16:47:22 GMT 52.623322 8.701935 40,000 281 415 -64
2020-07-13 16:47:19 GMT 52.622406 8.709564 40,000 281 414 0
2020-07-13 16:47:16 GMT 52.621208 8.719849 40,000 281 414 0
2020-07-13 16:47:13 GMT 52.619995 8.730364 40,000 281 414 0
2020-07-13 16:47:10 GMT 52.619064 8.738604 40,000 281 414 64
2020-07-13 16:47:07 GMT 52.616730 8.758926 40,000 281 414 -64
2020-07-13 16:47:04 GMT 52.616730 8.758926 40,000 281 414 64
2020-07-13 16:47:01 GMT 52.615433 8.770150 40,000 281 414 -64
2020-07-13 16:46:58 GMT 52.614395 8.779373 40,000 281 414 64
2020-07-13 16:46:55 GMT 52.613338 8.788592 40,000 281 414 64
2020-07-13 16:46:52 GMT 52.612499 8.796125 40,000 281 414 64
2020-07-13 16:46:49 GMT 52.611649 8.803711 40,000 281 414 0
2020-07-13 16:46:46 GMT 52.610546 8.813311 40,000 281 414 -64
2020-07-13 16:46:43 GMT 52.608219 8.833557 40,000 281 414 -64
2020-07-13 16:46:37 GMT 52.606312 8.850115 40,000 281 414 0
2020-07-13 16:46:34 GMT 52.605103 8.860626 40,000 281 414 0
2020-07-13 16:46:31 GMT 52.605103 8.860626 40,000 281 414 0
2020-07-13 16:46:28 GMT 52.604233 8.868332 40,000 281 413 0
2020-07-13 16:46:25 GMT 52.602997 8.878784 40,000 281 413 0
2020-07-13 16:46:22 GMT 52.601933 8.888253 40,000 281 413 0
2020-07-13 16:46:19 GMT 52.600800 8.897934 40,000 281 413 0
2020-07-13 16:46:16 GMT 52.599747 8.906930 40,000 281 413 0
2020-07-13 16:46:13 GMT 52.598785 8.915253 40,000 281 413 -64
2020-07-13 16:46:10 GMT 52.596256 8.937064 40,000 281 413 0
2020-07-13 16:46:06 GMT 52.596256 8.937064 40,000 282 413 0
2020-07-13 16:46:03 GMT 52.595123 8.946457 40,000 282 413 0
2020-07-13 16:46:00 GMT 52.594025 8.955688 40,000 282 413 0
2020-07-13 16:45:57 GMT 52.592972 8.964844 40,000 282 413 0
2020-07-13 16:45:54 GMT 52.592018 8.972927 40,000 281 413 64
2020-07-13 16:45:51 GMT 52.591087 8.980539 40,000 282 413 0
2020-07-13 16:45:48 GMT 52.589550 8.993722 40,000 281 413 64
2020-07-13 16:45:45 GMT 52.588665 9.001177 40,000 281 413 64
2020-07-13 16:45:42 GMT 52.587597 9.010437 40,000 281 413 64
2020-07-13 16:45:39 GMT 52.586338 9.021188 40,000 281 413 0
2020-07-13 16:45:36 GMT 52.585220 9.030526 40,000 281 413 0
2020-07-13 16:45:33 GMT 52.583267 9.047470 40,000 281 413 -64
2020-07-13 16:45:30 GMT 52.581963 9.058306 40,000 281 413 0
2020-07-13 16:45:27 GMT 52.581963 9.058306 40,000 281 413 0
2020-07-13 16:45:24 GMT 52.581070 9.066086 40,000 281 413 0
2020-07-13 16:45:21 GMT 52.580063 9.074631 40,000 281 413 0
2020-07-13 16:45:18 GMT 52.578827 9.085464 40,000 281 413 -64
2020-07-13 16:45:15 GMT 52.577587 9.095973 40,000 282 413 -64
2020-07-13 16:45:12 GMT 52.576515 9.104998 40,000 282 413 0
2020-07-13 16:45:09 GMT 52.575806 9.110947 40,000 282 413 0
2020-07-13 16:45:06 GMT 52.573353 9.131601 40,000 282 412 0
2020-07-13 16:45:03 GMT 52.573353 9.131601 40,000 282 412 0
2020-07-13 16:45:00 GMT 52.572002 9.142587 40,000 282 413 0
2020-07-13 16:44:57 GMT 52.570221 9.157715 40,000 282 413 -64
2020-07-13 16:44:54 GMT 52.569031 9.167328 40,000 282 413 -64
2020-07-13 16:44:51 GMT 52.569031 9.167328 40,000 282 413 0
2020-07-13 16:44:48 GMT 52.567749 9.178009 40,000 282 413 0
2020-07-13 16:44:45 GMT 52.567207 9.182608 40,000 282 412 64
2020-07-13 16:44:42 GMT 52.565643 9.195709 40,000 282 412 64
2020-07-13 16:44:39 GMT 52.563583 9.213028 40,000 282 413 0
2020-07-13 16:44:36 GMT 52.562119 9.225082 40,000 282 413 0
2020-07-13 16:44:33 GMT 52.562119 9.225082 40,000 282 413 0
2020-07-13 16:44:30 GMT 52.561432 9.230870 40,000 282 413 0
2020-07-13 16:44:27 GMT 52.560104 9.242096 40,000 282 413 0
2020-07-13 16:44:24 GMT 52.559246 9.249233 40,000 282 413 0
2020-07-13 16:44:21 GMT 52.557896 9.260454 40,000 282 413 0
2020-07-13 16:44:18 GMT 52.556919 9.268302 40,000 282 413 -64
2020-07-13 16:44:15 GMT 52.554451 9.288940 40,000 282 413 0
2020-07-13 16:44:12 GMT 52.554451 9.288940 40,000 282 413 64
2020-07-13 16:44:09 GMT 52.552494 9.305577 40,000 282 413 64
2020-07-13 16:44:06 GMT 52.552494 9.305577 40,000 282 413 0
2020-07-13 16:44:03 GMT 52.551376 9.314601 40,000 282 413 -64
2020-07-13 16:44:00 GMT 52.550262 9.324036 40,000 282 413 0
2020-07-13 16:43:57 GMT 52.549049 9.334141 40,000 282 413 64
2020-07-13 16:43:54 GMT 52.548214 9.341047 40,000 282 413 -128
2020-07-13 16:43:51 GMT 52.547096 9.350621 40,000 282 413 64
2020-07-13 16:43:48 GMT 52.545822 9.361115 40,000 282 413 -64
2020-07-13 16:43:45 GMT 52.543278 9.382167 40,000 282 413 -128
2020-07-13 16:43:42 GMT 52.543278 9.382167 40,000 282 413 64
2020-07-13 16:43:39 GMT 52.542534 9.388602 40,000 282 414 0
2020-07-13 16:43:36 GMT 52.541199 9.399796 40,000 282 414 0
2020-07-13 16:43:33 GMT 52.540100 9.408722 40,000 282 413 64
2020-07-13 16:43:30 GMT 52.539181 9.416382 40,000 282 413 64
2020-07-13 16:43:27 GMT 52.537830 9.427682 40,000 282 413 64
2020-07-13 16:43:24 GMT 52.537170 9.433212 40,000 282 414 0
2020-07-13 16:43:21 GMT 52.535889 9.443741 40,000 282 414 -64
2020-07-13 16:43:18 GMT 52.534431 9.455854 40,000 282 414 -64
2020-07-13 16:43:15 GMT 52.533642 9.462132 40,000 282 414 -128
2020-07-13 16:43:12 GMT 52.532181 9.474182 40,000 282 414 0
2020-07-13 16:43:09 GMT 52.531269 9.481594 40,000 282 414 0
2020-07-13 16:43:06 GMT 52.529938 9.492722 40,000 282 414 64
2020-07-13 16:43:03 GMT 52.529205 9.498749 40,000 282 416 64
2020-07-13 16:43:00 GMT 52.528107 9.507599 40,000 282 414 0
2020-07-13 16:42:57 GMT 52.525681 9.527435 40,000 282 415 0
2020-07-13 16:42:54 GMT 52.525681 9.527435 40,000 282 414 -64
2020-07-13 16:42:51 GMT 52.524353 9.538422 40,000 282 414 0
2020-07-13 16:42:48 GMT 52.523254 9.547424 40,000 282 414 0
2020-07-13 16:42:45 GMT 52.522568 9.552917 40,000 282 414 128
2020-07-13 16:42:42 GMT 52.521378 9.562683 40,000 282 415 128
2020-07-13 16:42:39 GMT 52.518887 9.582903 40,000 282 415 0
2020-07-13 16:42:36 GMT 52.518887 9.582903 40,000 282 415 -128
2020-07-13 16:42:33 GMT 52.517761 9.592056 40,000 282 415 -128
2020-07-13 16:42:30 GMT 52.516651 9.601109 40,000 282 415 -128
2020-07-13 16:42:27 GMT 52.515381 9.611435 40,000 282 415 0
2020-07-13 16:42:23 GMT 52.514091 9.622140 40,000 282 415 64
2020-07-13 16:42:20 GMT 52.512974 9.630929 40,000 282 415 0
2020-07-13 16:42:17 GMT 52.510132 9.653922 40,000 282 415 0
2020-07-13 16:42:13 GMT 52.510132 9.653922 40,000 282 415 0
2020-07-13 16:42:10 GMT 52.508923 9.663810 40,000 282 415 -64
2020-07-13 16:42:07 GMT 52.507946 9.671579 40,000 282 415 0
2020-07-13 16:42:04 GMT 52.507004 9.679260 40,000 282 415 64
2020-07-13 16:42:01 GMT 52.505768 9.689026 40,000 282 415 0
2020-07-13 16:41:58 GMT 52.504593 9.698417 40,000 282 415 0
2020-07-13 16:41:55 GMT 52.503387 9.707794 40,000 282 415 0
2020-07-13 16:41:52 GMT 52.502220 9.717093 40,000 282 415 0
2020-07-13 16:41:49 GMT 52.501102 9.725961 40,000 282 415 -64
2020-07-13 16:41:46 GMT 52.499752 9.737026 40,000 282 415 -64
2020-07-13 16:41:43 GMT 52.498718 9.745102 40,000 282 415 -64
2020-07-13 16:41:40 GMT 52.497528 9.754715 40,000 282 416 64
2020-07-13 16:41:37 GMT 52.495190 9.773281 40,000 282 416 64
2020-07-13 16:41:34 GMT 52.495190 9.773281 40,000 282 416 0
2020-07-13 16:41:31 GMT 52.493980 9.782854 40,000 282 416 64
2020-07-13 16:41:28 GMT 52.492863 9.791879 40,000 282 416 -64
2020-07-13 16:41:24 GMT 52.489883 9.815421 40,000 282 416 -128
2020-07-13 16:41:21 GMT 52.489883 9.815421 40,000 282 416 -64
2020-07-13 16:41:18 GMT 52.488670 9.825152 40,000 282 416 0
2020-07-13 16:41:15 GMT 52.487926 9.831273 40,000 282 416 0
2020-07-13 16:41:12 GMT 52.486439 9.842965 40,000 282 416 0
2020-07-13 16:41:09 GMT 52.485275 9.852304 40,000 282 416 64
2020-07-13 16:41:06 GMT 52.483246 9.868469 40,000 282 416 0
2020-07-13 16:41:00 GMT 52.480911 9.886856 40,000 282 416 64
2020-07-13 16:40:57 GMT 52.479721 9.896317 40,000 282 416 0
2020-07-13 16:40:54 GMT 52.479721 9.896317 40,000 282 417 0
2020-07-13 16:40:51 GMT 52.478432 9.906529 40,000 282 417 0
2020-07-13 16:40:48 GMT 52.477295 9.915543 40,000 282 417 64
2020-07-13 16:40:44 GMT 52.475918 9.926304 40,000 282 417 0
2020-07-13 16:40:41 GMT 52.473591 9.944667 40,000 282 417 0
2020-07-13 16:40:38 GMT 52.472195 9.955497 40,000 282 417 0
2020-07-13 16:40:35 GMT 52.472195 9.955497 40,000 282 417 0
2020-07-13 16:40:32 GMT 52.471027 9.964914 40,000 282 417 0
2020-07-13 16:40:29 GMT 52.469913 9.973310 40,000 282 417 64
2020-07-13 16:40:26 GMT 52.468460 9.984741 40,000 282 417 64
2020-07-13 16:40:23 GMT 52.466446 10.000916 40,000 282 417 0
2020-07-13 16:40:20 GMT 52.466446 10.000916 40,000 282 417 0
2020-07-13 16:40:17 GMT 52.464935 10.012817 40,000 282 417 0
2020-07-13 16:40:13 GMT 52.463718 10.022356 40,000 282 417 0
2020-07-13 16:40:10 GMT 52.462509 10.031891 40,000 282 417 0
2020-07-13 16:40:07 GMT 52.461021 10.043466 40,000 282 417 0
2020-07-13 16:40:04 GMT 52.460220 10.049973 40,000 282 417 0
2020-07-13 16:40:01 GMT 52.458832 10.060652 40,000 282 417 0
2020-07-13 16:39:58 GMT 52.457809 10.068891 40,000 282 417 64
2020-07-13 16:39:55 GMT 52.456558 10.078812 40,000 282 417 0
2020-07-13 16:39:52 GMT 52.455185 10.089417 40,000 282 417 0
2020-07-13 16:39:49 GMT 52.454224 10.097220 40,000 282 417 0
2020-07-13 16:39:46 GMT 52.452969 10.107108 40,000 282 417 0
2020-07-13 16:39:42 GMT 52.451569 10.118103 40,000 282 418 64
2020-07-13 16:39:39 GMT 52.450150 10.129318 40,000 282 418 -64
2020-07-13 16:39:36 GMT 52.449150 10.137320 40,000 282 418 -64
2020-07-13 16:39:33 GMT 52.447845 10.147836 40,000 282 417 0
2020-07-13 16:39:30 GMT 52.446533 10.158310 40,000 282 417 0
2020-07-13 16:39:27 GMT 52.445610 10.165806 40,000 282 417 0
2020-07-13 16:39:24 GMT 52.444199 10.176849 40,000 282 417 64
2020-07-13 16:39:21 GMT 52.442959 10.186680 40,000 282 418 64
2020-07-13 16:39:18 GMT 52.442165 10.193037 40,000 282 418 64
2020-07-13 16:39:15 GMT 52.439758 10.211945 40,000 282 418 -64
2020-07-13 16:39:12 GMT 52.439758 10.211945 40,000 282 417 0
2020-07-13 16:39:09 GMT 52.438766 10.219639 40,000 282 418 0
2020-07-13 16:39:06 GMT 52.437420 10.229998 40,000 282 418 0
2020-07-13 16:39:03 GMT 52.434906 10.249863 40,000 282 418 0
2020-07-13 16:39:00 GMT 52.434906 10.249863 40,000 282 418 0
2020-07-13 16:38:57 GMT 52.433834 10.258170 40,000 282 417 -64
2020-07-13 16:38:54 GMT 52.432617 10.267410 40,000 282 417 -64
2020-07-13 16:38:51 GMT 52.431335 10.277710 40,000 282 417 0
2020-07-13 16:38:48 GMT 52.430374 10.285110 40,000 282 417 0
2020-07-13 16:38:45 GMT 52.429131 10.294739 40,000 283 417 0
2020-07-13 16:38:42 GMT 52.427811 10.305252 40,000 282 417 0
2020-07-13 16:38:39 GMT 52.426804 10.312881 40,000 282 417 0
2020-07-13 16:38:36 GMT 52.424244 10.333034 40,000 282 417 0
2020-07-13 16:38:33 GMT 52.424244 10.333034 40,000 282 417 0
2020-07-13 16:38:30 GMT 52.423187 10.341187 40,000 283 418 0
2020-07-13 16:38:27 GMT 52.422043 10.350113 40,000 283 418 0
2020-07-13 16:38:24 GMT 52.420578 10.361328 40,000 283 417 0
2020-07-13 16:38:21 GMT 52.419682 10.368112 40,000 283 418 0
2020-07-13 16:38:18 GMT 52.418427 10.377607 40,000 283 418 0
2020-07-13 16:38:15 GMT 52.417213 10.386945 40,000 283 418 0
2020-07-13 16:38:12 GMT 52.415585 10.399344 40,000 283 418 0
2020-07-13 16:38:06 GMT 52.413303 10.416922 40,000 283 417 -64
2020-07-13 16:38:03 GMT 52.412418 10.423593 40,000 283 417 -64
2020-07-13 16:38:00 GMT 52.410828 10.435715 40,000 283 417 0
2020-07-13 16:37:57 GMT 52.409950 10.442269 40,000 283 417 -64
2020-07-13 16:37:54 GMT 52.408791 10.451059 40,000 283 417 0
2020-07-13 16:37:51 GMT 52.407120 10.463638 40,000 283 417 0
2020-07-13 16:37:48 GMT 52.406227 10.470049 40,000 283 417 0
2020-07-13 16:37:45 GMT 52.404598 10.482370 40,000 283 417 -64
2020-07-13 16:37:42 GMT 52.403366 10.491638 40,000 283 417 -64
2020-07-13 16:37:39 GMT 52.402176 10.500717 40,000 283 417 0
2020-07-13 16:37:36 GMT 52.401386 10.506696 40,000 283 417 0
2020-07-13 16:37:33 GMT 52.399796 10.518417 40,000 283 417 0
2020-07-13 16:37:30 GMT 52.398880 10.525589 40,000 283 417 0
2020-07-13 16:37:27 GMT 52.397339 10.537223 40,000 283 417 0
2020-07-13 16:37:24 GMT 52.396729 10.541687 40,000 283 417 0
2020-07-13 16:37:21 GMT 52.395035 10.554352 40,000 283 417 0
2020-07-13 16:37:18 GMT 52.392590 10.573085 40,000 283 417 0
2020-07-13 16:37:15 GMT 52.392590 10.573085 40,000 283 417 0
2020-07-13 16:37:12 GMT 52.391418 10.581818 40,000 283 416 0
2020-07-13 16:37:09 GMT 52.390228 10.591049 40,000 283 416 0
2020-07-13 16:37:06 GMT 52.389175 10.598984 40,000 283 416 0
2020-07-13 16:37:03 GMT 52.388077 10.606995 40,000 283 416 0
2020-07-13 16:37:00 GMT 52.386398 10.619699 40,000 283 416 0
2020-07-13 16:36:57 GMT 52.385559 10.625992 40,000 283 416 0
2020-07-13 16:36:54 GMT 52.383911 10.638580 40,000 283 416 0
2020-07-13 16:36:51 GMT 52.381741 10.654619 40,000 283 416 0
2020-07-13 16:36:48 GMT 52.381741 10.654619 40,000 283 416 0
2020-07-13 16:36:45 GMT 52.380112 10.667018 40,000 283 416 0
2020-07-13 16:36:42 GMT 52.379227 10.673453 40,000 283 416 0
2020-07-13 16:36:39 GMT 52.377823 10.683975 40,000 283 416 0
2020-07-13 16:36:36 GMT 52.376480 10.694327 40,000 283 416 0
2020-07-13 16:36:33 GMT 52.375595 10.700997 40,000 283 416 0
2020-07-13 16:36:30 GMT 52.374153 10.711748 40,000 283 416 0
2020-07-13 16:36:27 GMT 52.373177 10.719046 40,000 283 416 -64
2020-07-13 16:36:24 GMT 52.372147 10.726776 40,000 283 416 0
2020-07-13 16:36:21 GMT 52.370728 10.737228 40,000 283 416 0
2020-07-13 16:36:18 GMT 52.369499 10.746591 40,000 283 416 0
2020-07-13 16:36:15 GMT 52.368301 10.755692 40,000 283 416 64
2020-07-13 16:36:12 GMT 52.367031 10.765111 40,000 283 416 64
2020-07-13 16:36:09 GMT 52.364517 10.783473 40,000 284 416 0
2020-07-13 16:36:03 GMT 52.363121 10.792498 40,000 286 415 -64
2020-07-13 16:36:00 GMT 52.361305 10.803170 40,000 289 416 0
2020-07-13 16:35:57 GMT 52.359741 10.811920 40,000 289 415 0
2020-07-13 16:35:54 GMT 52.358322 10.819092 40,000 289 416 0
2020-07-13 16:35:51 GMT 52.354385 10.837860 40,000 289 416 0
2020-07-13 16:35:48 GMT 52.352089 10.848842 40,000 290 415 -64
2020-07-13 16:35:45 GMT 52.352089 10.848842 40,000 290 415 0
2020-07-13 16:35:39 GMT 52.348598 10.865243 40,000 290 415 0
2020-07-13 16:35:36 GMT 52.347153 10.872149 40,000 290 416 64
2020-07-13 16:35:33 GMT 52.345139 10.881729 40,000 290 415 0
2020-07-13 16:35:30 GMT 52.342499 10.894043 40,000 290 415 64
2020-07-13 16:35:27 GMT 52.340820 10.901890 40,000 290 416 -64
2020-07-13 16:35:24 GMT 52.339142 10.909882 40,000 290 416 0
2020-07-13 16:35:21 GMT 52.337193 10.919155 40,000 290 416 0
2020-07-13 16:35:18 GMT 52.335327 10.927708 40,000 290 416 -64
2020-07-13 16:35:15 GMT 52.333515 10.936262 40,000 290 416 0
2020-07-13 16:35:12 GMT 52.331837 10.944266 40,000 290 416 0
2020-07-13 16:35:09 GMT 52.329651 10.954468 40,000 290 416 0
2020-07-13 16:35:03 GMT 52.323898 10.981674 40,000 290 416 0
2020-07-13 16:35:00 GMT 52.323898 10.981674 40,000 290 416 0
2020-07-13 16:34:57 GMT 52.322021 10.990448 40,000 290 417 0
2020-07-13 16:34:54 GMT 52.320648 10.996933 40,000 290 417 0
2020-07-13 16:34:51 GMT 52.318771 11.005707 40,000 290 416 0
2020-07-13 16:34:48 GMT 52.316895 11.014579 40,000 290 416 0
2020-07-13 16:34:45 GMT 52.314800 11.024466 40,000 290 416 0
2020-07-13 16:34:42 GMT 52.313263 11.031607 40,000 290 416 0
2020-07-13 16:34:39 GMT 52.310658 11.043771 40,000 290 416 0
2020-07-13 16:34:36 GMT 52.309341 11.050110 40,000 290 416 0
2020-07-13 16:34:33 GMT 52.307446 11.058916 40,000 290 416 0
2020-07-13 16:34:30 GMT 52.304581 11.072235 40,000 290 416 -64
2020-07-13 16:34:27 GMT 52.303665 11.076660 40,000 290 416 -64
2020-07-13 16:34:24 GMT 52.301102 11.088486 40,000 290 416 -64
2020-07-13 16:34:21 GMT 52.297348 11.106262 40,000 290 416 0
2020-07-13 16:34:18 GMT 52.297348 11.106262 40,000 290 416 0
2020-07-13 16:34:15 GMT 52.295197 11.116257 40,000 290 417 64
2020-07-13 16:34:12 GMT 52.293991 11.121931 40,000 290 417 64
2020-07-13 16:34:09 GMT 52.291946 11.131439 40,000 290 417 64
2020-07-13 16:34:06 GMT 52.290115 11.140213 40,000 290 416 0
2020-07-13 16:34:03 GMT 52.288406 11.148063 40,000 290 416 0
2020-07-13 16:34:00 GMT 52.284256 11.167755 40,000 290 416 0
2020-07-13 16:33:57 GMT 52.284256 11.167755 40,000 290 416 0
2020-07-13 16:33:54 GMT 52.282196 11.177292 40,000 290 416 0
2020-07-13 16:33:48 GMT 52.278721 11.193734 40,000 290 416 0
2020-07-13 16:33:45 GMT 52.276768 11.202994 40,000 290 417 0
2020-07-13 16:33:42 GMT 52.275192 11.210327 40,000 290 417 0
2020-07-13 16:33:39 GMT 52.272530 11.223005 40,000 290 417 64
2020-07-13 16:33:36 GMT 52.271027 11.229935 40,000 290 417 0
2020-07-13 16:33:33 GMT 52.269596 11.236503 40,000 290 416 0
2020-07-13 16:33:30 GMT 52.267548 11.246185 40,000 290 416 0
2020-07-13 16:33:26 GMT 52.264896 11.258632 40,000 290 416 0
2020-07-13 16:33:23 GMT 52.263126 11.266715 40,000 290 416 0
2020-07-13 16:33:20 GMT 52.261078 11.276289 40,000 290 416 0
2020-07-13 16:33:17 GMT 52.258713 11.287384 40,000 290 416 0
2020-07-13 16:33:14 GMT 52.257446 11.293239 40,000 290 416 0
2020-07-13 16:33:11 GMT 52.255447 11.302499 40,000 290 416 -64
2020-07-13 16:33:08 GMT 52.253536 11.311523 40,000 290 416 0
2020-07-13 16:33:05 GMT 52.251488 11.321019 40,000 290 416 -64
2020-07-13 16:33:02 GMT 52.249348 11.330985 40,000 290 416 0
2020-07-13 16:32:58 GMT 52.246788 11.342756 40,000 290 416 0
2020-07-13 16:32:55 GMT 52.245438 11.349030 40,000 290 415 0
2020-07-13 16:32:52 GMT 52.243343 11.358922 40,000 290 415 0
2020-07-13 16:32:49 GMT 52.240875 11.370300 40,000 290 415 0
2020-07-13 16:32:46 GMT 52.237850 11.384269 40,000 290 415 0
2020-07-13 16:32:40 GMT 52.233719 11.403275 40,000 290 415 0
2020-07-13 16:32:37 GMT 52.233719 11.403275 40,000 290 415 0
2020-07-13 16:32:34 GMT 52.231983 11.411185 40,000 290 416 0
2020-07-13 16:32:31 GMT 52.229919 11.420670 40,000 290 416 0
2020-07-13 16:32:28 GMT 52.227264 11.432724 40,000 290 415 0
2020-07-13 16:32:25 GMT 52.226028 11.438293 40,000 290 415 0
2020-07-13 16:32:22 GMT 52.222137 11.455994 40,000 290 415 0
2020-07-13 16:32:19 GMT 52.220215 11.464767 40,000 290 415 0
2020-07-13 16:32:13 GMT 52.218246 11.473618 40,000 290 415 0
2020-07-13 16:32:10 GMT 52.213852 11.493683 40,000 290 415 64
2020-07-13 16:32:07 GMT 52.213852 11.493683 40,000 290 415 0
2020-07-13 16:32:04 GMT 52.212570 11.499390 40,000 290 414 0
2020-07-13 16:32:01 GMT 52.210896 11.507002 40,000 290 415 0
2020-07-13 16:31:58 GMT 52.208221 11.519241 40,000 290 415 0
2020-07-13 16:31:55 GMT 52.206299 11.528015 40,000 290 415 0
2020-07-13 16:31:52 GMT 52.204742 11.535034 40,000 290 415 0
2020-07-13 16:31:49 GMT 52.202888 11.543413 40,000 290 414 0
2020-07-13 16:31:46 GMT 52.200531 11.554260 40,000 290 414 0
2020-07-13 16:31:43 GMT 52.198746 11.562404 40,000 290 415 0
2020-07-13 16:31:40 GMT 52.196651 11.571978 40,000 290 414 0
2020-07-13 16:31:37 GMT 52.194901 11.579895 40,000 290 415 0
2020-07-13 16:31:34 GMT 52.192741 11.589713 40,000 290 415 0
2020-07-13 16:31:31 GMT 52.191193 11.596909 40,000 290 415 0
2020-07-13 16:31:28 GMT 52.188782 11.607919 40,000 290 414 64
2020-07-13 16:31:25 GMT 52.187439 11.614075 40,000 290 414 0
2020-07-13 16:31:22 GMT 52.185432 11.623143 40,000 290 414 0
2020-07-13 16:31:19 GMT 52.183475 11.632010 40,000 290 414 0
2020-07-13 16:31:16 GMT 52.179241 11.651550 40,000 290 414 0
2020-07-13 16:31:13 GMT 52.179241 11.651550 40,000 290 414 0
2020-07-13 16:31:10 GMT 52.177551 11.659241 40,000 290 414 0
2020-07-13 16:31:07 GMT 52.175564 11.668265 40,000 290 414 0
2020-07-13 16:31:04 GMT 52.173248 11.679077 40,000 290 414 0
2020-07-13 16:31:01 GMT 52.171555 11.686783 40,000 290 414 0
2020-07-13 16:30:58 GMT 52.170254 11.692671 40,000 290 414 0
2020-07-13 16:30:55 GMT 52.167740 11.704049 40,000 290 415 0
2020-07-13 16:30:52 GMT 52.165737 11.713388 40,000 290 415 0
2020-07-13 16:30:49 GMT 52.163818 11.722031 40,000 290 415 0
2020-07-13 16:30:46 GMT 52.161877 11.730809 40,000 290 415 0
2020-07-13 16:30:43 GMT 52.159641 11.740932 40,000 290 415 0
2020-07-13 16:30:40 GMT 52.158943 11.744228 40,000 290 415 0
2020-07-13 16:30:37 GMT 52.156586 11.754837 40,000 290 415 0
2020-07-13 16:30:34 GMT 52.152100 11.775131 40,000 290 415 0
2020-07-13 16:30:31 GMT 52.152100 11.775131 40,000 290 414 0
2020-07-13 16:30:28 GMT 52.150269 11.783524 40,000 290 414 0
2020-07-13 16:30:24 GMT 52.148209 11.792831 40,000 290 414 -64
2020-07-13 16:30:21 GMT 52.145599 11.804657 40,000 290 414 -64
2020-07-13 16:30:18 GMT 52.144093 11.811480 40,000 290 414 0
2020-07-13 16:30:15 GMT 52.139950 11.830235 40,000 290 414 0
2020-07-13 16:30:12 GMT 52.139950 11.830235 40,000 290 414 64
2020-07-13 16:30:09 GMT 52.138596 11.836395 40,000 290 414 0
2020-07-13 16:30:06 GMT 52.136597 11.845381 40,000 290 414 0
2020-07-13 16:30:03 GMT 52.134502 11.854876 40,000 290 414 0
2020-07-13 16:30:00 GMT 52.132595 11.863508 40,000 290 414 0
2020-07-13 16:29:57 GMT 52.130592 11.872532 40,000 290 414 0
2020-07-13 16:29:54 GMT 52.126308 11.891759 40,000 290 414 0
2020-07-13 16:29:51 GMT 52.124680 11.899057 40,000 290 414 0
2020-07-13 16:29:48 GMT 52.122494 11.909023 40,000 290 414 0
2020-07-13 16:29:45 GMT 52.122494 11.909023 40,000 290 414 0
2020-07-13 16:29:42 GMT 52.120213 11.919067 40,000 290 414 0
2020-07-13 16:29:39 GMT 52.119003 11.924667 40,000 291 415 -64
2020-07-13 16:29:36 GMT 52.117035 11.933365 40,000 290 414 -64
2020-07-13 16:29:33 GMT 52.114952 11.942688 40,000 291 415 -64
2020-07-13 16:29:30 GMT 52.112640 11.953125 40,000 291 415 64
2020-07-13 16:29:27 GMT 52.110626 11.961975 40,000 291 415 64
2020-07-13 16:29:24 GMT 52.109344 11.967773 40,000 291 415 64
2020-07-13 16:29:21 GMT 52.107037 11.978158 40,000 290 414 64
2020-07-13 16:29:18 GMT 52.104897 11.987732 40,000 290 414 0
2020-07-13 16:29:15 GMT 52.103210 11.995239 40,000 290 414 0
2020-07-13 16:29:12 GMT 52.100922 12.005539 40,000 290 414 0
2020-07-13 16:29:09 GMT 52.099075 12.013707 40,000 290 414 0
2020-07-13 16:29:06 GMT 52.097122 12.022574 40,000 290 414 0
2020-07-13 16:29:03 GMT 52.095062 12.031784 40,000 290 414 0
2020-07-13 16:29:00 GMT 52.093536 12.038504 40,000 290 414 0
2020-07-13 16:28:57 GMT 52.091209 12.048863 40,000 290 414 0
2020-07-13 16:28:54 GMT 52.089294 12.057648 40,000 290 414 0
2020-07-13 16:28:51 GMT 52.087646 12.064896 40,000 290 414 0
2020-07-13 16:28:48 GMT 52.085770 12.073288 40,000 290 414 0
2020-07-13 16:28:45 GMT 52.083294 12.084490 40,000 290 415 0
2020-07-13 16:28:41 GMT 52.081062 12.094535 40,000 290 415 0
2020-07-13 16:28:38 GMT 52.078949 12.103958 40,000 290 415 0
2020-07-13 16:28:35 GMT 52.076920 12.113133 40,000 290 415 0
2020-07-13 16:28:32 GMT 52.074921 12.122116 40,000 290 415 0
2020-07-13 16:28:29 GMT 52.073006 12.130633 40,000 290 415 0
2020-07-13 16:28:26 GMT 52.071194 12.138872 40,000 290 415 0
2020-07-13 16:28:23 GMT 52.068863 12.149231 40,000 291 415 0
2020-07-13 16:28:20 GMT 52.065170 12.165756 40,000 290 415 0
2020-07-13 16:28:17 GMT 52.065170 12.165756 40,000 290 415 0
2020-07-13 16:28:14 GMT 52.061882 12.180542 40,000 291 415 0
2020-07-13 16:28:11 GMT 52.061188 12.183685 40,000 291 415 0
2020-07-13 16:28:05 GMT 52.055649 12.208176 40,000 291 415 0
2020-07-13 16:28:02 GMT 52.055649 12.208176 40,000 291 415 0
2020-07-13 16:27:59 GMT 52.053452 12.218094 40,000 291 415 0
2020-07-13 16:27:56 GMT 52.051315 12.227469 40,000 291 415 64
2020-07-13 16:27:53 GMT 52.049686 12.234689 40,000 291 415 64
2020-07-13 16:27:50 GMT 52.045258 12.254257 40,000 291 415 0
2020-07-13 16:27:47 GMT 52.045258 12.254257 40,000 291 415 0
2020-07-13 16:27:44 GMT 52.043308 12.262939 40,000 291 415 0
2020-07-13 16:27:41 GMT 52.041275 12.271805 40,000 291 415 0
2020-07-13 16:27:38 GMT 52.039631 12.279027 40,000 291 415 -64
2020-07-13 16:27:35 GMT 52.037521 12.288437 40,000 291 415 -64
2020-07-13 16:27:32 GMT 52.033810 12.304766 40,000 291 415 0
2020-07-13 16:27:26 GMT 52.031948 12.312692 40,000 291 415 0
2020-07-13 16:27:23 GMT 52.027542 12.332153 40,000 291 415 0
2020-07-13 16:27:20 GMT 52.027542 12.332153 40,000 291 415 0
2020-07-13 16:27:17 GMT 52.025940 12.339172 40,000 291 415 0
2020-07-13 16:27:14 GMT 52.023788 12.348557 40,000 291 415 64
2020-07-13 16:27:11 GMT 52.021473 12.358756 40,000 291 415 0
2020-07-13 16:27:08 GMT 52.018570 12.371445 40,000 291 415 0
2020-07-13 16:27:05 GMT 52.015469 12.385045 40,000 291 415 0
2020-07-13 16:27:02 GMT 52.015469 12.385045 40,000 291 415 64
2020-07-13 16:26:59 GMT 52.013466 12.393834 40,000 291 415 0
2020-07-13 16:26:56 GMT 52.011703 12.401505 40,000 291 415 -64
2020-07-13 16:26:53 GMT 52.009510 12.411333 40,000 291 415 0
2020-07-13 16:26:50 GMT 52.008041 12.417603 40,000 291 415 -64
2020-07-13 16:26:47 GMT 52.005413 12.429225 40,000 291 415 0
2020-07-13 16:26:44 GMT 52.003830 12.436210 40,000 291 415 0
2020-07-13 16:26:41 GMT 52.002296 12.442801 40,000 291 415 0
2020-07-13 16:26:38 GMT 51.997780 12.462655 40,000 291 415 64
2020-07-13 16:26:35 GMT 51.997780 12.462655 40,000 291 415 0
2020-07-13 16:26:32 GMT 51.996056 12.470346 40,000 291 416 0
2020-07-13 16:26:29 GMT 51.993404 12.482038 40,000 291 416 0
2020-07-13 16:26:25 GMT 51.991013 12.492447 40,000 291 416 0
2020-07-13 16:26:22 GMT 51.989632 12.498518 40,000 291 416 0
2020-07-13 16:26:19 GMT 51.987030 12.509918 40,000 291 416 0
2020-07-13 16:26:16 GMT 51.985302 12.517587 40,000 291 416 0
2020-07-13 16:26:13 GMT 51.982838 12.528259 40,000 291 416 0
2020-07-13 16:26:10 GMT 51.980759 12.537537 40,000 291 416 0
2020-07-13 16:26:07 GMT 51.977249 12.552900 40,000 291 417 0
2020-07-13 16:26:04 GMT 51.975342 12.561297 40,000 291 417 64
2020-07-13 16:25:57 GMT 51.972549 12.573382 40,000 291 417 0
2020-07-13 16:25:54 GMT 51.970081 12.584133 40,000 291 417 0
2020-07-13 16:25:51 GMT 51.968491 12.591019 40,000 291 417 0
2020-07-13 16:25:48 GMT 51.966774 12.598572 40,000 291 417 0
2020-07-13 16:25:45 GMT 51.963890 12.611049 40,000 291 418 0
2020-07-13 16:25:42 GMT 51.960724 12.624939 40,000 291 418 0
2020-07-13 16:25:39 GMT 51.960724 12.624939 40,000 291 418 0
2020-07-13 16:25:36 GMT 51.955650 12.646912 40,000 291 418 0
2020-07-13 16:25:30 GMT 51.952576 12.660331 40,000 291 418 0
2020-07-13 16:25:24 GMT 51.947922 12.680498 40,000 291 418 0
2020-07-13 16:25:21 GMT 51.947922 12.680498 40,000 291 418 0
2020-07-13 16:25:18 GMT 51.946060 12.688581 40,000 291 418 0
2020-07-13 16:25:15 GMT 51.944366 12.695923 40,000 291 418 0
2020-07-13 16:25:12 GMT 51.942707 12.703177 40,000 291 418 0
2020-07-13 16:25:09 GMT 51.940006 12.714870 40,000 291 418 0
2020-07-13 16:25:06 GMT 51.937866 12.724152 40,000 291 418 0
2020-07-13 16:25:03 GMT 51.935818 12.732919 40,000 291 418 0
2020-07-13 16:25:00 GMT 51.933884 12.741394 40,000 291 418 0
2020-07-13 16:24:57 GMT 51.932098 12.749100 40,000 291 419 0
2020-07-13 16:24:54 GMT 51.930000 12.758109 40,000 291 419 0
2020-07-13 16:24:51 GMT 51.927979 12.766800 40,000 291 419 0
2020-07-13 16:24:48 GMT 51.925949 12.775609 40,000 291 419 0
2020-07-13 16:24:45 GMT 51.923157 12.787772 40,000 291 419 0
2020-07-13 16:24:42 GMT 51.921066 12.796707 40,000 291 419 0
2020-07-13 16:24:39 GMT 51.920013 12.801285 40,000 291 419 0
2020-07-13 16:24:36 GMT 51.918034 12.809823 40,000 291 419 0
2020-07-13 16:24:33 GMT 51.916077 12.818451 40,000 291 419 0
2020-07-13 16:24:30 GMT 51.911316 12.839050 40,000 291 419 0
2020-07-13 16:24:27 GMT 51.911316 12.839050 40,000 291 419 0
2020-07-13 16:24:24 GMT 51.909027 12.848816 40,000 291 419 0
2020-07-13 16:24:21 GMT 51.907841 12.853847 40,000 291 419 0
2020-07-13 16:24:18 GMT 51.905273 12.865143 40,000 291 419 0
2020-07-13 16:24:15 GMT 51.901508 12.881313 40,000 291 419 0
2020-07-13 16:24:12 GMT 51.900146 12.887268 40,000 291 419 0
2020-07-13 16:24:09 GMT 51.897675 12.897873 40,000 291 419 0
2020-07-13 16:24:06 GMT 51.897675 12.897873 40,000 291 419 0
2020-07-13 16:24:03 GMT 51.895065 12.909164 40,000 291 419 0
2020-07-13 16:24:00 GMT 51.892990 12.918091 40,000 291 419 0
2020-07-13 16:23:57 GMT 51.891453 12.924728 40,000 291 419 0
2020-07-13 16:23:54 GMT 51.888893 12.935867 40,000 291 419 0
2020-07-13 16:23:51 GMT 51.887589 12.941437 40,000 291 419 -64
2020-07-13 16:23:48 GMT 51.884857 12.953104 40,000 291 419 0
2020-07-13 16:23:42 GMT 51.878513 12.980194 40,000 291 420 0
2020-07-13 16:23:39 GMT 51.878513 12.980194 40,000 291 420 0
2020-07-13 16:23:36 GMT 51.877117 12.986374 40,000 291 420 0
2020-07-13 16:23:33 GMT 51.874832 12.996010 40,000 291 420 0
2020-07-13 16:23:30 GMT 51.872692 13.005142 40,000 291 420 0
2020-07-13 16:23:27 GMT 51.870987 13.012489 40,000 291 420 0
2020-07-13 16:23:24 GMT 51.869061 13.020630 40,000 291 420 0
2020-07-13 16:23:21 GMT 51.866455 13.031715 40,000 291 420 0
2020-07-13 16:23:18 GMT 51.864441 13.040103 40,000 291 420 0
2020-07-13 16:23:15 GMT 51.863022 13.046265 40,000 291 420 0
2020-07-13 16:23:12 GMT 51.859985 13.059158 40,000 291 420 64
2020-07-13 16:23:09 GMT 51.857849 13.068163 40,000 291 420 0
2020-07-13 16:23:06 GMT 51.853775 13.085533 40,000 291 420 0
2020-07-13 16:23:03 GMT 51.853775 13.085533 40,000 291 420 0
2020-07-13 16:23:00 GMT 51.852448 13.091101 40,000 291 420 0
2020-07-13 16:22:57 GMT 51.850254 13.100433 40,000 291 420 0
2020-07-13 16:22:54 GMT 51.847881 13.110580 40,000 291 420 0
2020-07-13 16:22:51 GMT 51.845901 13.118938 40,000 291 420 0
2020-07-13 16:22:48 GMT 51.843830 13.127670 40,000 292 421 0
2020-07-13 16:22:45 GMT 51.842102 13.135046 40,000 292 421 0
2020-07-13 16:22:42 GMT 51.839642 13.145294 40,000 292 421 0
2020-07-13 16:22:39 GMT 51.838348 13.150783 40,000 292 421 0
2020-07-13 16:22:36 GMT 51.835449 13.162842 40,000 291 420 0
2020-07-13 16:22:33 GMT 51.833172 13.172531 40,000 291 420 0
2020-07-13 16:22:30 GMT 51.830750 13.182602 40,000 291 420 0
2020-07-13 16:22:26 GMT 51.826080 13.202523 40,000 291 420 0
2020-07-13 16:22:23 GMT 51.826080 13.202523 40,000 291 420 0
2020-07-13 16:22:20 GMT 51.824558 13.209000 40,000 291 420 0
2020-07-13 16:22:17 GMT 51.822189 13.219002 40,000 291 420 0
2020-07-13 16:22:14 GMT 51.819763 13.229218 40,000 291 419 0
2020-07-13 16:22:11 GMT 51.818043 13.236389 40,000 291 419 0
2020-07-13 16:22:08 GMT 51.816330 13.243722 40,000 291 419 0
2020-07-13 16:22:05 GMT 51.814224 13.252704 40,000 291 419 0
2020-07-13 16:22:02 GMT 51.812130 13.261490 40,000 291 419 0
2020-07-13 16:21:59 GMT 51.810219 13.269577 40,000 291 419 0
2020-07-13 16:21:56 GMT 51.808182 13.278239 40,000 291 419 0
2020-07-13 16:21:53 GMT 51.805424 13.289871 40,000 291 419 -64
2020-07-13 16:21:50 GMT 51.803787 13.296649 40,000 291 419 -64
2020-07-13 16:21:47 GMT 51.799118 13.316469 40,000 291 419 0
2020-07-13 16:21:44 GMT 51.797745 13.322372 40,000 291 419 0
2020-07-13 16:21:41 GMT 51.797745 13.322372 40,000 291 419 0
2020-07-13 16:21:38 GMT 51.793137 13.341675 40,000 291 419 64
2020-07-13 16:21:35 GMT 51.793137 13.341675 40,000 291 419 64
2020-07-13 16:21:32 GMT 51.790947 13.350830 40,000 291 419 64
2020-07-13 16:21:29 GMT 51.788712 13.360367 40,000 291 419 0
2020-07-13 16:21:26 GMT 51.785019 13.375854 40,000 292 420 0
2020-07-13 16:21:23 GMT 51.785019 13.375854 40,000 292 420 0
2020-07-13 16:21:20 GMT 51.782707 13.385620 40,000 292 420 0
2020-07-13 16:21:17 GMT 51.780613 13.394241 40,000 292 420 0
2020-07-13 16:21:14 GMT 51.778889 13.401489 40,000 292 419 0
2020-07-13 16:21:11 GMT 51.776505 13.411560 40,000 292 419 0
2020-07-13 16:21:08 GMT 51.774902 13.418092 40,000 292 419 0
2020-07-13 16:21:05 GMT 51.772141 13.429718 40,000 292 419 0
2020-07-13 16:21:02 GMT 51.770004 13.438580 40,000 292 419 -64
2020-07-13 16:20:59 GMT 51.768417 13.445206 40,000 292 419 0
2020-07-13 16:20:56 GMT 51.765701 13.456619 40,000 292 419 0
2020-07-13 16:20:53 GMT 51.764042 13.463440 40,000 292 419 0
2020-07-13 16:20:50 GMT 51.762451 13.470129 40,000 292 419 0
2020-07-13 16:20:47 GMT 51.757233 13.492027 40,000 292 419 0
2020-07-13 16:20:43 GMT 51.757233 13.492027 40,000 292 419 0
2020-07-13 16:20:40 GMT 51.754868 13.501892 40,000 292 419 0
2020-07-13 16:20:37 GMT 51.752773 13.510590 40,000 292 419 0
2020-07-13 16:20:34 GMT 51.750542 13.519821 40,000 292 419 -64
2020-07-13 16:20:31 GMT 51.748444 13.528595 40,000 292 419 -64
2020-07-13 16:20:28 GMT 51.746979 13.534562 40,000 292 419 0
2020-07-13 16:20:25 GMT 51.744781 13.543767 40,000 292 419 0
2020-07-13 16:20:22 GMT 51.742950 13.551339 40,000 292 419 0
2020-07-13 16:20:19 GMT 51.738762 13.568726 40,000 292 419 64
2020-07-13 16:20:16 GMT 51.738762 13.568726 40,000 292 419 64
2020-07-13 16:20:13 GMT 51.736435 13.578491 40,000 292 419 64
2020-07-13 16:20:10 GMT 51.733967 13.588638 40,000 292 418 0
2020-07-13 16:20:07 GMT 51.732193 13.596101 40,000 292 418 0
2020-07-13 16:20:04 GMT 51.730499 13.603153 40,000 292 418 0
2020-07-13 16:20:01 GMT 51.727497 13.615646 40,000 292 418 0
2020-07-13 16:19:58 GMT 51.725727 13.622971 40,000 292 418 0
2020-07-13 16:19:55 GMT 51.723026 13.634186 40,000 292 418 0
2020-07-13 16:19:52 GMT 51.721210 13.641663 40,000 292 418 0
2020-07-13 16:19:49 GMT 51.717674 13.656464 40,000 292 418 0
2020-07-13 16:19:46 GMT 51.717674 13.656464 40,000 292 418 0
2020-07-13 16:19:43 GMT 51.715393 13.665924 40,000 292 418 0
2020-07-13 16:19:40 GMT 51.712921 13.676197 40,000 292 418 0
2020-07-13 16:19:37 GMT 51.711159 13.683472 40,000 292 418 0
2020-07-13 16:19:34 GMT 51.708664 13.693864 40,000 292 418 0
2020-07-13 16:19:31 GMT 51.706558 13.702549 40,000 292 418 0
2020-07-13 16:19:28 GMT 51.704453 13.711383 40,000 292 418 0
2020-07-13 16:19:25 GMT 51.702637 13.718796 40,000 292 418 0
2020-07-13 16:19:22 GMT 51.700821 13.726273 40,000 292 418 0
2020-07-13 16:19:19 GMT 51.698868 13.734395 40,000 292 418 0
2020-07-13 16:19:16 GMT 51.696728 13.743286 40,000 292 418 0
2020-07-13 16:19:13 GMT 51.694702 13.751691 40,000 292 418 0
2020-07-13 16:19:10 GMT 51.692001 13.762900 40,000 292 418 0
2020-07-13 16:19:07 GMT 51.689835 13.771744 40,000 292 418 0
2020-07-13 16:19:04 GMT 51.688393 13.777847 40,000 292 418 0
2020-07-13 16:19:01 GMT 51.683784 13.796921 40,000 292 418 0
2020-07-13 16:18:55 GMT 51.680294 13.811264 40,000 292 417 0
2020-07-13 16:18:49 GMT 51.676754 13.825760 40,000 292 418 64
2020-07-13 16:18:46 GMT 51.675522 13.830748 40,000 292 418 64
2020-07-13 16:18:43 GMT 51.673370 13.839656 40,000 292 418 0
2020-07-13 16:18:40 GMT 51.671307 13.848114 40,000 292 418 0
2020-07-13 16:18:37 GMT 51.669121 13.857040 40,000 292 418 0
2020-07-13 16:18:34 GMT 51.666595 13.867344 40,000 292 418 0
2020-07-13 16:18:31 GMT 51.665222 13.873060 40,000 292 418 0
2020-07-13 16:18:28 GMT 51.660416 13.892806 40,000 292 418 -64
2020-07-13 16:18:25 GMT 51.660416 13.892806 40,000 292 418 -64
2020-07-13 16:18:22 GMT 51.657856 13.903198 40,000 292 418 -64
2020-07-13 16:18:19 GMT 51.656876 13.907318 40,000 292 418 0
2020-07-13 16:18:16 GMT 51.654129 13.918457 40,000 292 418 0
2020-07-13 16:18:13 GMT 51.651756 13.928299 40,000 292 418 0
2020-07-13 16:18:10 GMT 51.650116 13.934895 40,000 292 417 0
2020-07-13 16:18:07 GMT 51.648216 13.942642 40,000 292 418 0
2020-07-13 16:18:04 GMT 51.643524 13.961841 40,000 292 417 0
2020-07-13 16:18:01 GMT 51.643524 13.961841 40,000 292 418 0
2020-07-13 16:17:57 GMT 51.641144 13.971566 40,000 292 418 0
2020-07-13 16:17:54 GMT 51.639046 13.980026 40,000 292 418 0
2020-07-13 16:17:51 GMT 51.637047 13.988342 40,000 292 418 0
2020-07-13 16:17:48 GMT 51.634552 13.998512 40,000 292 418 0
2020-07-13 16:17:45 GMT 51.632217 14.008088 40,000 292 418 0
2020-07-13 16:17:42 GMT 51.630390 14.015427 40,000 292 417 0
2020-07-13 16:17:39 GMT 51.628296 14.024048 40,000 292 417 0
2020-07-13 16:17:36 GMT 51.623840 14.042235 40,000 292 417 0
2020-07-13 16:17:33 GMT 51.623840 14.042235 40,000 292 417 0
2020-07-13 16:17:30 GMT 51.622009 14.049835 40,000 292 417 0
2020-07-13 16:17:27 GMT 51.619720 14.059011 40,000 292 416 0
2020-07-13 16:17:24 GMT 51.618301 14.064950 40,000 292 416 0
2020-07-13 16:17:21 GMT 51.615646 14.075862 40,000 292 416 0
2020-07-13 16:17:18 GMT 51.613537 14.084473 40,000 292 417 0
2020-07-13 16:17:15 GMT 51.611023 14.094696 40,000 292 417 0
2020-07-13 16:17:12 GMT 51.606647 14.112473 40,000 292 417 0
2020-07-13 16:17:09 GMT 51.606647 14.112473 40,000 292 417 0
2020-07-13 16:17:06 GMT 51.604889 14.119659 40,000 292 417 0
2020-07-13 16:17:03 GMT 51.602509 14.129383 40,000 292 417 0
2020-07-13 16:17:00 GMT 51.600689 14.136887 40,000 292 417 0
2020-07-13 16:16:57 GMT 51.597885 14.148164 40,000 292 417 0
2020-07-13 16:16:54 GMT 51.596127 14.155426 40,000 292 417 0
2020-07-13 16:16:50 GMT 51.593613 14.165497 40,000 292 417 0
2020-07-13 16:16:47 GMT 51.591473 14.174194 40,000 292 417 0
2020-07-13 16:16:41 GMT 51.587585 14.190105 40,000 292 417 64
2020-07-13 16:16:38 GMT 51.583000 14.208679 40,000 292 417 0
2020-07-13 16:16:35 GMT 51.583000 14.208679 40,000 292 417 64
2020-07-13 16:16:32 GMT 51.580811 14.217453 40,000 292 417 0
2020-07-13 16:16:28 GMT 51.577553 14.230728 40,000 292 417 0
2020-07-13 16:16:25 GMT 51.573921 14.245529 40,000 292 417 0
2020-07-13 16:16:19 GMT 51.569412 14.263669 40,000 292 416 0
2020-07-13 16:16:16 GMT 51.569412 14.263669 40,000 292 416 0
2020-07-13 16:16:13 GMT 51.567589 14.271011 40,000 292 416 0
2020-07-13 16:16:10 GMT 51.565540 14.279327 40,000 292 416 0
2020-07-13 16:16:07 GMT 51.563400 14.287872 40,000 292 416 0
2020-07-13 16:16:04 GMT 51.560745 14.298706 40,000 292 416 0
2020-07-13 16:16:01 GMT 51.559025 14.305573 40,000 292 416 0
2020-07-13 16:15:58 GMT 51.556416 14.316025 40,000 292 416 0
2020-07-13 16:15:55 GMT 51.554993 14.321792 40,000 292 416 0
2020-07-13 16:15:52 GMT 51.552090 14.333344 40,000 292 416 -64
2020-07-13 16:15:49 GMT 51.547760 14.350594 40,000 292 415 -64
2020-07-13 16:15:46 GMT 51.547760 14.350594 40,000 292 415 -64
2020-07-13 16:15:43 GMT 51.545975 14.357795 40,000 292 415 0
2020-07-13 16:15:40 GMT 51.544220 14.364777 40,000 292 415 0
2020-07-13 16:15:37 GMT 51.541901 14.373977 40,000 292 416 64
2020-07-13 16:15:31 GMT 51.537144 14.393005 40,000 292 415 0
2020-07-13 16:15:28 GMT 51.534988 14.401666 40,000 292 415 0
2020-07-13 16:15:25 GMT 51.532974 14.409757 40,000 292 415 0
2020-07-13 16:15:22 GMT 51.530811 14.418335 40,000 292 415 -64
2020-07-13 16:15:19 GMT 51.529465 14.423828 40,000 292 415 -64
2020-07-13 16:15:16 GMT 51.526901 14.433975 40,000 292 415 0
2020-07-13 16:15:13 GMT 51.524670 14.443054 40,000 292 415 64
2020-07-13 16:15:10 GMT 51.522667 14.450989 40,000 292 415 0
2020-07-13 16:15:07 GMT 51.520615 14.459270 40,000 292 415 0
2020-07-13 16:15:04 GMT 51.518059 14.469376 40,000 292 416 0
2020-07-13 16:15:01 GMT 51.516174 14.477011 40,000 292 416 0
2020-07-13 16:14:58 GMT 51.513565 14.487478 40,000 292 416 0
2020-07-13 16:14:52 GMT 51.509766 14.502770 40,000 292 415 0
2020-07-13 16:14:49 GMT 51.507568 14.511603 40,000 292 415 0
2020-07-13 16:14:46 GMT 51.504978 14.521790 40,000 292 415 0
2020-07-13 16:14:43 GMT 51.500648 14.539108 40,000 292 415 0
2020-07-13 16:14:37 GMT 51.496582 14.555400 40,000 292 415 0
2020-07-13 16:14:34 GMT 51.496582 14.555400 40,000 292 416 0
2020-07-13 16:14:31 GMT 51.494659 14.563120 40,000 292 416 0
2020-07-13 16:14:28 GMT 51.492687 14.570923 40,000 293 416 -64
2020-07-13 16:14:25 GMT 51.490406 14.579926 40,000 293 416 0
2020-07-13 16:14:22 GMT 51.488297 14.588359 40,000 293 416 0
2020-07-13 16:14:19 GMT 51.485367 14.600014 40,000 293 416 0
2020-07-13 16:14:16 GMT 51.483704 14.606552 40,000 292 417 0
2020-07-13 16:14:13 GMT 51.481567 14.615008 40,000 292 417 0
2020-07-13 16:14:10 GMT 51.476990 14.633121 40,000 292 417 0
2020-07-13 16:14:07 GMT 51.476990 14.633121 40,000 293 417 64
2020-07-13 16:14:04 GMT 51.475204 14.640247 40,000 293 417 0
2020-07-13 16:14:01 GMT 51.473282 14.647745 40,000 293 417 0
2020-07-13 16:13:58 GMT 51.470993 14.656875 40,000 293 417 -64
2020-07-13 16:13:55 GMT 51.468479 14.666748 40,000 292 417 0
2020-07-13 16:13:52 GMT 51.466736 14.673577 40,000 292 417 0
2020-07-13 16:13:49 GMT 51.463623 14.686048 40,000 292 417 0
2020-07-13 16:13:46 GMT 51.461655 14.693917 40,000 292 417 0
2020-07-13 16:13:43 GMT 51.460194 14.699707 40,000 292 417 0
2020-07-13 16:13:40 GMT 51.458191 14.707718 40,000 292 417 0
2020-07-13 16:13:37 GMT 51.455956 14.716415 40,000 292 418 64
2020-07-13 16:13:34 GMT 51.453644 14.725762 40,000 292 418 64
2020-07-13 16:13:31 GMT 51.448380 14.746547 40,000 293 417 -64
2020-07-13 16:13:27 GMT 51.448380 14.746547 40,000 293 418 -64
2020-07-13 16:13:24 GMT 51.446228 14.754936 40,000 293 418 0
2020-07-13 16:13:21 GMT 51.443985 14.763769 40,000 293 418 0
2020-07-13 16:13:18 GMT 51.441650 14.772825 40,000 293 418 0
2020-07-13 16:13:15 GMT 51.439819 14.780100 40,000 293 417 0
2020-07-13 16:13:12 GMT 51.437668 14.788563 40,000 293 417 0
2020-07-13 16:13:09 GMT 51.435150 14.798508 40,000 293 418 0
2020-07-13 16:13:06 GMT 51.432953 14.807269 40,000 293 418 0
2020-07-13 16:13:03 GMT 51.430355 14.817505 40,000 292 418 0
2020-07-13 16:12:57 GMT 51.426769 14.831619 40,000 293 418 0
2020-07-13 16:12:54 GMT 51.424068 14.842300 40,000 293 418 0
2020-07-13 16:12:51 GMT 51.422207 14.849701 40,000 293 419 0
2020-07-13 16:12:47 GMT 51.419312 14.861013 40,000 293 418 0
2020-07-13 16:12:44 GMT 51.417645 14.867477 40,000 293 418 0
2020-07-13 16:12:41 GMT 51.414734 14.878680 40,000 293 418 0
2020-07-13 16:12:38 GMT 51.412849 14.885941 40,000 293 418 0
2020-07-13 16:12:35 GMT 51.410248 14.896125 40,000 293 418 0
2020-07-13 16:12:32 GMT 51.408417 14.903177 40,000 293 418 0
2020-07-13 16:12:29 GMT 51.406311 14.911417 40,000 293 419 0
2020-07-13 16:12:25 GMT 51.402748 14.925079 40,000 293 419 0
2020-07-13 16:12:21 GMT 51.400314 14.934577 40,000 293 419 0
2020-07-13 16:12:18 GMT 51.397659 14.944895 40,000 293 419 0
2020-07-13 16:12:15 GMT 51.395966 14.951576 40,000 293 419 0
2020-07-13 16:12:12 GMT 51.393482 14.961243 40,000 293 420 0
2020-07-13 16:12:09 GMT 51.391388 14.969392 40,000 293 420 0
2020-07-13 16:12:06 GMT 51.387451 14.984906 40,000 293 420 0
2020-07-13 16:12:00 GMT 51.384888 14.994927 40,000 293 420 0
2020-07-13 16:11:57 GMT 51.382824 15.002899 40,000 293 420 0
2020-07-13 16:11:54 GMT 51.380077 15.013657 40,000 293 420 64
2020-07-13 16:11:51 GMT 51.378353 15.020294 40,000 293 420 0
2020-07-13 16:11:48 GMT 51.376099 15.029148 40,000 293 420 0
2020-07-13 16:11:45 GMT 51.373718 15.038353 40,000 293 420 0
2020-07-13 16:11:42 GMT 51.371838 15.045776 40,000 293 420 0
2020-07-13 16:11:39 GMT 51.365936 15.068714 40,000 293 420 0
2020-07-13 16:11:35 GMT 51.365936 15.068714 40,000 293 420 0
2020-07-13 16:11:32 GMT 51.364105 15.075840 40,000 293 420 0
2020-07-13 16:11:29 GMT 51.361691 15.085373 40,000 293 420 0
2020-07-13 16:11:26 GMT 51.359665 15.093211 40,000 293 420 0
2020-07-13 16:11:23 GMT 51.355217 15.110397 40,000 293 421 0
2020-07-13 16:11:20 GMT 51.355217 15.110397 40,000 293 421 0
2020-07-13 16:11:16 GMT 51.352112 15.122458 40,000 293 421 0
2020-07-13 16:11:13 GMT 51.350330 15.129318 40,000 293 421 0
2020-07-13 16:11:10 GMT 51.348221 15.137676 40,000 293 420 0
2020-07-13 16:11:07 GMT 51.346481 15.144356 40,000 293 421 0
2020-07-13 16:11:04 GMT 51.341171 15.164993 40,000 293 421 0
2020-07-13 16:10:58 GMT 51.338554 15.175018 40,000 293 421 0
2020-07-13 16:10:55 GMT 51.337109 15.180664 40,000 293 421 0
2020-07-13 16:10:52 GMT 51.334259 15.191642 40,000 293 421 0
2020-07-13 16:10:49 GMT 51.332500 15.198441 40,000 293 422 0
2020-07-13 16:10:46 GMT 51.330185 15.207231 40,000 293 421 0
2020-07-13 16:10:43 GMT 51.326077 15.223160 40,000 293 421 0
2020-07-13 16:10:37 GMT 51.323006 15.234833 40,000 293 421 0
2020-07-13 16:10:34 GMT 51.321140 15.242157 40,000 293 421 0
2020-07-13 16:10:30 GMT 51.317978 15.254364 40,000 293 421 0
2020-07-13 16:10:27 GMT 51.315742 15.262909 40,000 293 421 -64
2020-07-13 16:10:23 GMT 51.312996 15.273666 40,000 293 421 0
2020-07-13 16:10:20 GMT 51.311005 15.281240 40,000 293 421 0
2020-07-13 16:10:17 GMT 51.308624 15.290445 40,000 293 421 0
2020-07-13 16:10:14 GMT 51.306152 15.300021 40,000 293 421 0
2020-07-13 16:10:11 GMT 51.304665 15.305786 40,000 293 421 0
2020-07-13 16:10:08 GMT 51.302170 15.315387 40,000 293 421 64
2020-07-13 16:10:05 GMT 51.299744 15.324814 40,000 293 421 0
2020-07-13 16:10:02 GMT 51.295490 15.341339 40,000 293 421 0
2020-07-13 16:09:56 GMT 51.293289 15.349682 40,000 293 421 0
2020-07-13 16:09:53 GMT 51.290726 15.359629 40,000 293 422 0
2020-07-13 16:09:50 GMT 51.288788 15.367126 40,000 293 422 0
2020-07-13 16:09:47 GMT 51.286137 15.377274 40,000 293 422 0
2020-07-13 16:09:44 GMT 51.283951 15.385610 40,000 293 422 0
2020-07-13 16:09:41 GMT 51.281898 15.393600 40,000 293 422 0
2020-07-13 16:09:38 GMT 51.279572 15.402451 40,000 293 422 0
2020-07-13 16:09:35 GMT 51.277012 15.412216 40,000 293 421 0
2020-07-13 16:09:32 GMT 51.274796 15.420796 40,000 293 421 0
2020-07-13 16:09:29 GMT 51.272369 15.430075 40,000 293 421 0
2020-07-13 16:09:26 GMT 51.270630 15.436756 40,000 293 421 0
2020-07-13 16:09:22 GMT 51.266956 15.450745 40,000 293 421 0
2020-07-13 16:09:19 GMT 51.262768 15.466843 40,000 293 421 0
2020-07-13 16:09:16 GMT 51.262768 15.466843 40,000 293 421 0
2020-07-13 16:09:13 GMT 51.258133 15.484487 40,000 293 421 0
2020-07-13 16:09:10 GMT 51.258133 15.484487 40,000 293 421 0
2020-07-13 16:09:06 GMT 51.255363 15.495071 40,000 293 421 0
2020-07-13 16:09:03 GMT 51.252777 15.505049 40,000 293 421 0
2020-07-13 16:09:00 GMT 51.250854 15.512473 40,000 293 421 0
2020-07-13 16:08:57 GMT 51.245865 15.531328 40,000 293 420 0
2020-07-13 16:08:54 GMT 51.245865 15.531328 40,000 293 420 0
2020-07-13 16:08:51 GMT 51.243851 15.538973 40,000 293 420 0
2020-07-13 16:08:48 GMT 51.241837 15.546694 40,000 293 420 64
2020-07-13 16:08:45 GMT 51.239136 15.556938 40,000 293 420 0
2020-07-13 16:08:42 GMT 51.237213 15.564138 40,000 293 420 0
2020-07-13 16:08:39 GMT 51.234604 15.574112 40,000 293 420 0
2020-07-13 16:08:35 GMT 51.230209 15.590639 40,000 293 419 0
2020-07-13 16:08:32 GMT 51.227898 15.599365 40,000 293 419 0
2020-07-13 16:08:29 GMT 51.227898 15.599365 40,000 293 419 0
2020-07-13 16:08:25 GMT 51.225174 15.609716 40,000 293 419 0
2020-07-13 16:08:22 GMT 51.222290 15.620703 40,000 293 419 0
2020-07-13 16:08:19 GMT 51.220078 15.628967 40,000 293 419 0
2020-07-13 16:08:16 GMT 51.215981 15.644455 40,000 293 419 0
2020-07-13 16:08:13 GMT 51.215981 15.644455 40,000 293 419 64
2020-07-13 16:08:10 GMT 51.211418 15.661850 40,000 293 419 0
2020-07-13 16:08:07 GMT 51.211418 15.661850 40,000 293 418 0
2020-07-13 16:08:04 GMT 51.208740 15.671923 40,000 293 419 0
2020-07-13 16:08:01 GMT 51.206577 15.680008 40,000 293 419 0
2020-07-13 16:07:58 GMT 51.203876 15.690231 40,000 293 419 0
2020-07-13 16:07:54 GMT 51.199036 15.708694 40,000 293 419 0
2020-07-13 16:07:51 GMT 51.199036 15.708694 40,000 293 419 0
2020-07-13 16:07:48 GMT 51.196522 15.718155 40,000 293 419 0
2020-07-13 16:07:45 GMT 51.194149 15.727234 40,000 293 419 0
2020-07-13 16:07:42 GMT 51.189835 15.743631 40,000 293 419 0
2020-07-13 16:07:39 GMT 51.189835 15.743631 40,000 293 419 0
2020-07-13 16:07:36 GMT 51.187637 15.751945 40,000 293 419 0
2020-07-13 16:07:33 GMT 51.185677 15.759201 40,000 293 419 0
2020-07-13 16:07:30 GMT 51.183861 15.766068 40,000 293 419 0
2020-07-13 16:07:27 GMT 51.181534 15.774918 40,000 293 419 0
2020-07-13 16:07:24 GMT 51.178646 15.785828 40,000 293 419 0
2020-07-13 16:07:21 GMT 51.176178 15.795212 40,000 293 419 0
2020-07-13 16:07:18 GMT 51.174595 15.801086 40,000 293 419 0
2020-07-13 16:07:15 GMT 51.172222 15.810013 40,000 294 418 0
2020-07-13 16:07:12 GMT 51.170315 15.817261 40,000 294 419 0
2020-07-13 16:07:09 GMT 51.167679 15.827068 40,000 294 418 0
2020-07-13 16:07:06 GMT 51.165470 15.835419 40,000 294 418 0
2020-07-13 16:07:03 GMT 51.163143 15.844116 40,000 294 418 0
2020-07-13 16:07:00 GMT 51.160862 15.852432 40,000 294 418 64
2020-07-13 16:06:57 GMT 51.158581 15.860977 40,000 294 418 64
2020-07-13 16:06:54 GMT 51.153763 15.879030 40,000 294 418 0
2020-07-13 16:06:51 GMT 51.153763 15.879030 40,000 294 418 0
2020-07-13 16:06:48 GMT 51.151016 15.889200 40,000 293 418 0
2020-07-13 16:06:45 GMT 51.149784 15.893936 40,000 293 418 0
2020-07-13 16:06:42 GMT 51.147362 15.903015 40,000 293 419 0
2020-07-13 16:06:39 GMT 51.145500 15.910034 40,000 293 419 0
2020-07-13 16:06:36 GMT 51.142319 15.921862 40,000 293 418 0
2020-07-13 16:06:33 GMT 51.140518 15.928650 40,000 293 418 0
2020-07-13 16:06:30 GMT 51.137772 15.938873 40,000 293 418 0
2020-07-13 16:06:25 GMT 51.134125 15.952668 40,000 293 418 -64
2020-07-13 16:06:22 GMT 51.131790 15.961502 40,000 293 418 -64
2020-07-13 16:06:19 GMT 51.130417 15.966549 40,000 293 418 0
2020-07-13 16:06:15 GMT 51.126598 15.980835 40,000 294 417 0
2020-07-13 16:06:12 GMT 51.122829 15.994949 40,000 294 417 0
2020-07-13 16:06:09 GMT 51.122829 15.994949 40,000 294 417 0
2020-07-13 16:06:06 GMT 51.119934 16.005817 40,000 294 417 0
2020-07-13 16:06:03 GMT 51.117691 16.014280 40,000 294 417 0
2020-07-13 16:06:00 GMT 51.115101 16.023865 40,000 294 417 64
2020-07-13 16:05:57 GMT 51.113892 16.028442 40,000 294 417 0
2020-07-13 16:05:54 GMT 51.111378 16.037827 40,000 294 417 0
2020-07-13 16:05:51 GMT 51.106339 16.056742 40,000 294 417 0
2020-07-13 16:05:47 GMT 51.103603 16.066895 40,000 294 417 0
2020-07-13 16:05:44 GMT 51.103603 16.066895 40,000 294 416 0
2020-07-13 16:05:41 GMT 51.101166 16.075893 40,000 294 416 0
2020-07-13 16:05:38 GMT 51.098576 16.085587 40,000 294 416 0
2020-07-13 16:05:35 GMT 51.094711 16.099871 40,000 294 416 64
2020-07-13 16:05:32 GMT 51.092377 16.108555 40,000 294 416 0
2020-07-13 16:05:29 GMT 51.089546 16.119156 40,000 294 416 0
2020-07-13 16:05:26 GMT 51.089546 16.119156 40,000 294 416 0
2020-07-13 16:05:22 GMT 51.086472 16.130447 40,000 294 416 0
2020-07-13 16:05:19 GMT 51.084961 16.136244 40,000 294 416 -64
2020-07-13 16:05:16 GMT 51.083122 16.143036 40,000 294 416 0
2020-07-13 16:05:13 GMT 51.077911 16.162373 40,000 294 416 0
2020-07-13 16:05:10 GMT 51.076370 16.168137 40,000 294 416 -64
2020-07-13 16:05:04 GMT 51.073334 16.179522 40,000 294 416 -64
2020-07-13 16:05:00 GMT 51.070267 16.190952 40,000 294 416 64
2020-07-13 16:04:57 GMT 51.068829 16.196442 40,000 294 416 0
2020-07-13 16:04:54 GMT 51.065826 16.207655 40,000 294 416 0
2020-07-13 16:04:51 GMT 51.061893 16.222382 40,000 294 416 64
2020-07-13 16:04:45 GMT 51.059471 16.231232 40,000 294 416 0
2020-07-13 16:04:42 GMT 51.057220 16.239649 40,000 294 416 0
2020-07-13 16:04:39 GMT 51.054565 16.249521 40,000 294 416 0
2020-07-13 16:04:36 GMT 51.051910 16.259468 40,000 294 417 0
2020-07-13 16:04:33 GMT 51.050308 16.265333 40,000 294 416 0
2020-07-13 16:04:30 GMT 51.047649 16.275177 40,000 294 417 0
2020-07-13 16:04:27 GMT 51.045822 16.281961 40,000 294 417 0
2020-07-13 16:04:24 GMT 51.043411 16.290817 40,000 294 417 0
2020-07-13 16:04:21 GMT 51.040993 16.299744 40,000 294 417 0
2020-07-13 16:04:18 GMT 51.038544 16.308760 40,000 294 417 0
2020-07-13 16:04:14 GMT 51.035172 16.321106 40,000 294 417 0
2020-07-13 16:04:11 GMT 51.033646 16.326723 40,000 294 417 0
2020-07-13 16:04:08 GMT 51.031075 16.336136 40,000 294 417 0
2020-07-13 16:04:05 GMT 51.026608 16.352539 40,000 294 417 0
2020-07-13 16:04:02 GMT 51.026608 16.352539 40,000 294 417 0
2020-07-13 16:03:59 GMT 51.024124 16.361687 40,000 294 417 0
2020-07-13 16:03:56 GMT 51.021626 16.370773 40,000 294 417 0
2020-07-13 16:03:52 GMT 51.018723 16.381506 40,000 294 417 0
2020-07-13 16:03:49 GMT 51.016022 16.391306 40,000 294 417 -64
2020-07-13 16:03:46 GMT 51.014420 16.397095 40,000 294 417 -64
2020-07-13 16:03:43 GMT 51.012501 16.404114 40,000 294 417 0
2020-07-13 16:03:40 GMT 51.009197 16.416397 40,000 294 417 0
2020-07-13 16:03:37 GMT 51.007381 16.422958 40,000 294 417 0
2020-07-13 16:03:34 GMT 51.005283 16.430588 40,000 294 417 0
2020-07-13 16:03:31 GMT 51.002930 16.439333 40,000 294 417 0
2020-07-13 16:03:28 GMT 51.000229 16.449205 40,000 294 417 0
2020-07-13 16:03:25 GMT 50.996021 16.464539 40,000 294 416 0
2020-07-13 16:03:22 GMT 50.993317 16.474369 40,000 294 417 0
2020-07-13 16:03:16 GMT 50.991440 16.481199 40,000 294 416 0
2020-07-13 16:03:13 GMT 50.987316 16.496048 40,000 294 416 0
2020-07-13 16:03:07 GMT 50.984524 16.506271 40,000 294 416 0
2020-07-13 16:03:04 GMT 50.981731 16.516342 40,000 294 416 0
2020-07-13 16:03:01 GMT 50.980194 16.521835 40,000 294 416 0
2020-07-13 16:02:58 GMT 50.977158 16.532791 40,000 294 416 0
2020-07-13 16:02:55 GMT 50.973255 16.547012 40,000 294 417 0
2020-07-13 16:02:49 GMT 50.970043 16.558685 40,000 294 418 0
2020-07-13 16:02:45 GMT 50.967300 16.568527 40,000 294 418 0
2020-07-13 16:02:42 GMT 50.965439 16.575165 40,000 294 417 -64
2020-07-13 16:02:39 GMT 50.963154 16.583481 40,000 294 418 0
2020-07-13 16:02:36 GMT 50.958313 16.600952 40,000 294 417 0
2020-07-13 16:02:33 GMT 50.956100 16.608953 40,000 294 417 0
2020-07-13 16:02:30 GMT 50.953518 16.618347 40,000 294 417 0
2020-07-13 16:02:27 GMT 50.953518 16.618347 40,000 294 417 0
2020-07-13 16:02:24 GMT 50.950726 16.628418 40,000 294 417 -64
2020-07-13 16:02:21 GMT 50.948730 16.635675 40,000 294 417 0
2020-07-13 16:02:17 GMT 50.945480 16.647406 40,000 294 417 0
2020-07-13 16:02:14 GMT 50.943462 16.654816 40,000 294 417 0
2020-07-13 16:02:11 GMT 50.938435 16.672897 40,000 294 417 0
2020-07-13 16:02:08 GMT 50.938435 16.672897 40,000 294 417 0
2020-07-13 16:02:02 GMT 50.933548 16.690598 40,000 294 417 0
2020-07-13 16:01:59 GMT 50.931595 16.697693 40,000 294 417 0
2020-07-13 16:01:56 GMT 50.929688 16.704712 40,000 294 417 0
2020-07-13 16:01:53 GMT 50.926529 16.716145 40,000 294 417 -64
2020-07-13 16:01:50 GMT 50.924744 16.722603 40,000 294 416 0
2020-07-13 16:01:46 GMT 50.921265 16.735222 40,000 294 416 0
2020-07-13 16:01:43 GMT 50.918793 16.744055 40,000 294 417 0
2020-07-13 16:01:40 GMT 50.916557 16.752243 40,000 294 417 64
2020-07-13 16:01:37 GMT 50.914307 16.760311 40,000 294 417 64
2020-07-13 16:01:31 GMT 50.910690 16.773300 40,000 294 417 0
2020-07-13 16:01:28 GMT 50.905655 16.791414 40,000 294 417 0
2020-07-13 16:01:21 GMT 50.902176 16.803961 40,000 294 417 0
2020-07-13 16:01:18 GMT 50.899429 16.813980 40,000 294 419 0
2020-07-13 16:01:15 GMT 50.897518 16.820755 40,000 294 418 0
2020-07-13 16:01:11 GMT 50.894585 16.831360 40,000 294 418 0
2020-07-13 16:01:08 GMT 50.890488 16.846237 40,000 294 418 0
2020-07-13 16:01:02 GMT 50.887276 16.857758 40,000 294 418 0
2020-07-13 16:00:59 GMT 50.884853 16.866379 40,000 294 418 0
2020-07-13 16:00:55 GMT 50.882355 16.875372 40,000 294 418 0
2020-07-13 16:00:52 GMT 50.878105 16.890640 40,000 294 418 0
2020-07-13 16:00:46 GMT 50.873497 16.907196 40,000 294 419 0
2020-07-13 16:00:40 GMT 50.870819 16.916866 40,000 294 418 0
2020-07-13 16:00:37 GMT 50.868164 16.926294 40,000 294 418 0
2020-07-13 16:00:34 GMT 50.865555 16.935797 40,000 294 418 0
2020-07-13 16:00:31 GMT 50.863720 16.942291 40,000 294 418 0
2020-07-13 16:00:28 GMT 50.860062 16.955467 40,000 294 419 0
2020-07-13 16:00:25 GMT 50.856537 16.968235 40,000 294 419 0
2020-07-13 16:00:22 GMT 50.856537 16.968235 40,000 294 419 0
2020-07-13 16:00:19 GMT 50.854595 16.975250 40,000 294 419 0
2020-07-13 16:00:16 GMT 50.851456 16.986570 40,000 294 419 0
2020-07-13 16:00:13 GMT 50.849987 16.992035 40,000 294 419 0
2020-07-13 16:00:10 GMT 50.847473 17.001045 40,000 294 419 0
2020-07-13 16:00:07 GMT 50.844864 17.010399 40,000 294 419 0
2020-07-13 16:00:04 GMT 50.842121 17.020264 40,000 294 419 0
2020-07-13 16:00:00 GMT 50.839512 17.029648 40,000 294 419 0
2020-07-13 15:59:57 GMT 50.834747 17.046551 40,000 294 419 0
2020-07-13 15:59:54 GMT 50.834747 17.046551 40,000 294 419 0
2020-07-13 15:59:50 GMT 50.831272 17.059021 40,000 294 419 0
2020-07-13 15:59:47 GMT 50.829037 17.066879 40,000 294 419 0
2020-07-13 15:59:44 GMT 50.823807 17.085670 40,000 294 419 0
2020-07-13 15:59:40 GMT 50.823807 17.085670 40,000 294 419 0
2020-07-13 15:59:37 GMT 50.821152 17.095098 40,000 294 419 0
2020-07-13 15:59:34 GMT 50.819275 17.101852 40,000 294 419 0
2020-07-13 15:59:31 GMT 50.817074 17.109833 40,000 294 420 0
2020-07-13 15:59:28 GMT 50.813828 17.121376 40,000 294 420 0
2020-07-13 15:59:25 GMT 50.811768 17.128830 40,000 294 420 0
2020-07-13 15:59:21 GMT 50.807007 17.146095 40,000 294 420 0
2020-07-13 15:59:18 GMT 50.803802 17.157528 40,000 294 420 0
2020-07-13 15:59:15 GMT 50.803802 17.157528 40,000 294 420 0
2020-07-13 15:59:12 GMT 50.801525 17.165756 40,000 294 421 0
2020-07-13 15:59:09 GMT 50.799244 17.173843 40,000 294 420 0
2020-07-13 15:59:06 GMT 50.797478 17.180176 40,000 294 420 0
2020-07-13 15:59:03 GMT 50.795055 17.188797 40,000 294 420 0
2020-07-13 15:59:00 GMT 50.792263 17.198868 40,000 294 421 0
2020-07-13 15:58:57 GMT 50.790539 17.204971 40,000 294 421 0
2020-07-13 15:58:54 GMT 50.787792 17.214737 40,000 294 421 0
2020-07-13 15:58:51 GMT 50.785034 17.224558 40,000 294 421 0
2020-07-13 15:58:48 GMT 50.782883 17.232204 40,000 294 421 0
2020-07-13 15:58:45 GMT 50.781322 17.237701 40,000 294 421 0
2020-07-13 15:58:42 GMT 50.775875 17.257156 40,000 294 421 0
2020-07-13 15:58:36 GMT 50.773315 17.266235 40,000 294 421 0
2020-07-13 15:58:33 GMT 50.771118 17.274145 40,000 295 421 0
2020-07-13 15:58:30 GMT 50.765961 17.291870 40,000 297 421 0
2020-07-13 15:58:26 GMT 50.765961 17.291870 40,000 298 421 -64
2020-07-13 15:58:23 GMT 50.761917 17.304506 40,000 299 421 -64
2020-07-13 15:58:20 GMT 50.759396 17.311859 40,000 301 420 -64
2020-07-13 15:58:17 GMT 50.756516 17.319798 40,000 302 420 0
2020-07-13 15:58:14 GMT 50.755463 17.322544 40,000 302 420 0
2020-07-13 15:58:11 GMT 50.748920 17.338791 40,000 304 420 -64
2020-07-13 15:58:05 GMT 50.741776 17.355801 39,975 304 418 768
2020-07-13 15:58:02 GMT 50.741776 17.355801 40,000 304 418 768
2020-07-13 15:57:59 GMT 50.737747 17.365301 40,000 304 420 -192
2020-07-13 15:57:53 GMT 50.731976 17.378998 40,025 304 419 64
2020-07-13 15:57:50 GMT 50.728592 17.386904 39,975 304 418 704
2020-07-13 15:57:47 GMT 50.725754 17.393511 39,975 304 418 768
2020-07-13 15:57:44 GMT 50.721924 17.402420 39,925 304 418 768
2020-07-13 15:57:41 GMT 50.719688 17.407608 39,875 304 418 768
2020-07-13 15:57:38 GMT 50.715778 17.416840 39,850 304 417 768
2020-07-13 15:57:35 GMT 50.712006 17.425613 39,800 304 417 832
2020-07-13 15:57:31 GMT 50.708679 17.433372 39,725 304 417 832
2020-07-13 15:57:27 GMT 50.700974 17.451477 39,675 304 416 768
2020-07-13 15:57:21 GMT 50.697876 17.458834 39,650 304 416 768
2020-07-13 15:57:17 GMT 50.693756 17.468559 39,600 304 415 704
2020-07-13 15:57:14 GMT 50.690231 17.477095 39,525 304 414 768
2020-07-13 15:57:11 GMT 50.687622 17.483332 39,525 304 414 704
2020-07-13 15:57:08 GMT 50.683868 17.492313 39,475 304 414 768
2020-07-13 15:57:05 GMT 50.679703 17.502260 39,425 304 414 768
2020-07-13 15:57:02 GMT 50.678024 17.506256 39,400 304 413 768
2020-07-13 15:56:59 GMT 50.671692 17.521338 39,350 304 412 832
2020-07-13 15:56:53 GMT 50.667114 17.532011 39,250 305 413 1088
2020-07-13 15:56:50 GMT 50.664989 17.536926 39,250 305 412 1152
2020-07-13 15:56:46 GMT 50.660660 17.546947 38,450 304 412 896
2020-07-13 15:56:42 GMT 50.653954 17.562313 38,975 305 413 1280
2020-07-13 15:56:36 GMT 50.649113 17.573523 38,875 305 414 1216
2020-07-13 15:56:33 GMT 50.646881 17.578703 38,800 304 414 1216
2020-07-13 15:56:30 GMT 50.643528 17.586439 38,750 304 414 1152
2020-07-13 15:56:27 GMT 50.639385 17.596163 38,725 304 414 1088
2020-07-13 15:56:23 GMT 50.636173 17.603661 38,650 304 415 960
2020-07-13 15:56:20 GMT 50.633099 17.610861 38,575 304 414 832
2020-07-13 15:56:17 GMT 50.629841 17.618656 38,575 304 413 768
2020-07-13 15:56:14 GMT 50.626492 17.626673 38,525 304 413 832
2020-07-13 15:56:11 GMT 50.622757 17.635513 35,825 303 409 768
2020-07-13 15:56:08 GMT 50.615936 17.651920 37,725 303 408 768
2020-07-13 15:56:05 GMT 50.613083 17.658741 38,350 304 411 832
2020-07-13 15:56:02 GMT 50.611450 17.662691 38,300 304 411 704
2020-07-13 15:55:56 GMT 50.603680 17.681381 38,225 303 409 768
2020-07-13 15:55:53 GMT 50.603680 17.681381 38,200 303 408 768
2020-07-13 15:55:50 GMT 50.601490 17.686651 38,175 303 409 704
2020-07-13 15:55:47 GMT 50.597858 17.695635 38,125 303 408 832
2020-07-13 15:55:44 GMT 50.594692 17.703577 38,100 303 406 960
2020-07-13 15:55:41 GMT 50.592041 17.710178 38,050 303 407 1024
2020-07-13 15:55:38 GMT 50.586639 17.723694 37,975 303 407 1024
2020-07-13 15:55:32 GMT 50.582497 17.734085 37,875 303 406 1280
2020-07-13 15:55:28 GMT 50.579956 17.740536 37,825 303 406 1472
2020-07-13 15:55:25 GMT 50.576725 17.748487 37,575 303 406 1472
2020-07-13 15:55:22 GMT 50.572395 17.759399 37,675 303 407 1472
2020-07-13 15:55:19 GMT 50.570892 17.763159 37,625 303 407 1472
2020-07-13 15:55:16 GMT 50.564064 17.780258 37,425 303 407 1536
2020-07-13 15:55:13 GMT 50.564064 17.780258 37,425 303 407 1536
2020-07-13 15:55:10 GMT 50.560944 17.788054 37,325 297 412 1856
2020-07-13 15:55:07 GMT 50.554413 17.804358 37,225 303 407 1472
2020-07-13 15:55:04 GMT 50.552811 17.808405 37,175 302 407 1472
2020-07-13 15:54:58 GMT 50.549789 17.815992 37,075 302 407 1536
2020-07-13 15:54:55 GMT 50.544846 17.828499 36,950 302 407 1536
2020-07-13 15:54:52 GMT 50.543766 17.831257 36,875 302 407 1536
2020-07-13 15:54:49 GMT 50.541019 17.838234 36,875 302 408 1472
2020-07-13 15:54:46 GMT 50.533997 17.855890 36,725 302 408 1600
2020-07-13 15:54:40 GMT 50.528824 17.869118 36,550 302 408 1600
2020-07-13 15:54:37 GMT 50.525845 17.876835 36,275 298 410 1664
2020-07-13 15:54:31 GMT 50.523235 17.883886 36,325 299 410 1664
2020-07-13 15:54:28 GMT 50.520355 17.891958 36,225 298 410 1664
2020-07-13 15:54:25 GMT 50.517242 17.901211 35,900 297 411 1664
2020-07-13 15:54:20 GMT 50.512669 17.915287 36,025 297 410 1728
2020-07-13 15:54:17 GMT 50.510651 17.921593 35,925 297 411 1728
2020-07-13 15:54:14 GMT 50.508133 17.929470 35,875 297 411 1664
2020-07-13 15:54:10 GMT 50.504929 17.939373 35,775 297 411 1664
2020-07-13 15:54:07 GMT 50.501404 17.950323 35,700 297 411 1728
2020-07-13 15:54:04 GMT 50.499962 17.954851 35,575 297 411 1792
2020-07-13 15:54:01 GMT 50.494446 17.972042 35,075 297 413 1728
2020-07-13 15:53:58 GMT 50.491581 17.980907 35,325 297 413 1792
2020-07-13 15:53:52 GMT 50.489319 17.987944 35,225 297 413 1792
2020-07-13 15:53:49 GMT 50.486206 17.997629 35,150 297 413 1792
2020-07-13 15:53:46 GMT 50.484459 18.003103 35,100 297 413 1856
2020-07-13 15:53:43 GMT 50.481995 18.010712 35,000 297 413 1792
2020-07-13 15:53:40 GMT 50.478687 18.020992 34,875 297 413 1728
2020-07-13 15:53:37 GMT 50.476589 18.027525 34,750 297 413 1728
2020-07-13 15:53:34 GMT 50.473892 18.035866 34,700 297 413 1728
2020-07-13 15:53:31 GMT 50.471237 18.044004 34,525 297 413 1728
2020-07-13 15:53:27 GMT 50.467758 18.054802 34,525 297 412 1728
2020-07-13 15:53:23 GMT 50.463913 18.066727 33,850 297 412 1856
2020-07-13 15:53:19 GMT 50.460392 18.077633 34,225 297 412 1856
2020-07-13 15:53:16 GMT 50.458900 18.082161 34,175 297 412 1856
2020-07-13 15:53:13 GMT 50.455830 18.091736 34,000 297 412 1856
2020-07-13 15:53:09 GMT 50.451687 18.104504 33,900 297 412 1856
2020-07-13 15:53:06 GMT 50.449776 18.110294 33,700 297 412 1856
2020-07-13 15:53:03 GMT 50.447544 18.117271 33,750 297 412 1920
2020-07-13 15:53:00 GMT 50.444935 18.125290 33,675 297 412 1920
2020-07-13 15:52:56 GMT 50.441254 18.136621 33,525 297 412 1792
2020-07-13 15:52:53 GMT 50.438690 18.144499 33,450 297 412 1728
2020-07-13 15:52:50 GMT 50.436035 18.152594 33,375 297 412 1792
2020-07-13 15:52:47 GMT 50.433014 18.161846 33,175 298 411 1856
2020-07-13 15:52:44 GMT 50.431229 18.167339 33,225 298 411 1856
2020-07-13 15:52:41 GMT 50.427666 18.178289 33,075 298 411 1920
2020-07-13 15:52:38 GMT 50.425526 18.184896 32,800 298 411 1920
2020-07-13 15:52:35 GMT 50.423336 18.191652 32,850 298 411 1920
2020-07-13 15:52:32 GMT 50.420589 18.200113 32,775 298 411 1920
2020-07-13 15:52:29 GMT 50.415115 18.216850 32,550 298 411 2176
2020-07-13 15:52:26 GMT 50.415115 18.216850 32,575 298 411 2176
2020-07-13 15:52:23 GMT 50.412094 18.226173 32,425 298 411 2240
2020-07-13 15:52:18 GMT 50.407883 18.239038 32,300 298 411 2176
2020-07-13 15:52:15 GMT 50.405502 18.246340 32,225 298 411 2176
2020-07-13 15:52:11 GMT 50.402248 18.256382 32,100 298 412 2304
2020-07-13 15:52:08 GMT 50.399002 18.266361 31,900 298 413 2304
2020-07-13 15:52:05 GMT 50.396523 18.273901 31,750 298 413 2304
2020-07-13 15:52:02 GMT 50.394428 18.280285 31,675 298 413 2368
2020-07-13 15:51:59 GMT 50.391914 18.288006 31,600 298 413 2368
2020-07-13 15:51:56 GMT 50.388935 18.297211 31,500 297 414 2432
2020-07-13 15:51:53 GMT 50.385818 18.306692 31,400 297 414 2432
2020-07-13 15:51:50 GMT 50.383209 18.314802 31,225 297 414 2432
2020-07-13 15:51:47 GMT 50.381348 18.320444 31,150 298 415 2432
2020-07-13 15:51:44 GMT 50.378597 18.328907 31,000 298 415 2496
2020-07-13 15:51:41 GMT 50.375851 18.337147 30,875 298 415 2624
2020-07-13 15:51:37 GMT 50.372314 18.347963 30,675 298 416 2304
2020-07-13 15:51:34 GMT 50.369892 18.355482 30,525 298 416 1792
2020-07-13 15:51:31 GMT 50.367287 18.363352 30,475 298 415 1792
2020-07-13 15:51:27 GMT 50.363388 18.375357 30,275 298 415 1856
2020-07-13 15:51:24 GMT 50.361191 18.382078 30,100 298 414 1920
2020-07-13 15:51:21 GMT 50.358486 18.390297 30,175 298 414 1920
2020-07-13 15:51:16 GMT 50.353775 18.404556 30,025 298 413 1792
2020-07-13 15:51:13 GMT 50.351578 18.411280 29,875 298 412 1856
2020-07-13 15:51:10 GMT 50.349689 18.417021 29,200 298 411 2048
2020-07-13 15:51:06 GMT 50.345547 18.429714 29,725 298 411 2048
2020-07-13 15:51:03 GMT 50.342560 18.438889 29,575 298 411 2048
2020-07-13 15:50:57 GMT 50.337772 18.453468 29,425 298 410 1920
2020-07-13 15:50:54 GMT 50.334503 18.463392 29,275 298 410 1920
2020-07-13 15:50:50 GMT 50.329163 18.479597 29,075 298 409 2048
2020-07-13 15:50:47 GMT 50.326538 18.487677 29,025 298 407 1984
2020-07-13 15:50:44 GMT 50.326538 18.487677 28,950 298 407 1984
2020-07-13 15:50:41 GMT 50.323792 18.495916 28,900 298 407 1920
2020-07-13 15:50:38 GMT 50.321247 18.503723 28,775 298 406 1984
2020-07-13 15:50:34 GMT 50.317978 18.513624 28,650 298 406 2112
2020-07-13 15:50:31 GMT 50.314682 18.523766 28,475 298 404 2112
2020-07-13 15:50:25 GMT 50.310307 18.536905 28,275 298 403 2048
2020-07-13 15:50:22 GMT 50.304909 18.553385 28,150 298 403 2176
2020-07-13 15:50:19 GMT 50.304909 18.553385 28,075 298 402 2240
2020-07-13 15:50:16 GMT 50.299805 18.568918 27,900 298 402 2240
2020-07-13 15:50:13 GMT 50.299805 18.568918 27,850 298 401 2240
2020-07-13 15:50:09 GMT 50.297134 18.576990 27,775 298 401 2240
2020-07-13 15:50:06 GMT 50.294201 18.585823 27,425 298 401 2368
2020-07-13 15:50:03 GMT 50.291840 18.592987 27,550 298 401 2432
2020-07-13 15:50:00 GMT 50.288773 18.602240 27,450 298 401 2432
2020-07-13 15:49:57 GMT 50.286285 18.609875 27,325 298 400 2304
2020-07-13 15:49:54 GMT 50.284012 18.616693 27,175 298 400 2240
2020-07-13 15:49:51 GMT 50.278465 18.633406 26,925 298 398 2368
2020-07-13 15:49:48 GMT 50.278465 18.633406 26,925 298 398 2432
2020-07-13 15:49:44 GMT 50.275314 18.642788 26,775 298 398 2368
2020-07-13 15:49:41 GMT 50.273071 18.649652 26,675 297 398 2304
2020-07-13 15:49:38 GMT 50.270130 18.658941 26,525 296 397 2304
2020-07-13 15:49:34 GMT 50.267349 18.668301 26,375 293 397 2560
2020-07-13 15:49:31 GMT 50.265152 18.676107 26,275 293 398 2560
2020-07-13 15:49:28 GMT 50.263058 18.684032 26,025 288 396 2368
2020-07-13 15:49:24 GMT 50.260208 18.696056 25,950 290 397 2304
2020-07-13 15:49:21 GMT 50.258633 18.703110 25,800 288 396 2368
2020-07-13 15:49:18 GMT 50.254486 18.723740 25,650 288 395 2368
2020-07-13 15:49:14 GMT 50.254486 18.723740 25,550 288 395 2368
2020-07-13 15:49:11 GMT 50.252930 18.731544 25,475 288 394 2368
2020-07-13 15:49:08 GMT 50.251324 18.739632 25,325 288 394 2368
2020-07-13 15:49:05 GMT 50.249462 18.748837 25,150 288 393 2496
2020-07-13 15:49:01 GMT 50.247276 18.759897 25,000 288 392 2560
2020-07-13 15:48:58 GMT 50.244461 18.774046 24,875 288 391 2496
2020-07-13 15:48:54 GMT 50.244461 18.774046 24,800 288 391 2432
2020-07-13 15:48:51 GMT 50.240803 18.792337 24,500 288 388 2560
2020-07-13 15:48:45 GMT 50.237545 18.808519 24,300 288 388 2496
2020-07-13 15:48:42 GMT 50.237545 18.808519 24,225 288 387 2496
2020-07-13 15:48:39 GMT 50.235451 18.818838 24,150 288 387 2496
2020-07-13 15:48:33 GMT 50.232750 18.832348 23,900 288 385 2560
2020-07-13 15:48:30 GMT 50.230637 18.842999 23,825 288 385 2624
2020-07-13 15:48:27 GMT 50.229679 18.847788 23,650 288 384 2688
2020-07-13 15:48:24 GMT 50.228188 18.855062 23,500 288 383 2816
2020-07-13 15:48:21 GMT 50.226372 18.864267 23,425 288 382 2816
2020-07-13 15:48:17 GMT 50.224045 18.875626 23,125 288 381 2688
2020-07-13 15:48:14 GMT 50.222881 18.881491 23,000 288 381 2624
2020-07-13 15:48:11 GMT 50.221252 18.889545 22,900 288 380 2560
2020-07-13 15:48:08 GMT 50.219391 18.898787 22,775 288 379 2560
2020-07-13 15:48:04 GMT 50.217297 18.909031 22,600 288 378 2560
2020-07-13 15:48:01 GMT 50.215759 18.916651 22,575 288 378 2560
2020-07-13 15:47:57 GMT 50.213852 18.926104 22,275 288 373 2880
2020-07-13 15:47:54 GMT 50.212315 18.933748 22,150 288 375 2816
2020-07-13 15:47:51 GMT 50.210640 18.941990 22,000 288 374 2880
2020-07-13 15:47:47 GMT 50.208481 18.952644 20,725 288 373 2816
2020-07-13 15:47:44 GMT 50.207146 18.959358 21,575 288 371 2816
2020-07-13 15:47:41 GMT 50.205334 18.968342 21,525 288 371 2816
2020-07-13 15:47:37 GMT 50.201706 18.986111 21,250 288 369 3008
2020-07-13 15:47:34 GMT 50.201706 18.986111 21,075 288 368 3008
2020-07-13 15:47:31 GMT 50.199699 18.996029 20,975 288 368 2880
2020-07-13 15:47:26 GMT 50.197975 19.004566 20,850 288 366 2752
2020-07-13 15:47:23 GMT 50.194859 19.020081 20,525 288 363 3200
2020-07-13 15:47:20 GMT 50.192276 19.032728 20,425 288 363 3072
2020-07-13 15:47:16 GMT 50.192276 19.032728 20,275 288 363 3200
2020-07-13 15:47:13 GMT 50.191269 19.037788 20,175 288 362 3200
2020-07-13 15:47:10 GMT 50.189735 19.045319 20,000 288 362 3264
2020-07-13 15:47:07 GMT 50.187641 19.055712 19,775 288 361 3200
2020-07-13 15:47:03 GMT 50.184174 19.072771 19,400 288 359 3136
2020-07-13 15:46:56 GMT 50.182613 19.080357 19,125 288 357 3136
2020-07-13 15:46:53 GMT 50.181080 19.087929 19,100 288 357 3136
2020-07-13 15:46:49 GMT 50.179459 19.095827 18,950 288 356 3072
2020-07-13 15:46:46 GMT 50.177631 19.104853 18,725 288 354 3008
2020-07-13 15:46:43 GMT 50.175980 19.112959 18,575 288 353 3200
2020-07-13 15:46:39 GMT 50.174286 19.121199 18,400 288 353 3328
2020-07-13 15:46:36 GMT 50.172375 19.130611 18,175 288 352 3328
2020-07-13 15:46:32 GMT 50.171116 19.136847 17,925 288 350 3136
2020-07-13 15:46:29 GMT 50.169533 19.144493 17,850 288 349 3136
2020-07-13 15:46:26 GMT 50.167763 19.153177 17,675 288 348 3264
2020-07-13 15:46:23 GMT 50.166092 19.161312 17,475 288 348 3392
2020-07-13 15:46:19 GMT 50.164398 19.169769 17,375 288 346 3712
2020-07-13 15:46:15 GMT 50.162598 19.178566 16,975 288 346 3776
2020-07-13 15:46:12 GMT 50.160969 19.186583 16,725 288 346 3776
2020-07-13 15:46:09 GMT 50.159500 19.193838 16,725 288 346 3776
2020-07-13 15:46:05 GMT 50.157166 19.205257 16,400 288 345 3648
2020-07-13 15:46:02 GMT 50.154602 19.217690 16,150 288 344 3328
2020-07-13 15:45:54 GMT 50.151096 19.234686 15,625 288 340 3648
2020-07-13 15:45:48 GMT 50.149658 19.241831 15,450 288 340 3904
2020-07-13 15:45:45 GMT 50.148121 19.249235 15,200 288 339 4032
2020-07-13 15:45:42 GMT 50.146397 19.257549 14,975 288 339 3776
2020-07-13 15:45:39 GMT 50.144909 19.264750 14,800 288 338 3712
2020-07-13 15:45:34 GMT 50.143044 19.273880 14,625 288 337 3904
2020-07-13 15:45:31 GMT 50.141415 19.281673 14,300 288 337 4096
2020-07-13 15:45:28 GMT 50.140018 19.288355 14,100 288 337 4096
2020-07-13 15:45:25 GMT 50.138260 19.296835 13,850 288 336 3968
2020-07-13 15:45:21 GMT 50.135971 19.308039 13,525 288 335 3968
2020-07-13 15:45:18 GMT 50.135010 19.312737 13,400 288 335 3968
2020-07-13 15:45:14 GMT 50.133316 19.320793 13,175 288 334 3840
2020-07-13 15:45:10 GMT 50.130802 19.332968 12,850 288 332 3648
2020-07-13 15:45:04 GMT 50.126938 19.351601 12,425 288 328 3904
2020-07-13 15:45:01 GMT 50.126938 19.351601 12,325 288 328 4032
2020-07-13 15:44:58 GMT 50.125488 19.358488 12,125 288 328 4224
2020-07-13 15:44:54 GMT 50.123913 19.366150 11,875 288 327 4032
2020-07-13 15:44:51 GMT 50.122238 19.374172 11,650 288 326 3904
2020-07-13 15:44:48 GMT 50.120773 19.381256 11,450 289 326 4224
2020-07-13 15:44:44 GMT 50.119164 19.389088 11,175 288 325 4480
2020-07-13 15:44:40 GMT 50.117302 19.397846 10,900 288 325 4288
2020-07-13 15:44:37 GMT 50.115952 19.404379 10,575 288 324 4608
2020-07-13 15:44:34 GMT 50.114555 19.411135 10,400 288 324 4672
2020-07-13 15:44:31 GMT 50.112694 19.420042 10,150 288 324 4608
2020-07-13 15:44:27 GMT 50.111252 19.426947 9,925 288 324 4160
2020-07-13 15:44:23 GMT 50.109604 19.435032 9,700 288 323 3648
2020-07-13 15:44:19 GMT 50.107803 19.443796 9,150 288 311 4224
2020-07-13 15:44:16 GMT 50.106594 19.449808 9,275 288 320 4096
2020-07-13 15:44:13 GMT 50.105057 19.457380 9,025 288 319 4096
2020-07-13 15:44:10 GMT 50.103287 19.465822 8,775 288 317 3712
2020-07-13 15:44:06 GMT 50.102032 19.471930 8,600 288 314 3776
2020-07-13 15:44:03 GMT 50.100586 19.478905 8,375 288 314 4096
2020-07-13 15:44:00 GMT 50.099304 19.485193 8,125 288 311 4160
2020-07-13 15:43:57 GMT 50.097427 19.494371 7,875 288 310 3968
2020-07-13 15:43:53 GMT 50.094635 19.508322 7,475 288 306 3776
2020-07-13 15:43:49 GMT 50.093094 19.515949 7,325 288 305 3904
2020-07-13 15:43:46 GMT 50.093094 19.515949 7,225 288 305 4032
2020-07-13 15:43:43 GMT 50.091839 19.522112 7,000 288 302 4224
2020-07-13 15:43:40 GMT 50.090424 19.529209 6,775 288 302 4480
2020-07-13 15:43:36 GMT 50.088867 19.536798 6,500 288 301 4544
2020-07-13 15:43:32 GMT 50.087402 19.543955 6,250 288 301 4416
2020-07-13 15:43:29 GMT 50.086121 19.550316 6,025 288 300 4352
2020-07-13 15:43:26 GMT 50.084656 19.557543 5,750 288 298 4416
2020-07-13 15:43:23 GMT 50.083282 19.564121 5,525 288 297 4480
2020-07-13 15:43:19 GMT 50.081783 19.571327 5,275 288 295 3904
2020-07-13 15:43:16 GMT 50.080353 19.578215 5,075 289 292 2624
2020-07-13 15:43:12 GMT 50.078796 19.585661 4,975 289 287 1408
2020-07-13 15:43:09 GMT 50.076660 19.595528 4,875 289 275 1024
2020-07-13 15:43:06 GMT 50.076660 19.595528 4,850 289 272 1024
2020-07-13 15:43:03 GMT 50.074722 19.604597 4,775 289 268 1088
2020-07-13 15:43:00 GMT 50.073669 19.609295 4,725 290 262 1152
2020-07-13 15:42:56 GMT 50.072098 19.616238 4,675 290 255 1152
2020-07-13 15:42:52 GMT 50.070843 19.621880 4,600 290 248 960
2020-07-13 15:42:45 GMT 50.068283 19.632866 4,475 291 235 1088
2020-07-13 15:42:41 GMT 50.066757 19.639362 4,425 291 229 1024
2020-07-13 15:42:35 GMT 50.064514 19.649048 4,325 288 219 1088
2020-07-13 15:42:32 GMT 50.063599 19.654106 4,225 283 213 1664
2020-07-13 15:42:25 GMT 50.062454 19.664009 3,650 272 206 3072
2020-07-13 15:42:21 GMT 50.062325 19.669016 3,800 269 206 3200
2020-07-13 15:42:15 GMT 50.062927 19.678963 3,575 261 206 3136
2020-07-13 15:42:11 GMT 50.063580 19.684381 3,225 259 204 3264
2020-07-13 15:42:04 GMT 50.064838 19.694181 2,900 259 204 3200
2020-07-13 15:42:01 GMT 50.065430 19.698704 2,700 259 203 2944
2020-07-13 15:41:54 GMT 50.066605 19.708212 2,400 259 200 2240
2020-07-13 15:41:50 GMT 50.067303 19.713703 2,300 260 196 1728
2020-07-13 15:41:44 GMT 50.068405 19.722410 2,150 259 186 1152
2020-07-13 15:41:40 GMT 50.068981 19.726843 2,100 259 179 1216
2020-07-13 15:41:34 GMT 50.070145 19.735380 1,300 258 167 960
2020-07-13 15:41:31 GMT 50.070747 19.739536 1,900 257 162 1408
2020-07-13 15:41:23 GMT 50.072517 19.750746 1,300 257 150 2048
2020-07-13 15:41:20 GMT 50.072517 19.750746 1,625 257 152 1792
2020-07-13 15:41:14 GMT 50.073532 19.757175 1,450 256 149 2304
2020-07-13 15:41:10 GMT 50.074173 19.761152 1,250 256 148 2432
2020-07-13 15:41:05 GMT 50.075089 19.766718 1,000 257 151 2624
2020-07-13 15:41:00 GMT 50.075916 19.772123 800 257 150 2112
2020-07-13 15:40:48 GMT 50.077591 19.783928 575 258 145 448
2020-07-13 15:40:42 GMT 50.078384 19.789629 550 258 118 0
2020-07-13 15:40:39 GMT 50.078754 19.792168 550 258 107 0
2020-07-13 15:40:32 GMT 50.079391 19.796822 0 258 76
2020-07-13 15:40:29 GMT 50.079617 19.798458 0 258 67
2020-07-13 15:40:20 GMT 50.080032 19.801464 0 255 24
2020-07-13 15:39:39 GMT 50.080158 19.802189 0 253 4
2020-07-13 15:39:33 GMT 50.080212 19.802338 0 258 4
2020-07-13 15:39:29 GMT 50.080235 19.802448 0 284 5
2020-07-13 15:39:19 GMT 50.080116 19.802746 0 340 8
2020-07-13 15:39:09 GMT 50.079735 19.802931 0 345 11
2020-07-13 15:39:01 GMT 50.079269 19.803061 0 345 13
2020-07-13 15:38:57 GMT 50.079151 19.803099 0 345 13
2020-07-13 15:38:48 GMT 50.078613 19.803289 0 345 10
2020-07-13 15:38:37 GMT 50.078209 19.803432 0 357 9
2020-07-13 15:38:27 GMT 50.077812 19.803326 0 56 9
2020-07-13 15:38:17 GMT 50.077686 19.802818 0 78 10
2020-07-13 15:38:06 GMT 50.077579 19.802021 0 78 14
2020-07-13 15:38:00 GMT 50.077511 19.801502 0 78 13
2020-07-13 15:37:52 GMT 50.077412 19.800797 0 78 11
2020-07-13 15:37:47 GMT 50.077347 19.800407 0 56 10
2020-07-13 15:37:36 GMT 50.077023 19.799980 0 22 11
2020-07-13 15:37:31 GMT 50.076782 19.799822 0 22 12
2020-07-13 15:37:22 GMT 50.076370 19.799532 0 22 12
2020-07-13 15:37:16 GMT 50.076084 19.799334 0 22 9
2020-07-13 15:37:10 GMT 50.075859 19.799200 0 14 9
2020-07-13 15:37:05 GMT 50.075695 19.799145 0 351 9
2020-07-13 15:37:00 GMT 50.075443 19.799225 0 348 11
2020-07-13 15:36:56 GMT 50.075214 19.799297 0 345 13
2020-07-13 15:36:49 GMT 50.074856 19.799423 0 348 13
2020-07-13 15:36:45 GMT 50.074642 19.799496 0 348 12
2020-07-13 15:36:42 GMT 50.074463 19.799553 0 348 11
2020-07-13 15:36:35 GMT 50.074150 19.799658 0 320 11
2020-07-13 15:36:31 GMT 50.074009 19.799887 0 281 10
2020-07-13 15:36:25 GMT 50.073990 19.800291 0 255 11
2020-07-13 15:36:18 GMT 50.074059 19.800741 0 258 12
2020-07-13 15:36:14 GMT 50.074104 19.801086 0 258 11
2020-07-13 15:36:04 GMT 50.074207 19.801743 0 255 7
2020-07-13 15:36:00 GMT 50.074230 19.801910 0 255 5
2020-07-13 15:35:41 GMT 50.074242 19.802021 0 253 0
2020-07-13 15:35:36 GMT 50.074242 19.802025 0 253 0
2020-07-13 15:35:28 GMT 50.074253 19.802025 0 253 0
2020-07-13 15:35:22 GMT 50.074253 19.802021 0 253 0
2020-07-13 15:35:12 GMT 50.074253 19.802025 0 253 0
2020-07-13 15:35:07 GMT 50.074253 19.802021 0 253 0
2020-07-13 15:34:57 GMT 50.074253 19.802025 0 253 0
2020-07-13 15:34:52 GMT 50.074253 19.802021 0 253 0
2020-07-13 15:34:42 GMT 50.074253 19.802025 0 253 0
2020-07-13 15:34:37 GMT 50.074253 19.802021 0 253 0
2020-07-13 15:34:27 GMT 50.074253 19.802025 0 253 0
2020-07-13 15:34:22 GMT 50.074253 19.802021 0 253 0
2020-07-13 15:34:18 GMT 50.074253 19.802025 0 253 0
2020-07-13 15:34:13 GMT 50.074253 19.802021 0 253 0
2020-07-13 15:34:01 GMT 50.074253 19.802025 0 253 0
2020-07-13 15:33:47 GMT 50.074253 19.802021 0 253 0
2020-07-13 15:33:28 GMT 50.074253 19.802025 0 253 0
2020-07-13 15:33:21 GMT 50.074242 19.801966 0 253 2
2020-07-13 15:33:18 GMT 50.074242 19.801929 0 253 2
2020-07-13 15:33:11 GMT 50.074219 19.801863 0 250 3
2020-07-13 15:33:07 GMT 50.074181 19.801800 0 239 3
2020-07-13 15:32:58 GMT 50.074100 19.801743 0 219 2
2020-07-13 15:32:51 GMT 50.074043 19.801723 0 202 2
2020-07-13 15:32:48 GMT 50.074013 19.801737 0 196 2
2020-07-13 15:32:41 GMT 50.073956 19.801754 0 180 3
2020-07-13 15:32:37 GMT 50.073921 19.801771 0 174 2
2020-07-13 15:32:28 GMT 50.073818 19.801807 0 168 3
2020-07-13 15:32:12 GMT 50.073624 19.801836 0 171 3

Making use of Plane Finder data

You are free to use the raw flight data, aircraft information and images provided in this report for your own purposes provided the data is correctly attributed to Plane Finder. We ask that you please credit Plane Finder and link to planefinder.net in close proximity to the content.

Optionally one of the following logos (no smaller then 150x24px) can be used and must link to planefinder.net

Embedding the Plane Finder map

You are welcome to embed the Plane Finder playback map on your website to offer visitors a more interactive experience. We suggest using the following HTML code:

<iframe src="//planefinder.net/data/report/FR1902-SP-RSQ-7700-squawk-2020-07-13/map" width="800" height="600" seamless="seamless"></iframe>

Where our data comes from

Plane Finder has a global network of data feeds and antenna radars that receive data broadcast directly from aircraft. The primary technologies used are ADS-B and MLAT. We also show feeds from the FAA and a FLARM glider feed.

Click here to find out more about the Plane Finder network.

How we collect our data